When it's done, it's done.

PRE DATA

Datetime Category Release
2023-12-12 00:00:16 TV-WEB-HD-X264 Love.Fool.S01E01.GERMAN.720p.WEB.x264-RUBBiSH
2023-12-12 00:00:20 TV-WEB-HD-X264 Love.Fool.S01E01.GERMAN.1080p.WEB.x264-RUBBiSH
2023-12-12 00:00:49 TV-WEB-HD-X264 Sydanjaa.S02E10.FiNNiSH.720p.WEB.H264-NETTiTV
2023-12-12 00:00:55 TV-WEB-HD-X264 Dew.Drop.Diaries.S01E16.NORWEGiAN.1080p.WEB.h264-NORKiDS
2023-12-12 00:02:54 TV-WEB-HD-X264 Dew.Drop.Diaries.S01E17.NORWEGiAN.720p.WEB.h264-NORKiDS
2023-12-12 00:03:07 TV-WEB-HD-X264 Sydanjaa.S02E11.FiNNiSH.1080p.WEB.H264-NETTiTV
2023-12-12 00:03:31 TV-WEB-HD-X264 Temptation.Island.VIP.S04E11.GERMAN.1080p.WEB.x264-RUBBiSH
2023-12-12 00:04:15 TV-WEB-HD-X264 Temptation.Island.VIP.S04E11.GERMAN.720p.WEB.x264-RUBBiSH
2023-12-12 00:04:54 TV-WEB-HD-X264 Dew.Drop.Diaries.S01E17.NORWEGiAN.1080p.WEB.h264-NORKiDS
2023-12-12 00:05:24 TV-WEB-HD-X264 Sydanjaa.S02E11.FiNNiSH.720p.WEB.H264-NETTiTV
2023-12-12 00:06:54 TV-WEB-HD-X264 Dew.Drop.Diaries.S01E18.NORWEGiAN.720p.WEB.h264-NORKiDS
2023-12-12 00:07:22 TV-WEB-HD-X264 Julkalendern.2023.Tinka.och.Sjalens.Spegel.E12.SWEDiSH.1080p.WEB.h264-NotDanishAtAll
2023-12-12 00:07:40 TV-WEB-HD-X264 Sydanjaa.S02E12.FiNNiSH.1080p.WEB.H264-NETTiTV
2023-12-12 00:08:50 X264-HD Hackers.1995.REMASTERED.BRAZiLiAN.PORTUGUESE.1080p.BLURAY.x264-SiMPLES
2023-12-12 00:08:54 TV-WEB-HD-X264 Dew.Drop.Diaries.S01E18.NORWEGiAN.1080p.WEB.h264-NORKiDS
2023-12-12 00:09:58 TV-WEB-HD-X264 Sydanjaa.S02E12.FiNNiSH.720p.WEB.H264-NETTiTV
2023-12-12 00:10:55 TV-WEB-HD-X264 Dew.Drop.Diaries.S01E19.NORWEGiAN.720p.WEB.h264-NORKiDS
2023-12-12 00:12:15 TV-WEB-HD-X264 Sydanjaa.S03E01.FiNNiSH.1080p.WEB.H264-NETTiTV
2023-12-12 00:12:54 TV-WEB-HD-X264 Dew.Drop.Diaries.S01E19.NORWEGiAN.1080p.WEB.h264-NORKiDS
2023-12-12 00:13:08 TV-WEB-HD-X264 SurrealEstate.Spukhaeuser.in.Bestlage.S02E03.German.DL.1080p.WEB.h264.REPACK-WvF
2023-12-12 00:13:54 TV-WEB-HD-X264 SurrealEstate.Spukhaeuser.in.Bestlage.S02E04.German.DL.1080p.WEB.h264.REPACK-WvF
2023-12-12 00:14:32 TV-WEB-HD-X264 Sydanjaa.S03E01.FiNNiSH.720p.WEB.H264-NETTiTV
2023-12-12 00:14:41 TV-WEB-HD-X264 Annika.S02E05.German.DL.720p.WEB.h264-WvF
2023-12-12 00:14:55 TV-WEB-HD-X264 Dew.Drop.Diaries.S01E20.NORWEGiAN.720p.WEB.h264-NORKiDS
2023-12-12 00:15:14 TV-WEB-HD-X264 Julkalendern.2023.Tinka.och.Sjalens.Spegel.E12.SWEDiSH.720p.WEB.h264-NotDanishAtAll
2023-12-12 00:15:25 TV-WEB-HD-X264 Annika.S02E06.German.DL.720p.WEB.h264-WvF
2023-12-12 00:15:36 X264-HD Hackers.1995.REMASTERED.BRAZiLiAN.PORTUGUESE.720p.BLURAY.x264-SiMPLES
2023-12-12 00:16:49 TV-WEB-HD-X264 Sydanjaa.S03E02.FiNNiSH.1080p.WEB.H264-NETTiTV
2023-12-12 00:16:55 TV-WEB-HD-X264 Dew.Drop.Diaries.S01E20.NORWEGiAN.1080p.WEB.h264-NORKiDS
2023-12-12 00:17:47 TV-WEB-HD-X264 Annika.2021.S02E05.GERMAN.DL.1080P.WEB.H264-WAYNE
2023-12-12 00:18:09 MP3-WEB Justin_Case-It_All_Makes_Cents-WEB-2020-RAGEMP3
2023-12-12 00:18:31 TV-WEB-HD-X264 Annika.2021.S02E06.GERMAN.DL.1080P.WEB.H264-WAYNE
2023-12-12 00:18:55 TV-WEB-HD-X264 Dew.Drop.Diaries.S01E21.NORWEGiAN.720p.WEB.h264-NORKiDS
2023-12-12 00:19:06 TV-WEB-HD-X264 Sydanjaa.S03E02.FiNNiSH.720p.WEB.H264-NETTiTV
2023-12-12 00:19:08 MP3-WEB Justin_Case-At_All_Cost-WEB-2021-RAGEMP3
2023-12-12 00:20:08 MP3-WEB Justin_Case-Juiceston-WEB-2023-RAGEMP3
2023-12-12 00:20:54 TV-WEB-HD-X264 Dew.Drop.Diaries.S01E21.NORWEGiAN.1080p.WEB.h264-NORKiDS
2023-12-12 00:21:24 TV-WEB-HD-X264 Sydanjaa.S03E03.FiNNiSH.1080p.WEB.H264-NETTiTV
2023-12-12 00:22:54 TV-WEB-HD-X264 Dew.Drop.Diaries.S01E22.NORWEGiAN.720p.WEB.h264-NORKiDS
2023-12-12 00:23:14 FLAC-WEB Abstain-Winter_Promo-16BIT-WEB-FLAC-2023-VEXED
2023-12-12 00:23:40 TV-WEB-HD-X264 Sydanjaa.S03E03.FiNNiSH.720p.WEB.H264-NETTiTV
2023-12-12 00:23:45 FLAC-WEB Achterlicht-Demo_II-16BIT-WEB-FLAC-2023-VEXED
2023-12-12 00:24:17 FLAC-WEB Afflictive_Nature-Palace_Of_Pain-16BIT-WEB-FLAC-2019-VEXED
2023-12-12 00:24:48 FLAC-WEB Afflictive_Nature-Skull_Dice-16BIT-WEB-FLAC-2018-VEXED
2023-12-12 00:24:54 TV-WEB-HD-X264 Dew.Drop.Diaries.S01E22.NORWEGiAN.1080p.WEB.h264-NORKiDS
2023-12-12 00:25:20 FLAC-WEB Afterburn-Open_Eyes_Long_Blinded-16BIT-WEB-FLAC-2019-VEXED
2023-12-12 00:25:52 FLAC-WEB Alien_Nosejob-Buffet_Of_Love-16BIT-WEB-FLAC-2019-VEXED
2023-12-12 00:25:57 TV-WEB-HD-X264 Sydanjaa.S03E04.FiNNiSH.1080p.WEB.H264-NETTiTV
2023-12-12 00:26:09 TV-WEB-HD-X264 7.vs.Wild.S03E13.GERMAN.1080p.WEB.H264-MGE
2023-12-12 00:26:24 FLAC-WEB Alien_Nosejob-Hc45-16BIT-WEB-FLAC-2019-VEXED
2023-12-12 00:26:54 TV-WEB-HD-X264 Dew.Drop.Diaries.S01E23.NORWEGiAN.720p.WEB.h264-NORKiDS
2023-12-12 00:26:55 FLAC-WEB Alien_Nosejob-Hc45-2-16BIT-WEB-FLAC-2021-VEXED
2023-12-12 00:27:27 FLAC-WEB Alien_Nosejob-Once_Again_The_Present_Becomes_The_Past-16BIT-WEB-FLAC-2020-VEXED
2023-12-12 00:27:58 FLAC-WEB Alien_Nosejob-Paint_It_Clear-16BIT-WEB-FLAC-2021-VEXED
2023-12-12 00:28:09 TV-WEB-HD-X264 7.vs.Wild.S03E13.GERMAN.720p.WEB.H264-MGE
2023-12-12 00:28:14 TV-WEB-HD-X264 Sydanjaa.S03E04.FiNNiSH.720p.WEB.H264-NETTiTV
2023-12-12 00:28:30 FLAC-WEB Alien_Nosejob-Stained_Glass-16BIT-WEB-FLAC-2022-VEXED
2023-12-12 00:28:47 TV-WEB-HD-X264 Der.fluessige.Adventskalender.-.24.Biere.bis.Weihnachten.S01E12.GERMAN.1080p.WEB.H264-MGE
2023-12-12 00:28:55 TV-WEB-HD-X264 Dew.Drop.Diaries.S01E23.NORWEGiAN.1080p.WEB.h264-NORKiDS
2023-12-12 00:29:00 FLAC-WEB Alien_Nosejob-Suddenly_Everything_Is_Twice_As_Loud-16BIT-WEB-FLAC-2020-VEXED
2023-12-12 00:29:06 TV-WEB-HD-X264 Der.fluessige.Adventskalender.-.24.Biere.bis.Weihnachten.S01E12.GERMAN.720p.WEB.H264-MGE
2023-12-12 00:29:32 FLAC-WEB Alien_Nosejob-The_Derivative_Sounds_Of..._Or..._A_Dog_Always_Returns_To_Its_Vomit-16BIT-WEB-FLAC-2023-VEXED
2023-12-12 00:30:02 TV-WEB-HD-X264 The.Talk.2023.12.11.720p.WEB.h264-DiRT
2023-12-12 00:30:04 FLAC-WEB Alien_Nosejob-Various_Fads_And_Technological_Achievements-16BIT-WEB-FLAC-2018-VEXED
2023-12-12 00:30:28 TV-WEB-HD-X264 The.Talk.2023.12.11.1080p.WEB.h264-DiRT
2023-12-12 00:30:30 TV-WEB-HD-X264 Sydanjaa.S03E05.FiNNiSH.1080p.WEB.H264-NETTiTV
2023-12-12 00:30:36 FLAC-WEB All_Due_Respect-All_Due_Respect-Demo-16BIT-WEB-FLAC-2021-VEXED
2023-12-12 00:30:37 TV-WEB-HD-X264 Germany.Shore.S03E05.GERMAN.720p.WEB.h264-HAXE
2023-12-12 00:30:45 TV-WEB-HD-X264 Germany.Shore.S03E05.GERMAN.1080p.WEB.h264-HAXE
2023-12-12 00:30:55 TV-WEB-HD-X264 Dew.Drop.Diaries.S01E24.NORWEGiAN.720p.WEB.h264-NORKiDS
2023-12-12 00:31:04 TV-WEB-HD-X264 The.Bold.and.the.Beautiful.S37E56.1080p.WEB.h264-DiRT
2023-12-12 00:31:04 DOCU Heinz.im.Glueck.-.Goldene.Geschaefte.S03E07.GERMAN.DOKU.1080p.WEB.H264-MGE
2023-12-12 00:31:07 FLAC-WEB All_Too_Easy-A2E-16BIT-WEB-FLAC-2022-VEXED
2023-12-12 00:31:32 DOCU Heinz.im.Glueck.-.Goldene.Geschaefte.S03E07.GERMAN.DOKU.720p.WEB.H264-MGE
2023-12-12 00:31:38 FLAC-WEB Allegation-Cursed_Earth-16BIT-WEB-FLAC-2019-VEXED
2023-12-12 00:31:51 TV-WEB-HD-X264 The.Bold.and.the.Beautiful.S37E56.720p.WEB.h264-DiRT
2023-12-12 00:32:09 FLAC-WEB Allegation-Final_Fool-16BIT-WEB-FLAC-2021-VEXED
2023-12-12 00:32:36 TV-WEB-HD-X264 The.Young.and.the.Restless.S51E48.1080p.WEB.h264-DiRT
2023-12-12 00:32:42 FLAC-WEB Alley_Trash-Cement_Waits_For_No_Man-16BIT-WEB-FLAC-2019-VEXED
2023-12-12 00:32:47 TV-WEB-HD-X264 Sydanjaa.S03E05.FiNNiSH.720p.WEB.H264-NETTiTV
2023-12-12 00:32:55 TV-WEB-HD-X264 Dew.Drop.Diaries.S01E24.NORWEGiAN.1080p.WEB.h264-NORKiDS
2023-12-12 00:33:13 FLAC-WEB Alley_Trash-Foul-16BIT-WEB-FLAC-2022-VEXED
2023-12-12 00:33:13 DOCU Steel.Buddies.-.Stahlharte.Geschaefte.S11E11.GERMAN.DOKU.1080p.WEB.H264-MGE
2023-12-12 00:33:23 TV-WEB-HD-X264 The.Young.and.the.Restless.S51E48.720p.WEB.h264-DiRT
2023-12-12 00:33:39 DOCU Steel.Buddies.-.Stahlharte.Geschaefte.S11E11.GERMAN.DOKU.720p.WEB.H264-MGE
2023-12-12 00:33:45 FLAC-WEB Alley_Trash-New_Failures-16BIT-WEB-FLAC-2021-VEXED
2023-12-12 00:34:16 FLAC-WEB Amygdala-Besitos_Para_Todos_Mis_Haters-16BIT-WEB-FLAC-2022-VEXED
2023-12-12 00:34:47 FLAC-WEB Amygdala-Our_Voices_Will_Soar_Forever-16BIT-WEB-FLAC-2019-VEXED
2023-12-12 00:34:56 TV-WEB-HD-X264 Dew.Drop.Diaries.S01E25.NORWEGiAN.720p.WEB.h264-NORKiDS
2023-12-12 00:35:04 TV-WEB-HD-X264 Sydanjaa.S03E06.FiNNiSH.1080p.WEB.H264-NETTiTV
2023-12-12 00:35:19 FLAC-WEB Amygdala-Population_Control-16BIT-WEB-FLAC-2016-VEXED
2023-12-12 00:35:51 FLAC-WEB Amygdala__Listless-Amygdala__Listless-Split-16BIT-WEB-FLAC-2021-VEXED
2023-12-12 00:36:22 FLAC-WEB Anti_Stasi-Demo_2021-16BIT-WEB-FLAC-2021-VEXED
2023-12-12 00:36:54 TV-WEB-HD-X264 Dew.Drop.Diaries.S01E25.NORWEGiAN.1080p.WEB.h264-NORKiDS
2023-12-12 00:36:54 FLAC-WEB Antigen__Socialstyrelsen-A_Sense_Of_Dread-Split-16BIT-WEB-FLAC-2021-VEXED
2023-12-12 00:37:20 TV-WEB-HD-X264 Sydanjaa.S03E06.FiNNiSH.720p.WEB.H264-NETTiTV
2023-12-12 00:37:25 FLAC-WEB Arrogant-Demo_2021-16BIT-WEB-FLAC-2021-VEXED
2023-12-12 00:37:44 FLAC-WEB Azaroth-Reditus_Bellator-EP-16BIT-WEB-FLAC-2023-MOONBLOOD
2023-12-12 00:37:57 FLAC-WEB Back_4_More-Demo-16BIT-WEB-FLAC-2023-VEXED
2023-12-12 00:38:28 FLAC-WEB Fiori_del_Male-Con_un_grido_entrero_nellombra-IT-EP-16BIT-WEB-FLAC-2023-MOONBLOOD
2023-12-12 00:38:29 FLAC-WEB Backbiter-Blessed_By_Death-16BIT-WEB-FLAC-2021-VEXED
2023-12-12 00:38:55 TV-WEB-HD-X264 Dew.Drop.Diaries.S01E26.NORWEGiAN.720p.WEB.h264-NORKiDS
2023-12-12 00:38:59 FLAC-WEB Backbiter-Everything_Will_Fade-16BIT-WEB-FLAC-2023-VEXED
2023-12-12 00:39:10 FLAC-WEB Vergel-Hermetic_Aspect-EP-16BIT-WEB-FLAC-2023-MOONBLOOD
2023-12-12 00:39:31 FLAC-WEB Backbiter-Live_Set_Full_Send_Summer_Fest-16BIT-WEB-FLAC-2023-VEXED
2023-12-12 00:39:37 TV-WEB-HD-X264 Sydanjaa.S03E07.FiNNiSH.1080p.WEB.H264-NETTiTV
2023-12-12 00:40:03 FLAC-WEB Backbiter-Something_Worth_Suffering-16BIT-WEB-FLAC-2022-VEXED
2023-12-12 00:40:17 TV-WEB-HD-X264 The.Read.with.Kid.Fury.and.Crissle.West.S01E01.1080p.WEB.h264-COALESCENCE
2023-12-12 00:40:34 FLAC-WEB Backbiter-Stone_Cold_Stunner-16BIT-WEB-FLAC-2019-VEXED
2023-12-12 00:40:55 TV-WEB-HD-X264 Dew.Drop.Diaries.S01E26.NORWEGiAN.1080p.WEB.h264-NORKiDS
2023-12-12 00:41:06 FLAC-WEB Backstabbed-23-16BIT-WEB-FLAC-2019-VEXED
2023-12-12 00:41:17 TV-WEB-HD-X264 The.Read.with.Kid.Fury.and.Crissle.West.S01E02.1080p.WEB.h264-COALESCENCE
2023-12-12 00:41:37 FLAC-WEB Backstabbed-A_Note_To_Myself-16BIT-WEB-FLAC-2020-VEXED
2023-12-12 00:41:55 TV-WEB-HD-X264 Sydanjaa.S03E07.FiNNiSH.720p.WEB.H264-NETTiTV
2023-12-12 00:42:10 FLAC-WEB Backstabbed-Scapegoat-16BIT-WEB-FLAC-2019-VEXED
2023-12-12 00:42:18 TV-WEB-HD-X264 The.Read.with.Kid.Fury.and.Crissle.West.S01E03.1080p.WEB.h264-COALESCENCE
2023-12-12 00:42:40 FLAC-WEB Bad_Beat-Demo-16BIT-WEB-FLAC-2023-VEXED
2023-12-12 00:42:55 TV-WEB-HD-X264 Dew.Drop.Diaries.S01E27.NORWEGiAN.720p.WEB.h264-NORKiDS
2023-12-12 00:43:12 FLAC-WEB Bad_Image-Bad_Image-16BIT-WEB-FLAC-2022-VEXED
2023-12-12 00:43:18 TV-WEB-HD-X264 The.Read.with.Kid.Fury.and.Crissle.West.S01E04.1080p.WEB.h264-COALESCENCE
2023-12-12 00:43:44 FLAC-WEB Bad_Image-Part_One-16BIT-WEB-FLAC-2018-VEXED
2023-12-12 00:44:10 TV-WEB-HD-X264 Sydanjaa.S03E08.FiNNiSH.1080p.WEB.H264-NETTiTV
2023-12-12 00:44:15 FLAC-WEB Bad_Image-Part_Two-16BIT-WEB-FLAC-2019-VEXED
2023-12-12 00:44:18 TV-WEB-HD-X264 The.Read.with.Kid.Fury.and.Crissle.West.S01E05.1080p.WEB.h264-COALESCENCE
2023-12-12 00:44:46 FLAC-WEB Banda_Fuze-Banda_Fuze-Demo-16BIT-WEB-FLAC-2019-VEXED
2023-12-12 00:44:55 TV-WEB-HD-X264 Dew.Drop.Diaries.S01E27.NORWEGiAN.1080p.WEB.h264-NORKiDS
2023-12-12 00:45:18 FLAC-WEB Banda_Fuze-Promo-16BIT-WEB-FLAC-2020-VEXED
2023-12-12 00:45:18 TV-WEB-HD-X264 The.Read.with.Kid.Fury.and.Crissle.West.S01E06.1080p.WEB.h264-COALESCENCE
2023-12-12 00:45:49 FLAC-WEB Be_All_End_All-Be_All_End_All-16BIT-WEB-FLAC-2022-VEXED
2023-12-12 00:46:18 TV-WEB-HD-X264 The.Read.with.Kid.Fury.and.Crissle.West.S01E07.1080p.WEB.h264-COALESCENCE
2023-12-12 00:46:22 FLAC-WEB Be_All_End_All-Flexi_Single-16BIT-WEB-FLAC-2020-VEXED
2023-12-12 00:46:28 TV-WEB-HD-X264 Sydanjaa.S03E08.FiNNiSH.720p.WEB.H264-NETTiTV
2023-12-12 00:46:52 FLAC-WEB Be_All_End_All-Object_To_Persona-16BIT-WEB-FLAC-2019-VEXED
2023-12-12 00:46:54 TV-WEB-HD-X264 Dew.Drop.Diaries.S01E28.NORWEGiAN.720p.WEB.h264-NORKiDS
2023-12-12 00:47:17 TV-WEB-HD-X264 The.Read.with.Kid.Fury.and.Crissle.West.S01E08.1080p.WEB.h264-COALESCENCE
2023-12-12 00:47:24 FLAC-WEB Becky-Cheese-16BIT-WEB-FLAC-2023-VEXED
2023-12-12 00:47:55 FLAC-WEB Belligerence-Suicide_And_Sobriety-16BIT-WEB-FLAC-2020-VEXED
2023-12-12 00:48:18 TV-WEB-HD-X264 The.Read.with.Kid.Fury.and.Crissle.West.S01E09.1080p.WEB.h264-COALESCENCE
2023-12-12 00:48:27 FLAC-WEB Berator-Ambiguous_Grief-16BIT-WEB-FLAC-2022-VEXED
2023-12-12 00:48:44 TV-WEB-HD-X264 Sydanjaa.S03E09.FiNNiSH.1080p.WEB.H264-NETTiTV
2023-12-12 00:48:55 TV-WEB-HD-X264 Dew.Drop.Diaries.S01E28.NORWEGiAN.1080p.WEB.h264-NORKiDS
2023-12-12 00:48:59 FLAC-WEB Berator-Hollow_Sounds_And_Vivid_Nightmares-16BIT-WEB-FLAC-2018-VEXED
2023-12-12 00:49:18 TV-WEB-HD-X264 The.Read.with.Kid.Fury.and.Crissle.West.S01E10.1080p.WEB.h264-COALESCENCE
2023-12-12 00:49:30 FLAC-WEB Berator-Monsters_Wearing_The_Faces_Of_Other_Monsters-16BIT-WEB-FLAC-2020-VEXED
2023-12-12 00:50:02 FLAC-WEB Berator-True_Patriot-16BIT-WEB-FLAC-2019-VEXED
2023-12-12 00:50:34 FLAC-WEB Beskar-Beskar-Demo-16BIT-WEB-FLAC-2021-VEXED
2023-12-12 00:50:55 TV-WEB-HD-X264 Dew.Drop.Diaries.S02E01.NORWEGiAN.720p.WEB.h264-NORKiDS
2023-12-12 00:51:01 TV-WEB-HD-X264 Sydanjaa.S03E09.FiNNiSH.720p.WEB.H264-NETTiTV
2023-12-12 00:51:05 FLAC-WEB Beskar-Edge_Day_2021-16BIT-WEB-FLAC-2021-VEXED
2023-12-12 00:51:37 FLAC-WEB Better_Run-Demo19-16BIT-WEB-FLAC-2019-VEXED
2023-12-12 00:52:08 FLAC-WEB Better_Run-Hold_X_On-Single-16BIT-WEB-FLAC-2023-VEXED
2023-12-12 00:52:39 FLAC-WEB Better_Run-The_Fight_For_Mother_Earth-16BIT-WEB-FLAC-2020-VEXED
2023-12-12 00:52:56 TV-WEB-HD-X264 Dew.Drop.Diaries.S02E01.NORWEGiAN.1080p.WEB.h264-NORKiDS
2023-12-12 00:53:11 FLAC-WEB Big_Deal-Great_Deal_Of_Pain-16BIT-WEB-FLAC-2021-VEXED
2023-12-12 00:53:18 TV-WEB-HD-X264 Sydanjaa.S03E10.FiNNiSH.1080p.WEB.H264-NETTiTV
2023-12-12 00:53:42 FLAC-WEB Big_Shot-Big_Shot-16BIT-WEB-FLAC-2021-VEXED
2023-12-12 00:54:14 FLAC-WEB Big_Shot-Paid_In_Blood-16BIT-WEB-FLAC-2023-VEXED
2023-12-12 00:54:46 FLAC-WEB Big_Shot-Two_Song_Promo-16BIT-WEB-FLAC-2022-VEXED
2023-12-12 00:54:55 TV-WEB-HD-X264 Dew.Drop.Diaries.S02E02.NORWEGiAN.720p.WEB.h264-NORKiDS
2023-12-12 00:55:17 FLAC-WEB Big_Takeover-Big_Takeover-16BIT-WEB-FLAC-2016-VEXED
2023-12-12 00:55:36 TV-WEB-HD-X264 Sydanjaa.S03E10.FiNNiSH.720p.WEB.H264-NETTiTV
2023-12-12 00:55:49 FLAC-WEB Big_Takeover-Madhouse-16BIT-WEB-FLAC-2020-VEXED
2023-12-12 00:56:08 TV-WEB-HD-X264 The.Price.Is.Right.2023.12.11.720p.WEB.h264-DiRT
2023-12-12 00:56:20 FLAC-WEB Bigg_Egg-Bigg_Egg-16BIT-WEB-FLAC-2023-VEXED
2023-12-12 00:56:52 FLAC-WEB Birth_Struggle_Death-Cursed_Generation-16BIT-WEB-FLAC-2018-VEXED
2023-12-12 00:56:55 TV-WEB-HD-X264 Dew.Drop.Diaries.S02E02.NORWEGiAN.1080p.WEB.h264-NORKiDS
2023-12-12 00:57:23 FLAC-WEB Birth_Struggle_Death-Isolation-16BIT-WEB-FLAC-2020-VEXED
2023-12-12 00:57:52 TV-WEB-HD-X264 Sydanjaa.S03E11.FiNNiSH.1080p.WEB.H264-NETTiTV
2023-12-12 00:57:55 FLAC-WEB Birth_Struggle_Death-Mad_As_Hell_Demo-16BIT-WEB-FLAC-2016-VEXED
2023-12-12 00:58:27 FLAC-WEB Birth_Struggle_Death-Streetlove-16BIT-WEB-FLAC-2023-VEXED
2023-12-12 00:58:54 TV-WEB-HD-X264 Dew.Drop.Diaries.S02E03.NORWEGiAN.720p.WEB.h264-NORKiDS
2023-12-12 00:58:58 FLAC-WEB Bitter_Pill-Predator_Emulating_Prey-16BIT-WEB-FLAC-2021-VEXED
2023-12-12 00:59:29 FLAC-WEB Bitter_Truth-Perfect_World-16BIT-WEB-FLAC-2021-VEXED
2023-12-12 01:00:02 FLAC-WEB Bitter_Truth-Reality_Check-16BIT-WEB-FLAC-2018-VEXED
2023-12-12 01:00:09 TV-WEB-HD-X264 Sydanjaa.S03E11.FiNNiSH.720p.WEB.H264-NETTiTV
2023-12-12 01:00:33 FLAC-WEB Black_Market_Kidney_Surgeon-Black_Market_Kidney_Surgeon-16BIT-WEB-FLAC-2021-VEXED
2023-12-12 01:00:55 TV-WEB-HD-X264 Dew.Drop.Diaries.S02E03.NORWEGiAN.1080p.WEB.h264-NORKiDS
2023-12-12 01:01:05 FLAC-WEB Bladecrusher-Death_Revenge_War.-16BIT-WEB-FLAC-2023-VEXED
2023-12-12 01:01:36 FLAC-WEB Blaster-2023_Demo-16BIT-WEB-FLAC-2023-VEXED
2023-12-12 01:02:08 FLAC-WEB Bleach-State_Of_Grace-16BIT-WEB-FLAC-2023-VEXED
2023-12-12 01:02:26 TV-WEB-HD-X264 Sydanjaa.S03E12.FiNNiSH.1080p.WEB.H264-NETTiTV
2023-12-12 01:02:39 FLAC-WEB Blind_Idol-Liberty_Street-16BIT-WEB-FLAC-2021-VEXED
2023-12-12 01:02:55 TV-WEB-HD-X264 Dew.Drop.Diaries.S02E04.NORWEGiAN.720p.WEB.h264-NORKiDS
2023-12-12 01:03:11 FLAC-WEB Blind_Idol-The_Infinite_Mile-16BIT-WEB-FLAC-2022-VEXED
2023-12-12 01:03:43 FLAC-WEB Blind_Idol-Town_And_City-16BIT-WEB-FLAC-2020-VEXED
2023-12-12 01:04:00 NSW Lets_Sing_2024_Update_v1.4_NSW-VENOM
2023-12-12 01:04:15 FLAC-WEB Blue_Ox-Holy_Vore-16BIT-WEB-FLAC-2021-VEXED
2023-12-12 01:04:26 NSW Speed_or_Death_Update_v1.1_NSW-VENOM
2023-12-12 01:04:43 TV-WEB-HD-X264 Sydanjaa.S03E12.FiNNiSH.720p.WEB.H264-NETTiTV
2023-12-12 01:04:47 FLAC-WEB Blue_Ox-Stray_Dogs_On_Pity_Party_Island-16BIT-WEB-FLAC-2011-VEXED
2023-12-12 01:04:57 TV-WEB-HD-X264 Dew.Drop.Diaries.S02E04.NORWEGiAN.1080p.WEB.h264-NORKiDS
2023-12-12 01:05:18 FLAC-WEB Blueprint-Here_To_Please-16BIT-WEB-FLAC-2019-VEXED
2023-12-12 01:05:50 FLAC-WEB Blueprint-Sophisticated_Ignorance-16BIT-WEB-FLAC-2021-VEXED
2023-12-12 01:06:21 FLAC-WEB Blueprint-The_Asterisk_Era-16BIT-WEB-FLAC-2019-VEXED
2023-12-12 01:06:52 FLAC-WEB Body_Farm-3_Lathe-16BIT-WEB-FLAC-2020-VEXED
2023-12-12 01:06:55 TV-WEB-HD-X264 Dew.Drop.Diaries.S02E05.NORWEGiAN.720p.WEB.h264-NORKiDS
2023-12-12 01:07:24 FLAC-WEB Body_Farm-Body_Farm-16BIT-WEB-FLAC-2020-VEXED
2023-12-12 01:07:55 FLAC-WEB Body_Farm-Living_Hell-16BIT-WEB-FLAC-2022-VEXED
2023-12-12 01:08:28 FLAC-WEB Boiling_Point-Boiling_Point-Demo-16BIT-WEB-FLAC-2019-VEXED
2023-12-12 01:08:55 TV-WEB-HD-X264 Dew.Drop.Diaries.S02E05.NORWEGiAN.1080p.WEB.h264-NORKiDS
2023-12-12 01:08:58 TV-WEB-HD-X264 The.Joulukalenteri.S01E12.FiNNiSH.1080p.WEB.H264-NETTiTV
2023-12-12 01:08:59 FLAC-WEB Boiling_Point-Humanize-16BIT-WEB-FLAC-2023-VEXED
2023-12-12 01:09:31 FLAC-WEB Boiling_Point-Tour_Tape_23-16BIT-WEB-FLAC-2023-VEXED
2023-12-12 01:10:02 FLAC-WEB Bootlicker-Bootlicker-16BIT-WEB-FLAC-2021-VEXED
2023-12-12 01:10:34 FLAC-WEB Bootlicker-Lick_The_Boot_Lose_Your_Teeth_The_EPs-16BIT-WEB-FLAC-2022-VEXED
2023-12-12 01:10:55 TV-WEB-HD-X264 Dew.Drop.Diaries.S02E06.NORWEGiAN.720p.WEB.h264-NORKiDS
2023-12-12 01:11:05 FLAC-WEB Born_A_New-Dura_Vita-16BIT-WEB-FLAC-2020-VEXED
2023-12-12 01:11:37 FLAC-WEB Born_A_New-Eternal_Isolation-16BIT-WEB-FLAC-2019-VEXED
2023-12-12 01:12:08 FLAC-WEB Born_A_New-Peace_Is_Dead-16BIT-WEB-FLAC-2017-VEXED
2023-12-12 01:12:40 FLAC-WEB Born_Infected-Self_Reflection-16BIT-WEB-FLAC-2020-VEXED
2023-12-12 01:12:55 TV-WEB-HD-X264 Dew.Drop.Diaries.S02E06.NORWEGiAN.1080p.WEB.h264-NORKiDS
2023-12-12 01:13:11 FLAC-WEB Boxkite-Boxkite-16BIT-WEB-FLAC-2015-VEXED
2023-12-12 01:13:43 FLAC-WEB Brainless-In_A_Bind-16BIT-WEB-FLAC-2023-VEXED
2023-12-12 01:14:14 FLAC-WEB Brainwave-The_Decline-16BIT-WEB-FLAC-2020-VEXED
2023-12-12 01:14:46 FLAC-WEB Broken_Vow-Demo_2020-16BIT-WEB-FLAC-2020-VEXED
2023-12-12 01:14:57 TV-WEB-HD-X264 Dew.Drop.Diaries.S02E07.NORWEGiAN.720p.WEB.h264-NORKiDS
2023-12-12 01:15:17 FLAC-WEB Brute_Force_Trauma-World_Is_Burning-16BIT-WEB-FLAC-2021-VEXED
2023-12-12 01:15:50 FLAC-WEB Bullet_Trauma-Hunting_Season-16BIT-WEB-FLAC-2023-VEXED
2023-12-12 01:16:21 FLAC-WEB Burn_It_All-Burn_It_All-16BIT-WEB-FLAC-2023-VEXED
2023-12-12 01:16:53 FLAC-WEB Burning_Limbs-Cut_Your_Losses-16BIT-WEB-FLAC-2019-VEXED
2023-12-12 01:16:55 TV-WEB-HD-X264 Dew.Drop.Diaries.S02E07.NORWEGiAN.1080p.WEB.h264-NORKiDS
2023-12-12 01:17:25 FLAC-WEB Burning_Limbs-Fragments-16BIT-WEB-FLAC-2020-VEXED
2023-12-12 01:17:57 FLAC-WEB Burning_Limbs-Piece_Of_Mind-16BIT-WEB-FLAC-2017-VEXED
2023-12-12 01:18:28 FLAC-WEB Burning_Limbs-Riddance-16BIT-WEB-FLAC-2016-VEXED
2023-12-12 01:18:55 TV-WEB-HD-X264 Dew.Drop.Diaries.S02E08.NORWEGiAN.720p.WEB.h264-NORKiDS
2023-12-12 01:19:00 FLAC-WEB Burning_Limbs-Unleashed-16BIT-WEB-FLAC-2018-VEXED
2023-12-12 01:19:31 FLAC-WEB Bust-Demo_2021-16BIT-WEB-FLAC-2021-VEXED
2023-12-12 01:20:02 FLAC-WEB By_All_Meanz-By_All_Meanz-16BIT-WEB-FLAC-2021-VEXED
2023-12-12 01:20:33 FLAC-WEB By_All_Meanz-Seeing_Red_Feeling_Blue-16BIT-WEB-FLAC-2021-VEXED
2023-12-12 01:20:55 TV-WEB-HD-X264 Dew.Drop.Diaries.S02E08.NORWEGiAN.1080p.WEB.h264-NORKiDS
2023-12-12 01:21:05 FLAC-WEB By_All_Meanz-Wrong_Side_Of_The_Tracks-Single-16BIT-WEB-FLAC-2022-VEXED
2023-12-12 01:22:48 FLAC VA-Gilles_Peterson-Black_Jazz_Radio-(SDGBJ1304)-CD-FLAC-2012-LEB
2023-12-12 01:22:55 TV-WEB-HD-X264 Dew.Drop.Diaries.S02E09.NORWEGiAN.720p.WEB.h264-NORKiDS
2023-12-12 01:23:04 MP3 VA-Gilles_Peterson-Black_Jazz_Radio-(SDGBJ1304)-CD-2012-LEB
2023-12-12 01:24:56 TV-WEB-HD-X264 Dew.Drop.Diaries.S02E09.NORWEGiAN.1080p.WEB.h264-NORKiDS
2023-12-12 01:26:56 TV-WEB-HD-X264 Dew.Drop.Diaries.S02E10.NORWEGiAN.720p.WEB.h264-NORKiDS
2023-12-12 01:28:54 TV-WEB-HD-X264 Dew.Drop.Diaries.S02E10.NORWEGiAN.1080p.WEB.h264-NORKiDS
2023-12-12 01:30:57 TV-WEB-HD-X264 Dew.Drop.Diaries.S02E11.NORWEGiAN.720p.WEB.h264-NORKiDS
2023-12-12 01:32:54 TV-WEB-HD-X264 Dew.Drop.Diaries.S02E11.NORWEGiAN.1080p.WEB.h264-NORKiDS
2023-12-12 01:34:56 TV-WEB-HD-X264 Dew.Drop.Diaries.S02E12.NORWEGiAN.720p.WEB.h264-NORKiDS
2023-12-12 01:36:54 TV-WEB-HD-X264 Dew.Drop.Diaries.S02E12.NORWEGiAN.1080p.WEB.h264-NORKiDS
2023-12-12 01:46:17 X264 Rudolph.the.Red-Nosed.Reindeer.1964.REPACK.FRENCH.BDRip.x264-LYPSG
2023-12-12 01:46:24 X264-HD Rudolph.the.Red-Nosed.Reindeer.1964.REPACK.FRENCH.720p.BluRay.x264-LYPSG
2023-12-12 01:46:34 X264-HD Rudolph.the.Red-Nosed.Reindeer.1964.FRENCH.1080p.BluRay.x264-LYPSG
2023-12-12 01:47:30 FLAC-ViNYL Kon.Rad-26_Dot_Com__Dirty_Basstard-(GY027)-VINYL-FLAC-2001-KINDA
2023-12-12 01:48:03 FLAC-ViNYL Resound-Children_Of_Jah-(ORG019)-PROMO-VINYL-FLAC-2006-KINDA
2023-12-12 01:54:52 TV-WEB-HD-X264 Clash.of.the.Corps.S01E01.1080p.WEB.h264-COALESCENCE
2023-12-12 01:55:52 TV-WEB-HD-X264 Clash.of.the.Corps.S01E02.1080p.WEB.h264-COALESCENCE
2023-12-12 01:56:51 TV-WEB-HD-X264 Clash.of.the.Corps.S01E03.1080p.WEB.h264-COALESCENCE
2023-12-12 01:57:52 TV-WEB-HD-X264 Clash.of.the.Corps.S01E04.1080p.WEB.h264-COALESCENCE
2023-12-12 01:58:00 FLAC-WEB Roedelius_x_Arnold_Kasar-Zensibility-24BIT-WEB-FLAC-2023-BABAS
2023-12-12 01:58:23 FLAC-WEB VA-Deep_Series_1.3-(DPTRX13)-24BIT-WEB-FLAC-2023-BABAS
2023-12-12 01:58:44 FLAC-WEB Habitat_Ensemble-Habitat_Ensemble-(MFM065)-24BIT-WEB-FLAC-2023-BABAS
2023-12-12 01:58:52 TV-WEB-HD-X264 Clash.of.the.Corps.S01E05.1080p.WEB.h264-COALESCENCE
2023-12-12 01:59:06 FLAC-WEB Daniel_Avery-Drone_Logic_(2023_Redux_Versions)-(BEC5613333)-24BIT-WEB-FLAC-2023-BABAS
2023-12-12 01:59:28 FLAC-WEB ICube-ICube_Live_Au_Forum_Des_Halles-16BIT-WEB-FLAC-2023-BABAS
2023-12-12 01:59:49 FLAC-WEB Amaliah-Manifold_EP-(ONLOOP017)-24BIT-WEB-FLAC-2023-BABAS
2023-12-12 01:59:52 TV-WEB-HD-X264 Clash.of.the.Corps.S01E06.1080p.WEB.h264-COALESCENCE
2023-12-12 02:00:12 FLAC-WEB Mia_Koden-Decode-(ITX029)-16BIT-WEB-FLAC-2023-BABAS
2023-12-12 02:00:34 FLAC-WEB VA-Tru_Thoughts_2023-16BIT-WEB-FLAC-2023-BABAS
2023-12-12 02:00:52 TV-WEB-HD-X264 Clash.of.the.Corps.S01E07.1080p.WEB.h264-COALESCENCE
2023-12-12 02:00:55 TV-WEB-HD-X264 Restoration.Road.with.Clint.Harp.S04E07.1080p.WEB.h264-EDITH
2023-12-12 02:01:40 TV-WEB-HD-X264 Dromtradgarden.S01E03.SWEDiSH.1080p.WEB.h264-OLLONBORRE
2023-12-12 02:01:40 TV-WEB-HD-X264 Dromtradgarden.S01E03.SWEDiSH.720p.WEB.h264-OLLONBORRE
2023-12-12 02:01:40 TV-WEB-HD-X264 Julkalendern.2023.Trolltider.Legenden.Om.Bergatrollet.E12.SWEDiSH.1080p.WEB.h264-OLLONBORRE
2023-12-12 02:01:40 TV-WEB-HD-X264 Julkalendern.2023.Trolltider.Legenden.Om.Bergatrollet.E12.SWEDiSH.720p.WEB.h264-OLLONBORRE
2023-12-12 02:01:52 TV-WEB-HD-X264 Clash.of.the.Corps.S01E08.1080p.WEB.h264-COALESCENCE
2023-12-12 02:03:55 FLAC-WEB Canal_Irreal-Canal_Irreal-16BIT-WEB-FLAC-2021-VEXED
2023-12-12 02:04:26 FLAC-WEB Carey-Fervet_Opus-16BIT-WEB-FLAC-2023-VEXED
2023-12-12 02:04:58 FLAC-WEB Carrion_Spring-How_It_All_Falls_Away_Petal_By_Petal-16BIT-WEB-FLAC-2023-VEXED
2023-12-12 02:05:29 FLAC-WEB Carry_The_Weight-Its_Not_A_Phase-16BIT-WEB-FLAC-2019-VEXED
2023-12-12 02:06:00 FLAC-WEB Cash_Bribe-Escape_From_New_York-16BIT-WEB-FLAC-2023-VEXED
2023-12-12 02:06:32 FLAC-WEB Cash_Out-Cash_Out-16BIT-WEB-FLAC-2019-VEXED
2023-12-12 02:06:41 MP3-WEB Arbiter-Facets_Pt._2_PRAGMA-(KK010)-WEB-2023-PTC
2023-12-12 02:07:03 FLAC-WEB Cast_In_Blood__Foreign_Hands-Lapsed_Requiems-Split-16BIT-WEB-FLAC-2019-VEXED
2023-12-12 02:07:23 TV-WEB-HD-X264 90.Day.Fiance.The.Other.Way.S05E23.1080p.WEB.h264-EDITH
2023-12-12 02:07:34 FLAC-WEB Category_514-No_Love_For_Fakes-16BIT-WEB-FLAC-2021-VEXED
2023-12-12 02:07:44 TV-WEB-HD-X264 Holiday.Baking.Championship.S10E07.1080p.WEB.h264-EDITH
2023-12-12 02:08:07 FLAC-WEB Caught_One-Lifes_2_Short-16BIT-WEB-FLAC-2019-VEXED
2023-12-12 02:08:38 FLAC-WEB Caught_One-Triumph_And_Tragedy-16BIT-WEB-FLAC-2020-VEXED
2023-12-12 02:09:07 MP3-WEB Eman-Hamsa-(ATNM024)-WEB-2023-PTC
2023-12-12 02:09:10 FLAC-WEB Cauldron-Last_Words_Screamed_From_Behind_Gods_Muzzle-16BIT-WEB-FLAC-2020-VEXED
2023-12-12 02:09:41 FLAC-WEB Cauldron-The_Scars_Of_Empty_Faith-16BIT-WEB-FLAC-2018-VEXED
2023-12-12 02:10:13 FLAC-WEB Centralized_Warfare-Demo_2021-16BIT-WEB-FLAC-2021-VEXED
2023-12-12 02:10:23 FLAC-WEB VA-Spiritual_Jazz_15_A_Tribute_to_Trane-(JMANLP138)-24BIT-WEB-FLAC-2023-BABAS
2023-12-12 02:10:45 FLAC-WEB Cerce-Cerce-16BIT-WEB-FLAC-2014-VEXED
2023-12-12 02:11:15 MP3-WEB Alexein_Aner-Hiperion_EP-(BMR011)-WEB-2023-PTC
2023-12-12 02:11:17 FLAC-WEB Cerce-Cowboy_Music-16BIT-WEB-FLAC-2021-VEXED
2023-12-12 02:11:48 FLAC-WEB Cerce-Discography_2011-2013-16BIT-WEB-FLAC-2017-VEXED
2023-12-12 02:12:19 FLAC-WEB Cerce-Live_Last_Show_Boston_June_10th_2018-16BIT-WEB-FLAC-2018-VEXED
2023-12-12 02:12:50 FLAC-WEB Cesspool-Some_Say_Its_A...-16BIT-WEB-FLAC-2023-VEXED
2023-12-12 02:13:23 MP3-WEB Cristian_Miguez-Interiorem_Daemonium-(GR0080)-SINGLE-WEB-2023-PTC
2023-12-12 02:13:23 FLAC-WEB Chaos_Cross-4_Hits_From_Hell-16BIT-WEB-FLAC-2021-VEXED
2023-12-12 02:13:54 FLAC-WEB Choices_Made-Convince-16BIT-WEB-FLAC-2020-VEXED
2023-12-12 02:14:25 FLAC-WEB Choices_Made-Dont_Settle_For_Them-16BIT-WEB-FLAC-2019-VEXED
2023-12-12 02:14:55 FLAC-WEB Choking_Game-Ameliorate-16BIT-WEB-FLAC-2023-VEXED
2023-12-12 02:15:30 FLAC-WEB Choking_Game-Smudge-16BIT-WEB-FLAC-2022-VEXED
2023-12-12 02:16:01 FLAC-WEB Circle_Back-(Consumed)__(Engulfed)-16BIT-WEB-FLAC-2022-VEXED
2023-12-12 02:16:03 MP3-WEB Elias_the_Prophet-Creatures_EP_(Tensal_Remix)-(PROPHECY05)-WEB-2023-PTC
2023-12-12 02:16:32 FLAC-WEB Circle_Back-Circle_Back-16BIT-WEB-FLAC-2017-VEXED
2023-12-12 02:16:32 FLAC-WEB Amanda_Whiting-Lost_In_Abstraction-(JMANLP132)-24BIT-WEB-FLAC-2022-BABAS
2023-12-12 02:16:53 FLAC-WEB Amanda_Whiting-After_Dark-(JMANLP125)-24BIT-WEB-FLAC-2021-BABAS
2023-12-12 02:17:03 FLAC-WEB Circle_Back-Devour_The_Negative-16BIT-WEB-FLAC-2015-VEXED
2023-12-12 02:17:15 FLAC-WEB The_Nat_Birchall_Quartet-The_Storyteller-A_Musical_Tribute_To_Yusef_Lateef-(JMANLP115)-24BIT-WEB-FLAC-2019-BABAS
2023-12-12 02:17:36 FLAC-WEB Circle_Back-Promise_To_Pay-16BIT-WEB-FLAC-2014-VEXED
2023-12-12 02:17:43 FLAC-WEB Emanative-Earth-(JMANLP099)-24BIT-WEB-FLAC-2018-BABAS
2023-12-12 02:18:06 FLAC-WEB Circle_Back-Terminus-16BIT-WEB-FLAC-2019-VEXED
2023-12-12 02:18:39 FLAC-WEB Circle_Back-The_Gift_Of_Time-16BIT-WEB-FLAC-2021-VEXED
2023-12-12 02:19:10 FLAC-WEB Citizen_Rage-Black_EP-16BIT-WEB-FLAC-2020-VEXED
2023-12-12 02:19:42 FLAC-WEB Citizen_Rage-Blue_EP-16BIT-WEB-FLAC-2017-VEXED
2023-12-12 02:20:13 FLAC-WEB Citizen_Rage-Green_EP-16BIT-WEB-FLAC-2017-VEXED
2023-12-12 02:20:41 MP3-WEB Schvartz_Man-Sombra_Dorada-(BT026)-WEB-2023-PTC
2023-12-12 02:20:44 FLAC-WEB Citizen_Rage-Pink_EP-16BIT-WEB-FLAC-2017-VEXED
2023-12-12 02:21:03 MP3-WEB Sunnix-Revolt_EP-(BLOK075)-WEB-2023-PTC
2023-12-12 02:21:16 FLAC-WEB Citizen_Rage-Red_EP-16BIT-WEB-FLAC-2017-VEXED
2023-12-12 02:21:47 FLAC-WEB Citizen_Rage-Yellow_EP-16BIT-WEB-FLAC-2017-VEXED
2023-12-12 02:22:11 TV-WEB-HD-X264 Sorry.I.Didnt.Know.S04E04.1080p.WEB.h264-CODSWALLOP
2023-12-12 02:22:19 FLAC-WEB Climate_Of_Fear-Holy_Terror-16BIT-WEB-FLAC-2019-VEXED
2023-12-12 02:22:50 FLAC-WEB Climate_Of_Fear-Stained_With_A_Dismal_Beauty-16BIT-WEB-FLAC-2020-VEXED
2023-12-12 02:23:22 FLAC-WEB Climate_Of_Fear-The_Onset_Of_Eternal_Darkness-16BIT-WEB-FLAC-2019-VEXED
2023-12-12 02:23:53 FLAC-WEB Close_Combat-2019-16BIT-WEB-FLAC-2019-VEXED
2023-12-12 02:23:59 TV-WEB-HD-X264 Los.Farad.S01E01.MULTi.1080p.WEB.H264-AMB3R
2023-12-12 02:24:07 TV-WEB-HD-X264 Los.Farad.S01E02.MULTi.1080p.WEB.H264-AMB3R
2023-12-12 02:24:20 TV-WEB-HD-X264 Los.Farad.S01E03.MULTi.1080p.WEB.H264-AMB3R
2023-12-12 02:24:24 FLAC-WEB Close_Combat-New_Leash_On_Life-16BIT-WEB-FLAC-2021-VEXED
2023-12-12 02:24:31 PS4 Song.of.Horror.MULTi.PS4-AUGETY
2023-12-12 02:24:31 TV-WEB-HD-X264 Los.Farad.S01E04.MULTi.1080p.WEB.H264-AMB3R
2023-12-12 02:24:38 MP3-WEB 5O71-Synaptic_Pulse_EP-(FR011)-WEB-2023-PTC
2023-12-12 02:24:43 TV-WEB-HD-X264 Los.Farad.S01E05.MULTi.1080p.WEB.H264-AMB3R
2023-12-12 02:24:50 PS4 Song.of.Horror.MULTi.Update.v1.02.PS4-AUGETY
2023-12-12 02:24:57 FLAC-WEB Cold_As_Concrete-Antisocial-16BIT-WEB-FLAC-2021-VEXED
2023-12-12 02:25:02 TV-WEB-HD-X264 Los.Farad.S01E06.MULTi.1080p.WEB.H264-AMB3R
2023-12-12 02:25:15 TV-WEB-HD-X264 Los.Farad.S01E07.MULTi.1080p.WEB.H264-AMB3R
2023-12-12 02:25:27 FLAC-WEB Cold_As_Concrete-Demo_2016-16BIT-WEB-FLAC-2016-VEXED
2023-12-12 02:25:39 TV-WEB-HD-X264 Los.Farad.S01E08.FiNAL.MULTi.1080p.WEB.H264-AMB3R
2023-12-12 02:26:00 FLAC-WEB Cold_Feet-Punk_Entity-16BIT-WEB-FLAC-2020-VEXED
2023-12-12 02:26:31 FLAC-WEB Cold_Grip-Consolidate-16BIT-WEB-FLAC-2020-VEXED
2023-12-12 02:26:33 MP3-WEB Undr.sn-Paranormal-(DZB578)-WEB-2023-PTC
2023-12-12 02:27:02 FLAC-WEB Cold_Hate-02_Beatdown-16BIT-WEB-FLAC-2021-VEXED
2023-12-12 02:27:33 FLAC-WEB Cold_Shoulder-Enemy-16BIT-WEB-FLAC-2019-VEXED
2023-12-12 02:28:05 FLAC-WEB Colonial_Wound-Degradation-16BIT-WEB-FLAC-2021-VEXED
2023-12-12 02:28:36 FLAC-WEB Colonial_Wound-Untitled-16BIT-WEB-FLAC-2019-VEXED
2023-12-12 02:29:09 FLAC-WEB Colony.Drop-Casval-JP-16BIT-WEB-FLAC-2023-VEXED
2023-12-12 02:29:40 FLAC-WEB Colony.Drop-Char-JP-16BIT-WEB-FLAC-2021-VEXED
2023-12-12 02:30:12 FLAC-WEB Colony.Drop-One_Year_War-JP-16BIT-WEB-FLAC-2020-VEXED
2023-12-12 02:30:43 FLAC-WEB Colony.Drop-Warmongers-JP-16BIT-WEB-FLAC-2023-VEXED
2023-12-12 02:31:04 MP3-WEB Murdock_ft_Emilie_Rachel-Living_In_The_Moment-(RMPG064)-SINGLE-WEB-2023-PTC
2023-12-12 02:31:15 FLAC-WEB Colony.Drop-Zaku-JP-16BIT-WEB-FLAC-2022-VEXED
2023-12-12 02:31:16 MP3-WEB Polaris-History-(DNBA091)-SINGLE-WEB-2023-PTC
2023-12-12 02:31:46 FLAC-WEB Complex-Living_Low-16BIT-WEB-FLAC-2021-VEXED
2023-12-12 02:32:18 FLAC-WEB Concrete_Bomb-Concrete_Bomb-Demo-16BIT-WEB-FLAC-2023-VEXED
2023-12-12 02:32:49 FLAC-WEB CrisisAct-Artificial_Noose-16BIT-WEB-FLAC-2023-VEXED
2023-12-12 02:33:15 MP3-WEB Coffee_Shop_Jungle_feat._Makoto-Profile-(CSJ068)-SINGLE-WEB-2023-PTC
2023-12-12 02:33:20 FLAC-WEB Crusher-Life_Fast__Die_Slow-16BIT-WEB-FLAC-2023-VEXED
2023-12-12 02:33:52 FLAC-WEB Cutre-Yendo_A_Lo_Oscuro-ES-16BIT-WEB-FLAC-2023-VEXED
2023-12-12 02:34:23 FLAC-WEB Deaf-Pay_Em_Back-16BIT-WEB-FLAC-2023-VEXED
2023-12-12 02:34:54 FLAC-WEB Debtor-Dead_To_The_World-16BIT-WEB-FLAC-2023-VEXED
2023-12-12 02:35:26 FLAC-WEB Defective_Chain-Defective_Chain-Demo-16BIT-WEB-FLAC-2022-VEXED
2023-12-12 02:35:35 X264-HD The.Exorcist.Believer.2023.1080p.BluRay.x264-KNiVES
2023-12-12 02:35:58 FLAC-WEB Demons-Swallow-16BIT-WEB-FLAC-2022-VEXED
2023-12-12 02:36:20 X264 The.Exorcist.Believer.2023.BDRip.x264-KNiVES
2023-12-12 02:36:32 FLAC-WEB Detached-Know_Your_Place-16BIT-WEB-FLAC-2023-VEXED
2023-12-12 02:37:05 FLAC-WEB Detrude-Tit_For_Tat-16BIT-WEB-FLAC-2023-VEXED
2023-12-12 02:37:33 X264-HD The.Exorcist.Believer.2023.720p.BluRay.x264-KNiVES
2023-12-12 02:37:37 FLAC-WEB Dogmatic-Dogmatic-16BIT-WEB-FLAC-2023-VEXED
2023-12-12 02:38:03 BLURAY The.Exorcist.Believer.2023.COMPLETE.BLURAY-UNTOUCHED
2023-12-12 02:38:10 FLAC-WEB Dorcelessness-Try_Dorcelessness-16BIT-WEB-FLAC-2023-VEXED
2023-12-12 02:38:43 FLAC-WEB Down_In_It-Love_Never_Dies_Collection-16BIT-WEB-FLAC-2022-VEXED
2023-12-12 02:39:03 FLAC-WEB Sons_Of_Kemet-Your_Queen_Is_A_Reptile-(B002797102)-24BIT-WEB-FLAC-2018-BABAS
2023-12-12 02:39:14 FLAC-WEB Dragged_Across_Concrete-Dragged_Across_Concrete-16BIT-WEB-FLAC-2023-VEXED
2023-12-12 02:39:46 FLAC-WEB Drug_Toilet-The_Complete_Discography-16BIT-WEB-FLAC-2023-VEXED
2023-12-12 02:40:17 FLAC-WEB E-In_The_Stu-16BIT-WEB-FLAC-2023-VEXED
2023-12-12 02:40:49 FLAC-WEB Edict-In_Defense_Of_Labor-16BIT-WEB-FLAC-2023-VEXED
2023-12-12 02:41:17 MP3-WEB Kuna_Maze-Dawn_(Byron_The_Aquarius_Remix)-(TRUDD571)-WEB-2023-PTC
2023-12-12 02:41:21 FLAC-WEB Emergency_Broadcast-Dirty_All_Over-16BIT-WEB-FLAC-2018-VEXED
2023-12-12 02:41:53 FLAC-WEB Emergency_Broadcast-Inde_Deus_Abest-16BIT-WEB-FLAC-2022-VEXED
2023-12-12 02:41:55 FLAC Amalia-No_Canecao_(Rio_De_Janeiro)-(VSL12672)-PT-REISSUE-CD-FLAC-2008-KINDA
2023-12-12 02:42:24 FLAC-WEB Emergency_Broadcast-Manipulation-16BIT-WEB-FLAC-2019-VEXED
2023-12-12 02:42:33 FLAC Koch-Schuetz-Studer_with_Shelley_Hirsch-Walking_And_Stumbling_Through_Your_Sleep-(INTAKTCD201)-CD-FLAC-2013-KINDA
2023-12-12 02:42:55 FLAC-WEB Emergency_Broadcast-Real_Tale-16BIT-WEB-FLAC-2016-VEXED
2023-12-12 02:43:11 FLAC Piano_Interrupted-The_Unified_Field_Reconstructed-(DEN226)-CD-FLAC-2015-KINDA
2023-12-12 02:43:27 FLAC-WEB Emergency_Broadcast-Untold_Stories_About_Revenge-16BIT-WEB-FLAC-2015-VEXED
2023-12-12 02:43:54 FLAC Platine_Heidelberg-3-(VDE614)-CD-FLAC-1990-KINDA
2023-12-12 02:44:00 FLAC-WEB Ett_Dodens_Maskineri-Kulturkriget-SE-16BIT-WEB-FLAC-2023-VEXED
2023-12-12 02:44:20 MP3-WEB The_Elitist-The_Elitist-(BLR287)-WEB-2023-PTC
2023-12-12 02:44:29 FLAC Ursina-You_Have_My_Heart-(RMG007)-CD-FLAC-2017-KINDA
2023-12-12 02:44:31 FLAC-WEB Exit_Strategy-Grieve._Mourn._Wail.-16BIT-WEB-FLAC-2023-VEXED
2023-12-12 02:45:02 FLAC-WEB Eyeteeth-Negative_Reinforcement-16BIT-WEB-FLAC-2023-VEXED
2023-12-12 02:45:32 FLAC-WEB Fall_Of_Blind_Society-War_Is_The_New_Black-16BIT-WEB-FLAC-2023-VEXED
2023-12-12 02:46:04 FLAC-WEB Feel_The_Pain-Feel_The_Pain-Demo-16BIT-WEB-FLAC-2023-VEXED
2023-12-12 02:46:35 FLAC-WEB Fight_The_Future-B-Sides_And_Do-Overs-16BIT-WEB-FLAC-2023-VEXED
2023-12-12 02:47:07 FLAC-WEB For_Different_Ways-About_Life_And_Choices-16BIT-WEB-FLAC-2018-VEXED
2023-12-12 02:47:39 FLAC-WEB Force_Of_Denial-Times_Of_Strife-16BIT-WEB-FLAC-2023-VEXED
2023-12-12 02:48:10 FLAC-WEB Forgive-Trapped-16BIT-WEB-FLAC-2023-VEXED
2023-12-12 02:48:31 MP3-WEB Tycho-Small_Sanctuary_(Nimino_Remix)-(ZENDNLS661NW)-WEB-2023-PTC
2023-12-12 02:48:42 FLAC-WEB Frog_Mallet-Dissection_By_Amphibian-16BIT-WEB-FLAC-2021-VEXED
2023-12-12 02:49:13 FLAC-WEB Frog_Mallet-Frog_Mallet-16BIT-WEB-FLAC-2022-VEXED
2023-12-12 02:49:45 FLAC-WEB Gagger-Nothing_2_Laugh_About-16BIT-WEB-FLAC-2023-VEXED
2023-12-12 02:50:16 FLAC-WEB Gaijin-Third_Impact-16BIT-WEB-FLAC-2023-VEXED
2023-12-12 02:50:47 FLAC-WEB Game_Of_Death-Demo_2023-16BIT-WEB-FLAC-2023-VEXED
2023-12-12 02:51:19 FLAC-WEB Gates_To_Hell-Death_Display-16BIT-WEB-FLAC-2021-VEXED
2023-12-12 02:51:50 FLAC-WEB Gates_To_Hell-Dismembered_And_Reconstructed-16BIT-WEB-FLAC-2021-VEXED
2023-12-12 02:52:22 FLAC-WEB Gates_To_Hell-Gates_To_Hell-16BIT-WEB-FLAC-2022-VEXED
2023-12-12 02:52:53 FLAC-WEB Glower-Gaunt_Sun-16BIT-WEB-FLAC-2023-VEXED
2023-12-12 02:53:26 FLAC-WEB Half_Me-Soma-16BIT-WEB-FLAC-2023-VEXED
2023-12-12 02:53:57 FLAC-WEB Harcourt-Demo_2023-16BIT-WEB-FLAC-2023-VEXED
2023-12-12 02:54:28 FLAC-WEB Haywire-Haywire-16BIT-WEB-FLAC-2023-VEXED
2023-12-12 02:54:59 FLAC-WEB Heads_Will_Roll-Hair_Of_The_Dog__Get_A_Clue-16BIT-WEB-FLAC-2023-VEXED
2023-12-12 02:55:31 FLAC-WEB Helsreach-Helsreach-16BIT-WEB-FLAC-2022-VEXED
2023-12-12 02:56:02 FLAC-WEB Hippie_Trim-Cult-16BIT-WEB-FLAC-2019-VEXED
2023-12-12 02:56:34 FLAC-WEB Hippie_Trim-What_Consumes_Me-16BIT-WEB-FLAC-2022-VEXED
2023-12-12 02:57:05 FLAC-WEB Hold_My_Own-Demo-16BIT-WEB-FLAC-2021-VEXED
2023-12-12 02:57:36 FLAC-WEB Hold_My_Own-Hold_My_Own-16BIT-WEB-FLAC-2022-VEXED
2023-12-12 02:57:46 MP3-WEB Emrah_Balkan-Mention-(DEP0064)-SINGLE-WEB-2023-PTC
2023-12-12 02:58:08 FLAC-WEB Hold_Out-Comply_Or_Die-16BIT-WEB-FLAC-2023-VEXED
2023-12-12 02:58:40 FLAC-WEB Hollow_Points-The_Grim_Adventures-16BIT-WEB-FLAC-2022-VEXED
2023-12-12 02:59:11 FLAC-WEB INtegrALL-Bara_Dalam_Sekam-ID-16BIT-WEB-FLAC-2023-VEXED
2023-12-12 02:59:43 FLAC-WEB Illuminate_Me-Dying_On_A_Hill_That_Nobody_Remembers-16BIT-WEB-FLAC-2022-VEXED
2023-12-12 03:00:14 FLAC-WEB Insane_Asylum-Fresh_Grooves-16BIT-WEB-FLAC-2023-VEXED
2023-12-12 03:00:46 FLAC-WEB Intensive_Care-A_Removal_To_Elsewhere-16BIT-WEB-FLAC-2018-VEXED
2023-12-12 03:01:03 TV-HD-X264 Car.Boot.Kings.S01E01.1080p.HDTV.H264-DARKFLiX
2023-12-12 03:01:18 FLAC-WEB Intensive_Care-Antibodies-16BIT-WEB-FLAC-2022-VEXED
2023-12-12 03:01:50 FLAC-WEB Intensive_Care-Pay_Pig-16BIT-WEB-FLAC-2016-VEXED
2023-12-12 03:02:02 TV-WEB-HD-X264 The.Family.Chantel.S05E06.1080p.WEB.h264-EDITH
2023-12-12 03:02:03 TV-WEB-HD-X264 Murder.in.Boston.Roots.Rampage.and.Reckoning.S01E02.1080p.WEB.h264-EDITH
2023-12-12 03:02:05 TV-WEB-HD-X264 Murder.in.Boston.Roots.Rampage.and.Reckoning.S01E02.720p.WEB.h264-EDITH
2023-12-12 03:02:09 TV-HD-X264 Casualty.24.7.Every.Second.Counts.S08E08.1080p.HDTV.H264-DARKFLiX
2023-12-12 03:02:22 FLAC-WEB Intensive_Care-That_We_Be_Made_Worthy-16BIT-WEB-FLAC-2022-VEXED
2023-12-12 03:02:55 FLAC-WEB Intensive_Care-This_Is_Exactly_Who_You_Are-16BIT-WEB-FLAC-2016-VEXED
2023-12-12 03:03:22 TV-HD-X264 Jamies.Christmas.Shortcuts.S01E01.1080p.HDTV.H264-DARKFLiX
2023-12-12 03:03:27 FLAC-WEB Intensive_Care-Voyeurism-16BIT-WEB-FLAC-2017-VEXED
2023-12-12 03:03:43 TV-WEB-HD-X264 Asbjoerns.Julekalender.2023.S01E12.NORWEGiAN.1080p.WEB.h264-BAKFYLLA
2023-12-12 03:03:59 FLAC-WEB Iron_Sights-Iron_Sights-16BIT-WEB-FLAC-2022-VEXED
2023-12-12 03:04:13 TV-WEB-HD-X264 Asbjoerns.Julekalender.2023.S01E12.NORWEGiAN.720p.WEB.h264-BAKFYLLA
2023-12-12 03:04:30 FLAC-WEB Keep_Reaching-Winter_Promo-16BIT-WEB-FLAC-2023-VEXED
2023-12-12 03:04:32 TV-HD-X264 Newsroom.Tokyo.2023.12.11.1080p.HDTV.H264-DARKFLiX
2023-12-12 03:05:02 FLAC-WEB Khlysty-Summer_2022_Promo-16BIT-WEB-FLAC-2022-VEXED
2023-12-12 03:05:35 FLAC-WEB Killing_Me_Softly-Autumn_Lost_In_Silence-16BIT-WEB-FLAC-2023-VEXED
2023-12-12 03:05:39 TV-HD-X264 Panorama.2023.12.11.1080p.HDTV.H264-DARKFLiX
2023-12-12 03:06:06 FLAC-WEB Kind_Eyes-Cruel_World-16BIT-WEB-FLAC-2022-VEXED
2023-12-12 03:06:38 FLAC-WEB Kind_Eyes-Life_In_Chains-16BIT-WEB-FLAC-2019-VEXED
2023-12-12 03:06:46 TV-HD-X264 The.Real.Full.Monty.Jingle.Balls.S01E01.1080p.HDTV.H264-DARKFLiX
2023-12-12 03:07:41 FLAC-WEB Last_Gasp__Bitter_Truth-Last_Gasp__Bitter_Truth-Split-16BIT-WEB-FLAC-2023-VEXED
2023-12-12 03:07:49 TV-HD-X264 Winter.on.the.Farm.S03E01.1080p.HDTV.H264-DARKFLiX
2023-12-12 03:08:13 FLAC-WEB Last_Remorse-Demonstration-16BIT-WEB-FLAC-2023-VEXED
2023-12-12 03:08:44 FLAC-WEB Laughing_Corpse-Demented_Thoughts_Posed_As_Dark_Comedy-16BIT-WEB-FLAC-2023-VEXED
2023-12-12 03:09:16 FLAC-WEB Lexicon-Poison_Head-16BIT-WEB-FLAC-2023-VEXED
2023-12-12 03:09:47 FLAC-WEB Life_Of_Crime-Life_Of_Crime-16BIT-WEB-FLAC-2021-VEXED
2023-12-12 03:10:19 FLAC-WEB Life_Of_Crime-Street_Gospel-16BIT-WEB-FLAC-2022-VEXED
2023-12-12 03:10:50 FLAC-WEB Listless-Listless-16BIT-WEB-FLAC-2018-VEXED
2023-12-12 03:11:22 FLAC-WEB Maelstrom-Perfect_Storm-16BIT-WEB-FLAC-2022-VEXED
2023-12-12 03:11:53 FLAC-WEB Maelstrom-The_Powers_That_Be-16BIT-WEB-FLAC-2021-VEXED
2023-12-12 03:12:25 FLAC-WEB Major_Pain-Demo_22-16BIT-WEB-FLAC-2022-VEXED
2023-12-12 03:12:56 FLAC-WEB Major_Pain-Promo_2023-16BIT-WEB-FLAC-2023-VEXED
2023-12-12 03:13:28 FLAC-WEB Mangled_State-Pain_Incarnate-16BIT-WEB-FLAC-2021-VEXED
2023-12-12 03:13:59 FLAC-WEB Maniacs-Iron_Curtain_Kids_Attacked_By_Punk-16BIT-WEB-FLAC-2022-VEXED
2023-12-12 03:14:31 FLAC-WEB Maniacs__Tin_Can_Army-Maniacs__Tin_Can_Army-Reissue_Split-16BIT-WEB-FLAC-2017-VEXED
2023-12-12 03:15:03 FLAC-WEB Manic_Ride-A_New_Low-16BIT-WEB-FLAC-2022-VEXED
2023-12-12 03:15:35 FLAC-WEB Manic_Ride-Manic_Ride-16BIT-WEB-FLAC-2020-VEXED
2023-12-12 03:16:06 FLAC-WEB Massive_Denial-Massive_Denial-16BIT-WEB-FLAC-2021-VEXED
2023-12-12 03:16:27 TV-HD-X264 The.Mandalorian.S01E01.1080p.BluRay.x264-BORDURE
2023-12-12 03:16:39 FLAC-WEB Massive_Denial-No_Control-16BIT-WEB-FLAC-2023-VEXED
2023-12-12 03:17:02 TV-HD-X264 The.Mandalorian.S01E02.1080p.BluRay.x264-BORDURE
2023-12-12 03:17:10 FLAC-WEB McRackins-Back_To_The_Crack-Remastered-16BIT-WEB-FLAC-2022-VEXED
2023-12-12 03:17:34 TV-HD-X264 The.Mandalorian.S01E03.1080p.BluRay.x264-BORDURE
2023-12-12 03:17:43 FLAC-WEB McRackins-Bat_Out_Of_Shell-16BIT-WEB-FLAC-2006-VEXED
2023-12-12 03:18:07 TV-HD-X264 The.Mandalorian.S01E04.1080p.BluRay.x264-BORDURE
2023-12-12 03:18:13 FLAC-WEB McRackins-Bat_Out_Of_Shell-Remastered-16BIT-WEB-FLAC-2022-VEXED
2023-12-12 03:18:26 XXX-HD MassageRooms.23.12.12.Rika.Fane.And.Gina.Snow.XXX.1080p.MP4-WRB
2023-12-12 03:18:33 TV-HD-X264 The.Mandalorian.S01E05.1080p.BluRay.x264-BORDURE
2023-12-12 03:18:46 FLAC-WEB McRackins-Best_Friend-16BIT-WEB-FLAC-1996-VEXED
2023-12-12 03:19:06 TV-HD-X264 The.Mandalorian.S01E06.1080p.BluRay.x264-BORDURE
2023-12-12 03:19:17 FLAC-WEB McRackins-Comicbooks_And_Bubblegum-16BIT-WEB-FLAC-1998-VEXED
2023-12-12 03:19:37 TV-HD-X264 The.Mandalorian.S01E07.1080p.BluRay.x264-BORDURE
2023-12-12 03:19:43 XXX-HD SweetSinner.23.12.12.Bunny.Madison.The.Viewer.XXX.1080p.MP4-WRB
2023-12-12 03:19:49 FLAC-WEB McRackins-Eggs_Alive_In_Italy-16BIT-WEB-FLAC-2021-VEXED
2023-12-12 03:20:05 TV-HD-X264 The.Mandalorian.S01E08.1080p.BluRay.x264-BORDURE
2023-12-12 03:20:21 FLAC-WEB McRackins-Eggzit-16BIT-WEB-FLAC-2008-VEXED
2023-12-12 03:20:35 TV-HD-X264 The.Mandalorian.S01E01.720p.BluRay.x264-BORDURE
2023-12-12 03:20:53 FLAC-WEB McRackins-In_On_The_Yolk-16BIT-WEB-FLAC-1996-VEXED
2023-12-12 03:20:57 TV-HD-X264 The.Mandalorian.S01E02.720p.BluRay.x264-BORDURE
2023-12-12 03:21:12 XXX-HD SneakySex.23.12.12.Gem.Jewels.Gym.Hottie.Boxes.For.Cock.XXX.1080p.MP4-WRB
2023-12-12 03:21:14 TV-WEB-HD-X264 The.Price.Is.Right.2023.12.11.1080p.WEB.h264-DiRT
2023-12-12 03:21:20 TV-HD-X264 The.Mandalorian.S01E03.720p.BluRay.x264-BORDURE
2023-12-12 03:21:25 FLAC-WEB McRackins-L.A.M.P.-16BIT-WEB-FLAC-2022-VEXED
2023-12-12 03:21:36 TV-HD-X264 The.Mandalorian.S01E04.720p.BluRay.x264-BORDURE
2023-12-12 03:21:56 FLAC-WEB McRackins-Live_In_Madrid-Remastered-16BIT-WEB-FLAC-2022-VEXED
2023-12-12 03:22:00 TV-WEB-HD-X264 Lets.Make.A.Deal.2023.12.11.1080p.WEB.h264-DiRT
2023-12-12 03:22:01 TV-HD-X264 The.Mandalorian.S01E05.720p.BluRay.x264-BORDURE
2023-12-12 03:22:21 TV-HD-X264 The.Mandalorian.S01E06.720p.BluRay.x264-BORDURE
2023-12-12 03:22:28 FLAC-WEB McRackins-Oddities_And_Eggcentricities_Vol._1-Remastered-16BIT-WEB-FLAC-2022-VEXED
2023-12-12 03:22:36 XXX-HD BrazzersExxtra.23.12.12.Jennifer.Mendez.Stuck.And.Double.Ass.Fucked.XXX.1080p.MP4-WRB
2023-12-12 03:22:44 TV-HD-X264 The.Mandalorian.S01E07.720p.BluRay.x264-BORDURE
2023-12-12 03:22:47 TV-WEB-HD-X264 Lets.Make.A.Deal.2023.12.11.720p.WEB.h264-DiRT
2023-12-12 03:22:58 TV-HD-X264 The.Mandalorian.S01E08.720p.BluRay.x264-BORDURE
2023-12-12 03:23:00 FLAC-WEB McRackins-Planet_Of_The_Eggs-Remastered-16BIT-WEB-FLAC-2022-VEXED
2023-12-12 03:23:16 TV-X264 The.Mandalorian.S01E01.BDRip.x264-BORDURE
2023-12-12 03:23:25 TV-X264 The.Mandalorian.S01E02.BDRip.x264-BORDURE
2023-12-12 03:23:32 FLAC-WEB McRackins-Raiding_The_Hen_House-16BIT-WEB-FLAC-2023-VEXED
2023-12-12 03:23:34 TV-X264 The.Mandalorian.S01E03.BDRip.x264-BORDURE
2023-12-12 03:23:39 TV-X264 The.Mandalorian.S01E04.BDRip.x264-BORDURE
2023-12-12 03:23:47 TV-X264 The.Mandalorian.S01E05.BDRip.x264-BORDURE
2023-12-12 03:23:57 TV-X264 The.Mandalorian.S01E07.BDRip.x264-BORDURE
2023-12-12 03:24:03 FLAC-WEB McRackins-S.T.U.P.I.D.-Remastered-16BIT-WEB-FLAC-2022-VEXED
2023-12-12 03:24:06 TV-X264 The.Mandalorian.S01E06.BDRip.x264-BORDURE
2023-12-12 03:24:09 TV-X264 The.Mandalorian.S01E08.BDRip.x264-BORDURE
2023-12-12 03:24:20 XXX-HD BrazzersExxtra.23.12.12.Jennifer.Mendez.Stuck.And.Double.Ass.Fucked.XXX.2160p.MP4-WRB
2023-12-12 03:24:36 FLAC-WEB McRackins-Short_And_Sweet-16BIT-WEB-FLAC-1996-VEXED
2023-12-12 03:24:57 TV-BLURAY The.Mandalorian.S01D01.COMPLETE.BLURAY-SLIPSTREAM
2023-12-12 03:25:10 FLAC-WEB McRackins-Too_Tough_To_Die-Remastered-16BIT-WEB-FLAC-2021-VEXED
2023-12-12 03:25:23 XXX-HD BrazzersExxtra.23.12.12.Lily.Starfire.Pancakes.Pjs.And.Pussy.XXX.1080p.MP4-WRB
2023-12-12 03:25:41 FLAC-WEB McRackins-Wake_The_Fun_Up-16BIT-WEB-FLAC-2023-VEXED
2023-12-12 03:26:13 FLAC-WEB McRackins-What_Came_First-Remastered-16BIT-WEB-FLAC-2022-VEXED
2023-12-12 03:26:39 XXX-HD BrazzersExxtra.23.12.12.Lily.Starfire.Pancakes.Pjs.And.Pussy.XXX.2160p.MP4-WRB
2023-12-12 03:26:45 FLAC-WEB Me_And_Mine-Devil_In_My_Ear-16BIT-WEB-FLAC-2022-VEXED
2023-12-12 03:27:16 FLAC-WEB Mean_Jesus-Abomination-16BIT-WEB-FLAC-2023-VEXED
2023-12-12 03:27:47 FLAC-WEB Mean_Mug-Head_Hurt-16BIT-WEB-FLAC-2022-VEXED
2023-12-12 03:28:13 TV-BLURAY The.Mandalorian.S01D02.COMPLETE.BLURAY-SLIPSTREAM
2023-12-12 03:28:18 FLAC-WEB Meantime-Living_In_The_Meantime-16BIT-WEB-FLAC-2023-VEXED
2023-12-12 03:28:51 MOViES Meet_Me_In_St._Louis-MMVI-MMIX-16BIT-WEB-FLAC-2015-VEXED
2023-12-12 03:29:23 FLAC-WEB Mefait-Dark_Turn-16BIT-WEB-FLAC-2022-VEXED
2023-12-12 03:29:54 FLAC-WEB Mescaline_Maniacs-Give_Me_My_Face_Back-16BIT-WEB-FLAC-2021-VEXED
2023-12-12 03:30:26 FLAC-WEB Mescaline_Maniacs-Mescaline_Maniacs-16BIT-WEB-FLAC-2020-VEXED
2023-12-12 03:30:57 FLAC-WEB Mescaline_Maniacs-Mescaline_Maniacs_2.0-16BIT-WEB-FLAC-2021-VEXED
2023-12-12 03:31:29 FLAC-WEB Method-Constant_Weight-16BIT-WEB-FLAC-2020-VEXED
2023-12-12 03:32:00 FLAC-WEB Militarie_Gun-Very_High__Never_Fucked_Up_Twice-16BIT-WEB-FLAC-2023-VEXED
2023-12-12 03:32:32 FLAC-WEB Mindhate-Self_Title-16BIT-WEB-FLAC-2019-VEXED
2023-12-12 03:33:04 FLAC-WEB Mindz_Eye-Crucial_Taunt-Single-16BIT-WEB-FLAC-2019-VEXED
2023-12-12 03:33:36 FLAC-WEB Mindz_Eye-True_Blue-16BIT-WEB-FLAC-2020-VEXED
2023-12-12 03:34:07 FLAC-WEB Mindz_Eye-Way_2_Lose-16BIT-WEB-FLAC-2019-VEXED
2023-12-12 03:34:39 FLAC-WEB Mired-Demo_22-16BIT-WEB-FLAC-2022-VEXED
2023-12-12 03:35:11 FLAC-WEB Modge-Modge-16BIT-WEB-FLAC-2021-VEXED
2023-12-12 03:35:42 FLAC-WEB Moments-Is_There_A_Cure-16BIT-WEB-FLAC-2020-VEXED
2023-12-12 03:36:13 FLAC-WEB Moments-Out_Of_Sight-16BIT-WEB-FLAC-2020-VEXED
2023-12-12 03:36:46 FLAC-WEB Moments-Tidal_Waves-16BIT-WEB-FLAC-2022-VEXED
2023-12-12 03:37:17 FLAC-WEB Moon_Rot-Abject_Terror-16BIT-WEB-FLAC-2021-VEXED
2023-12-12 03:37:49 FLAC-WEB Moon_Rot-Moon_Rot-16BIT-WEB-FLAC-2020-VEXED
2023-12-12 03:38:21 FLAC-WEB Moral_Fever-Spill_Of_Power-16BIT-WEB-FLAC-2023-VEXED
2023-12-12 03:38:53 FLAC-WEB Moxiebeat-Moxiebeat-16BIT-WEB-FLAC-2013-VEXED
2023-12-12 03:39:23 XXX-HD NookiesOriginals.23.12.04.Mandy.Waters.XXX.1080p.MP4-WRB
2023-12-12 03:39:25 FLAC-WEB Moxiebeat-Pop_Sounds-16BIT-WEB-FLAC-2020-VEXED
2023-12-12 03:39:57 FLAC-WEB Moxiebeat-Stressors_EP-16BIT-WEB-FLAC-2023-VEXED
2023-12-12 03:40:24 XXX-HD BadFamilyPOV.23.12.05.Karma.RX.Shows.Off.Her.Skills.Using.Her.Toy.XXX.1080p.MP4-WRB
2023-12-12 03:40:27 FLAC-WEB Mutually_Assured_Destruction-Fever_Dream-16BIT-WEB-FLAC-2020-VEXED
2023-12-12 03:41:00 FLAC-WEB Natural_Evil-Born_Evil-16BIT-WEB-FLAC-2020-VEXED
2023-12-12 03:41:31 FLAC-WEB Natural_Evil-Crown_Of_Rust-16BIT-WEB-FLAC-2022-VEXED
2023-12-12 03:41:55 XXX-HD MilfAF.23.12.05.Abby.Somers.XXX.1080p.MP4-WRB
2023-12-12 03:42:03 FLAC-WEB Natural_Evil-With_Love-16BIT-WEB-FLAC-2019-VEXED
2023-12-12 03:42:34 FLAC-WEB Near_Dark-3-16BIT-WEB-FLAC-2019-VEXED
2023-12-12 03:42:46 XXX-HD Lustery.E1158.Anja.Amelia.And.Billy.Frost.Quick.Blowjob.XXX.1080p.MP4-WRB
2023-12-12 03:43:06 FLAC-WEB Near_Dark-Make_Our_Way_Back-16BIT-WEB-FLAC-2022-VEXED
2023-12-12 03:43:40 FLAC-WEB Near_Dark-Silver_Lining-16BIT-WEB-FLAC-2021-VEXED
2023-12-12 03:44:09 XXX-HD Lustery.E1159.Haze.And.Mav.Burning.Passion.XXX.1080p.MP4-WRB
2023-12-12 03:44:12 FLAC-WEB Neck_Lock-War_Horse-16BIT-WEB-FLAC-2022-VEXED
2023-12-12 03:44:43 FLAC-WEB Neckarions-Neckarions-16BIT-WEB-FLAC-2022-VEXED
2023-12-12 03:45:00 XXX-HD Lustery.E1160.Crystal.And.Shaldon.Work.And.Squirt.XXX.1080p.MP4-WRB
2023-12-12 03:45:15 FLAC-WEB Neckarions-The_Rise_Of...-16BIT-WEB-FLAC-2021-VEXED
2023-12-12 03:45:46 FLAC-WEB New_Death-Game_Over-16BIT-WEB-FLAC-2023-VEXED
2023-12-12 03:46:18 FLAC-WEB New_Methods-New_Methods-16BIT-WEB-FLAC-2015-VEXED
2023-12-12 03:46:32 XXX-HD Lustery.E1161.Honey.G.And.K.Rivers.Give.It.Hard.XXX.1080p.MP4-WRB
2023-12-12 03:46:50 FLAC-WEB New_Methods-Where_We_Go_To_Burn-16BIT-WEB-FLAC-2019-VEXED
2023-12-12 03:47:22 FLAC-WEB New_Methods-Winter_Promo_19-16BIT-WEB-FLAC-2019-VEXED
2023-12-12 03:47:49 XXX-HD Lustery.E1162.Maya.And.Edward.Wood.You.Dare.XXX.1080p.MP4-WRB
2023-12-12 03:47:54 FLAC-WEB Nightfeeder-Cut_All_Of_Your_Face_Off-16BIT-WEB-FLAC-2022-VEXED
2023-12-12 03:48:25 FLAC-WEB Nightfeeder-Nightfeeder-16BIT-WEB-FLAC-2021-VEXED
2023-12-12 03:48:56 FLAC-WEB Ninth_Realm-A_Fate_Unbroken-16BIT-WEB-FLAC-2022-VEXED
2023-12-12 03:49:28 FLAC-WEB Ninth_Realm-All_Hail_Treachery-16BIT-WEB-FLAC-2020-VEXED
2023-12-12 03:49:35 XXX-HD WillTileXXX.23.12.05.Rae.West.Pregame.XXX.1080p.MP4-WRB
2023-12-12 03:50:00 FLAC-WEB No_Other_Way-Slow_Violence-16BIT-WEB-FLAC-2020-VEXED
2023-12-12 03:50:33 FLAC-WEB No_Purity-Demo_2023-16BIT-WEB-FLAC-2023-VEXED
2023-12-12 03:51:04 FLAC-WEB No_Right-Exempt-Single-16BIT-WEB-FLAC-2021-VEXED
2023-12-12 03:51:36 FLAC-WEB No_Right-Senescence-16BIT-WEB-FLAC-2019-VEXED
2023-12-12 03:51:39 XXX-HD WillTileXXX.23.12.05.Sophia.Locke.Satisfaction.XXX.1080p.MP4-WRB
2023-12-12 03:52:07 FLAC-WEB No_Right-Unjustified-16BIT-WEB-FLAC-2018-VEXED
2023-12-12 03:52:39 FLAC-WEB No_Solace-Hammers_In_A_Glass_House-16BIT-WEB-FLAC-2020-VEXED
2023-12-12 03:53:10 FLAC-WEB No_Solace-No_Solace-16BIT-WEB-FLAC-2019-VEXED
2023-12-12 03:53:42 FLAC-WEB No_Solace-Septic__Sever-16BIT-WEB-FLAC-2021-VEXED
2023-12-12 03:54:14 FLAC-WEB No_Turning_Back-Conquer-16BIT-WEB-FLAC-2023-VEXED
2023-12-12 03:54:46 FLAC-WEB Nobodys_Perfect-Arrival-16BIT-WEB-FLAC-2022-VEXED
2023-12-12 03:55:07 XXX-HD BrandNewAmateurs.23.12.04.Candace.Anal.Audition.XXX.1080p.MP4-WRB
2023-12-12 03:55:18 FLAC-WEB Nobodys_Perfect-Steps_Toward_Deception-16BIT-WEB-FLAC-1992-VEXED
2023-12-12 03:55:50 FLAC-WEB Nobodys_Perfect-Witness_This-16BIT-WEB-FLAC-1990-VEXED
2023-12-12 03:56:21 FLAC-WEB Nondescript-Decay-16BIT-WEB-FLAC-2021-VEXED
2023-12-12 03:56:53 FLAC-WEB Not_One_Truth-Not_One_Truth-16BIT-WEB-FLAC-2021-VEXED
2023-12-12 03:57:24 FLAC-WEB Not_One_Truth-Purified_By_Pain-16BIT-WEB-FLAC-2022-VEXED
2023-12-12 03:57:56 FLAC-WEB Nothing_Clean-Cheat-16BIT-WEB-FLAC-2018-VEXED
2023-12-12 03:57:59 XXX-HD PornForce.23.12.05.Hiyouth.18.Yo.Teen.Gets.Her.Pussy.Stretched.XXX.1080p.MP4-WRB
2023-12-12 03:58:28 FLAC-WEB Nothing_Clean-Disappointment-16BIT-WEB-FLAC-2021-VEXED
2023-12-12 03:58:59 FLAC-WEB Nowheres-Counting_The_Graves__The_Debt-16BIT-WEB-FLAC-2021-VEXED
2023-12-12 03:59:31 FLAC-WEB Nowheres-The_Way_Back_Home_Demo-16BIT-WEB-FLAC-2021-VEXED
2023-12-12 04:00:03 FLAC-WEB Nuclae-Bringing_Out_The_Beast-16BIT-WEB-FLAC-2023-VEXED
2023-12-12 04:00:34 FLAC-WEB Odd_Pace-Momentum-16BIT-WEB-FLAC-2023-VEXED
2023-12-12 04:01:06 FLAC-WEB Offhand-Here_Lies_Nothing-16BIT-WEB-FLAC-2020-VEXED
2023-12-12 04:01:37 FLAC-WEB Offhand-Nation_Of_Thieves-16BIT-WEB-FLAC-2019-VEXED
2023-12-12 04:01:59 XXX-HD WildOnCam.23.12.04.Angel.Windell.Hardcore.XXX.1080p.MP4-WRB
2023-12-12 04:02:10 FLAC-WEB Offhand-Offhand-16BIT-WEB-FLAC-2018-VEXED
2023-12-12 04:02:41 FLAC-WEB Oily_Boys-Cro_Memory_Grin-16BIT-WEB-FLAC-2020-VEXED
2023-12-12 04:03:13 FLAC-WEB Oily_Boys-Demo_1_2012-16BIT-WEB-FLAC-2012-VEXED
2023-12-12 04:03:44 FLAC-WEB Oily_Boys-Majesty-16BIT-WEB-FLAC-2014-VEXED
2023-12-12 04:04:17 FLAC-WEB One_By_One-Keep_The_Kids_Runnin-16BIT-WEB-FLAC-2023-VEXED
2023-12-12 04:04:50 FLAC-WEB One_By_One-Oi_Up_Your_Ass-Demo-16BIT-WEB-FLAC-2023-VEXED
2023-12-12 04:05:20 FLAC-WEB One_Down-A_Lonely_Joy-16BIT-WEB-FLAC-2020-VEXED
2023-12-12 04:05:52 FLAC-WEB One_In_Tha_Chamber-Behind_Enemy_Lines-16BIT-WEB-FLAC-2021-VEXED
2023-12-12 04:06:24 FLAC-WEB One_In_Tha_Chamber-One_In_Tha_Chamber-Demo-16BIT-WEB-FLAC-2019-VEXED
2023-12-12 04:06:55 FLAC-WEB One_Life_Taken-One_Nation_Under_War-16BIT-WEB-FLAC-2022-VEXED
2023-12-12 04:07:28 FLAC-WEB Open_Veins-Open_Veins-16BIT-WEB-FLAC-2022-VEXED
2023-12-12 04:07:58 FLAC-WEB Optimal_Crime-A_Lifelong_Fight-16BIT-WEB-FLAC-2020-VEXED
2023-12-12 04:08:31 FLAC-WEB Optimal_Crime-Demo_2018-16BIT-WEB-FLAC-2019-VEXED
2023-12-12 04:09:02 FLAC-WEB Otus-The_Early_Collection-16BIT-WEB-FLAC-2020-VEXED
2023-12-12 04:09:34 FLAC-WEB Out_Of_Step-Discography_2007-2019-16BIT-WEB-FLAC-2021-VEXED
2023-12-12 04:10:05 FLAC-WEB Out_Of_Step-Dont_Look_Back-16BIT-WEB-FLAC-2022-VEXED
2023-12-12 04:10:35 MBLURAY Momoiro.Clover.Z.Momiro.Christmas.2012.at.Saitama.Super.Arena.Day.One.2012.1080p.MBLURAY.x264-DARKFLiX
2023-12-12 04:10:37 FLAC-WEB Outrage-Higher_Powers-16BIT-WEB-FLAC-2019-VEXED
2023-12-12 04:11:04 MP3-WEB Orig._Hochstaufner_Buam-Musik_Geschichten_Zur_Advents_Und_Weihnachtszeit-WEB-DE-1998-XMAS
2023-12-12 04:11:08 XXX-HD AllOver30.23.12.11.Angelina.Moon.Mature.Pleasure.XXX.1080p.MP4-WRB
2023-12-12 04:11:10 FLAC-WEB Outright-Bury_Us-16BIT-WEB-FLAC-2023-VEXED
2023-12-12 04:11:42 FLAC-WEB Over_It-Over_It-16BIT-WEB-FLAC-2023-VEXED
2023-12-12 04:12:13 FLAC-WEB Over_The_Line-Pensacola_Straight_Edge-16BIT-WEB-FLAC-2021-VEXED
2023-12-12 04:12:34 XXX-HD GirlsOutWest.23.12.11.Lia.Jaye.Flexible.XXX.1080p.MP4-WRB
2023-12-12 04:12:35 X264 Momoiro.Clover.Z.Momiro.Christmas.2012.at.Saitama.Super.Arena.Day.One.2012.BDRiP.x264-DARKFLiX
2023-12-12 04:12:44 FLAC-WEB Oversight-Promo-16BIT-WEB-FLAC-2019-VEXED
2023-12-12 04:13:16 FLAC-WEB Oversight-Promo_Tape-16BIT-WEB-FLAC-2017-VEXED
2023-12-12 04:13:26 XXX-HD PlayboyPlus.23.12.11.Elilith.Noir.Watch.This.XXX.1080p.MP4-WRB
2023-12-12 04:13:48 FLAC-WEB Oversight-Transparency-16BIT-WEB-FLAC-2018-VEXED
2023-12-12 04:14:20 FLAC-WEB Parca-Parca-Demo-16BIT-WEB-FLAC-2023-VEXED
2023-12-12 04:14:52 FLAC-WEB Pay_For_Pain-Saturation_Gradient-16BIT-WEB-FLAC-2022-VEXED
2023-12-12 04:15:20 XXX-HD PlumperPass.23.12.11.Charlie.Cooper.XXX.1080p.MP4-WRB
2023-12-12 04:15:23 FLAC-WEB Payback-Delco_Is_In_Lockdown-16BIT-WEB-FLAC-2019-VEXED
2023-12-12 04:15:55 FLAC-WEB Payback-It_Is_What_It_Is-16BIT-WEB-FLAC-2021-VEXED
2023-12-12 04:16:12 X264 Momoiro.Clover.Z.Momiro.Christmas.2012.at.Saitama.Super.Arena.Day.Two.2012.BDRiP.x264-DARKFLiX
2023-12-12 04:16:27 FLAC-WEB Payback-Winter_Promo-16BIT-WEB-FLAC-2019-VEXED
2023-12-12 04:16:49 XXX-HD PornMegaLoad.23.12.11.Adriana.Avalon.27754.XXX.REMASTERED.1080p.MP4-WRB
2023-12-12 04:16:59 FLAC-WEB Peace_Ritual-Peace_Ritual-16BIT-WEB-FLAC-2022-VEXED
2023-12-12 04:17:30 FLAC-WEB Peace_Talks-Progress-16BIT-WEB-FLAC-2023-VEXED
2023-12-12 04:18:01 FLAC-WEB Peaks-232-16BIT-WEB-FLAC-2020-VEXED
2023-12-12 04:18:04 XXX-HD PornMegaLoad.23.12.11.Danielle.Abotte.31833.XXX.REMASTERED.1080p.MP4-WRB
2023-12-12 04:18:34 FLAC-WEB Pebble-Bare_Bones-16BIT-WEB-FLAC-2022-VEXED
2023-12-12 04:19:05 FLAC-WEB Pebble-False_Step-16BIT-WEB-FLAC-2019-VEXED
2023-12-12 04:19:37 XXX-HD PutaLocura.23.12.11.Michy.Perez.And.Mells.Blanco.SPANISH.XXX.720p.MP4-WRB
2023-12-12 04:19:37 FLAC-WEB Perp_Walk-Permacrisis-16BIT-WEB-FLAC-2023-VEXED
2023-12-12 04:20:09 FLAC-WEB Phane-10_Charged_Trax-16BIT-WEB-FLAC-2017-VEXED
2023-12-12 04:20:39 XXX-HD WankItNow.23.12.11.Marnie.Rose.My.New.Toy.XXX.1080p.MP4-WRB
2023-12-12 04:20:43 FLAC-WEB Phane-10_Charged_Trax-Remastered-16BIT-WEB-FLAC-2022-VEXED
2023-12-12 04:21:14 FLAC-WEB Phane-All_In_Self_Destruction-16BIT-WEB-FLAC-2019-VEXED
2023-12-12 04:21:45 FLAC-WEB Phane-Phane-16BIT-WEB-FLAC-2020-VEXED
2023-12-12 04:21:54 XXX-HD WankItNow.23.12.11.Siren.And.Dolly.Step.Sister.Threesome.XXX.1080p.MP4-WRB
2023-12-12 04:22:18 FLAC-WEB Piss_Flowers-Everyone_I_Love-16BIT-WEB-FLAC-2022-VEXED
2023-12-12 04:22:49 FLAC-WEB Piss_Flowers-For_Those_That_Cant_Get_Right-16BIT-WEB-FLAC-2021-VEXED
2023-12-12 04:23:23 FLAC-WEB Pithair-Fuck_Hardcore-16BIT-WEB-FLAC-2019-VEXED
2023-12-12 04:23:56 FLAC-WEB Pithair-Pithair-16BIT-WEB-FLAC-2018-VEXED
2023-12-12 04:24:28 FLAC-WEB Pithair-Sick_Set-16BIT-WEB-FLAC-2021-VEXED
2023-12-12 04:24:33 XXX-HD OhMyHoles.23.12.11.Lissa.Bon.XXX.1080p.MP4-WRB
2023-12-12 04:24:43 MBLURAY Momoiro.Clover.Z.White.Hot.Blizzard.Momoiro.Christmas.2013.1080p.MBLURAY.x264-DARKFLiX
2023-12-12 04:25:00 FLAC-WEB Plague_Years-All_Will_Suffer-16BIT-WEB-FLAC-2022-VEXED
2023-12-12 04:25:30 FLAC-WEB Plague_Years-Circle_Of_Darkness-16BIT-WEB-FLAC-2020-VEXED
2023-12-12 04:26:04 FLAC-WEB Plague_Years-Unholy_Infestation-16BIT-WEB-FLAC-2018-VEXED
2023-12-12 04:26:35 FLAC-WEB Plaguestate-Under_The_Shelter_Of_Violence-16BIT-WEB-FLAC-2021-VEXED
2023-12-12 04:27:07 FLAC-WEB Playytime-Playytime-Demo-16BIT-WEB-FLAC-2018-VEXED
2023-12-12 04:27:27 XXX-HD OhMyHoles.23.12.11.Lissa.Bon.XXX.2160p.MP4-WRB
2023-12-12 04:27:38 FLAC-WEB Playytime-The_Fun_Never_Ends-16BIT-WEB-FLAC-2020-VEXED
2023-12-12 04:28:08 FLAC-WEB Plead-Expired_Blood-16BIT-WEB-FLAC-2020-VEXED
2023-12-12 04:28:24 X264 Momoiro.Clover.Z.White.Hot.Blizzard.Momoiro.Christmas.2013.BDRiP.x264-DARKFLiX
2023-12-12 04:28:40 FLAC-WEB Plead-Hexed-16BIT-WEB-FLAC-2019-VEXED
2023-12-12 04:29:12 FLAC-WEB Plead-Withered-16BIT-WEB-FLAC-2022-VEXED
2023-12-12 04:29:43 FLAC-WEB Point_Of_Contact-Commitment-16BIT-WEB-FLAC-2019-VEXED
2023-12-12 04:30:15 FLAC-WEB Point_Of_Contact-Undefeated-16BIT-WEB-FLAC-2018-VEXED
2023-12-12 04:30:47 FLAC-WEB Power_Face-Door_Slammed_Shut-16BIT-WEB-FLAC-2020-VEXED
2023-12-12 04:31:19 FLAC-WEB Power_Face-Face_The_Power-16BIT-WEB-FLAC-2018-VEXED
2023-12-12 04:31:52 FLAC-WEB Power_Face-Power_Face-16BIT-WEB-FLAC-2016-VEXED
2023-12-12 04:32:21 MP3 Momoiro_Clover_Z-Momiro_Christmas_2012_at_Saitama_Super_Arena-(KIXM-90127-30)-JP-4BLURAY-2013-DARKAUDiO
2023-12-12 04:32:24 FLAC-WEB PrayForDeath-Promo-16BIT-WEB-FLAC-2023-VEXED
2023-12-12 04:32:56 FLAC-WEB Premeditated-Preventative_Measures-16BIT-WEB-FLAC-2023-VEXED
2023-12-12 04:33:15 FLAC Momoiro_Clover_Z-Momiro_Christmas_2012_at_Saitama_Super_Arena-(KIXM-90127-30)-JP-4BLURAY-FLAC-2013-DARKAUDiO
2023-12-12 04:33:29 FLAC-WEB Prescriptiondeath-666mg-16BIT-WEB-FLAC-2016-VEXED
2023-12-12 04:34:02 MP3 Momoiro_Clover_Z-White_Hot_Blizzard_Momiro_Christmas_2013-(KIXM-167-8)-JP-2BLURAY-2014-DARKAUDiO
2023-12-12 04:34:02 FLAC-WEB Prescriptiondeath-Hallucinosis-16BIT-WEB-FLAC-2018-VEXED
2023-12-12 04:34:32 FLAC-WEB Prescriptiondeath-Life_Before_Debt-16BIT-WEB-FLAC-2017-VEXED
2023-12-12 04:34:48 FLAC Momoiro_Clover_Z-White_Hot_Blizzard_Momiro_Christmas_2013-(KIXM-167-8)-JP-2BLURAY-FLAC-2014-DARKAUDiO
2023-12-12 04:35:05 FLAC-WEB Prescriptiondeath-Prescriptiondeath-16BIT-WEB-FLAC-2020-VEXED
2023-12-12 04:35:35 FLAC-WEB Prescriptiondeath-Suffering_Totality-16BIT-WEB-FLAC-2020-VEXED
2023-12-12 04:36:07 FLAC-WEB Pressure_Pact-Pressure_Pact-16BIT-WEB-FLAC-2017-VEXED
2023-12-12 04:36:28 XXX-HD Bang.RealTeens.23.12.12.Ava.Davis.XXX.1080p.MP4-WRB
2023-12-12 04:36:39 FLAC-WEB Pressure_Pact-Scared_Off_The_Streets-16BIT-WEB-FLAC-2019-VEXED
2023-12-12 04:37:10 FLAC-WEB Pressure_Pact-Waste_Of_Boredom-Demo-16BIT-WEB-FLAC-2019-VEXED
2023-12-12 04:37:42 FLAC-WEB Price_Of_Silence-Price_Of_Silence-Demo-16BIT-WEB-FLAC-2023-VEXED
2023-12-12 04:38:14 FLAC-WEB Private_Hell-Demo_2021-16BIT-WEB-FLAC-2021-VEXED
2023-12-12 04:38:46 FLAC-WEB Problem-Anti-You-16BIT-WEB-FLAC-2022-VEXED
2023-12-12 04:39:18 FLAC-WEB Proxy-Proxy-Demo-16BIT-WEB-FLAC-2022-VEXED
2023-12-12 04:39:49 FLAC-WEB Psycho-Frame-Automatic_Death_Protocol-16BIT-WEB-FLAC-2023-VEXED
2023-12-12 04:40:21 FLAC-WEB Psycho_Enhancer-A_Fucked_Up_Dream-16BIT-WEB-FLAC-2023-VEXED
2023-12-12 04:40:31 XXX-HD Bang.RealTeens.23.12.12.Ava.Davis.XXX.2160p.MP4-WRB
2023-12-12 04:40:52 FLAC-WEB Public_Acid-Condemnation-16BIT-WEB-FLAC-2020-VEXED
2023-12-12 04:41:24 FLAC-WEB Public_Acid-Easy_Weapons-16BIT-WEB-FLAC-2018-VEXED
2023-12-12 04:41:55 FLAC-WEB Public_Acid-The_Beat_Sessions-16BIT-WEB-FLAC-2023-VEXED
2023-12-12 04:42:27 FLAC-WEB Public_Threat-Demo_23-16BIT-WEB-FLAC-2023-VEXED
2023-12-12 04:42:58 FLAC-WEB Push-Bad_Intentions-16BIT-WEB-FLAC-2022-VEXED
2023-12-12 04:43:07 XXX-HD GirlGirlXXX.23.12.12.Cassie.Del.Isla.And.Demi.Hawks.XXX.1080p.MP4-WRB
2023-12-12 04:43:31 FLAC-WEB Push-Breathe_In_The_Future_Breathe_Out_The_Past-16BIT-WEB-FLAC-2014-VEXED
2023-12-12 04:44:01 FLAC-WEB Push-Dark_Dive-16BIT-WEB-FLAC-2019-VEXED
2023-12-12 04:44:34 FLAC-WEB Push-This_Is_Cruel._This_Is_Life.-16BIT-WEB-FLAC-2016-VEXED
2023-12-12 04:45:04 FLAC-WEB Rage-Feel_The_Burn-16BIT-WEB-FLAC-2017-VEXED
2023-12-12 04:45:38 FLAC-WEB Rage-I_Will_Not_Give_In-16BIT-WEB-FLAC-2020-VEXED
2023-12-12 04:46:09 FLAC-WEB Rage-Rage-16BIT-WEB-FLAC-2019-VEXED
2023-12-12 04:46:32 TV-WEB-HD-X264 Contraband.Seized.at.the.Border.S02E09.1080p.WEB.h264-FREQUENCY
2023-12-12 04:46:34 TV-WEB-HD-X264 Seduced.to.Slay.S01E04.1080p.WEB.h264-FREQUENCY
2023-12-12 04:46:34 XXX-HD GirlGirlXXX.23.12.12.Cassie.Del.Isla.And.Demi.Hawks.XXX.2160p.MP4-WRB
2023-12-12 04:46:36 TV-WEB-HD-X264 Who.the.Bleep.Did.I.Marry.S08E04.1080p.WEB.h264-FREQUENCY
2023-12-12 04:46:41 FLAC-WEB Rage-Vol_1_The_Sex_Tape-16BIT-WEB-FLAC-2016-VEXED
2023-12-12 04:47:13 FLAC-WEB Rage-Want_To_Feel-16BIT-WEB-FLAC-2022-VEXED
2023-12-12 04:47:46 FLAC-WEB Random_Heroes-Archives_Vol_1_Corrigan-16BIT-WEB-FLAC-2022-VEXED
2023-12-12 04:48:16 FLAC-WEB Random_Heroes-Archives_Vol_2_Singles_And_Demos_2004-2007-16BIT-WEB-FLAC-2022-VEXED
2023-12-12 04:48:48 FLAC-WEB Random_Heroes-Fat_Elvis_Period-16BIT-WEB-FLAC-2022-VEXED
2023-12-12 04:49:20 FLAC-WEB Random_Heroes-Please_Clap-16BIT-WEB-FLAC-2020-VEXED
2023-12-12 04:49:51 FLAC-WEB Rat_Poison-Hypnotized_In_The_90s-16BIT-WEB-FLAC-2020-VEXED
2023-12-12 04:50:23 FLAC-WEB Rat_Poison-Man_And_Blade-16BIT-WEB-FLAC-2022-VEXED
2023-12-12 04:50:56 FLAC-WEB Ratos_de_Porao-Jesus_Nazifascista-BR-EP-24BIT-WEB-FLAC-2023-VEXED
2023-12-12 04:51:26 FLAC-WEB Rats_Will_Feast-A_World_Without_Stairs-16BIT-WEB-FLAC-2018-VEXED
2023-12-12 04:51:57 FLAC-WEB Rats_Will_Feast-Scarcity-16BIT-WEB-FLAC-2019-VEXED
2023-12-12 04:52:29 FLAC-WEB Rats_Will_Feast-Songs_Of_A_Racehorse-16BIT-WEB-FLAC-2020-VEXED
2023-12-12 04:53:00 FLAC-WEB Ravage-Circle_Of_Mind-16BIT-WEB-FLAC-2021-VEXED
2023-12-12 04:53:32 FLAC-WEB Raw_Breed-Collected-16BIT-WEB-FLAC-2019-VEXED
2023-12-12 04:54:03 FLAC-WEB Raw_Breed-Universal_Paranoia-16BIT-WEB-FLAC-2022-VEXED
2023-12-12 04:54:19 XXX-HD FamilyTherapyXXX.23.12.12.Sidney.Summers.And.Susie.Stellar.Unsupervised.XXX.1080p.MP4-WRB
2023-12-12 04:54:35 FLAC-WEB Real_World-Problem_Child-16BIT-WEB-FLAC-2020-VEXED
2023-12-12 04:55:06 FLAC-WEB Real_World-The_Language_Of_My_Life_Is_Written_In_Blood-16BIT-WEB-FLAC-2019-VEXED
2023-12-12 04:55:39 FLAC-WEB Realidades-X-PT-16BIT-WEB-FLAC-2023-VEXED
2023-12-12 04:56:10 FLAC-WEB Reality_Check-2020_Demonstration-16BIT-WEB-FLAC-2020-VEXED
2023-12-12 04:56:42 FLAC-WEB Reclaim-Break-16BIT-WEB-FLAC-2019-VEXED
2023-12-12 04:57:14 FLAC-WEB Reclaim-H.D.H.C.-16BIT-WEB-FLAC-2018-VEXED
2023-12-12 04:57:45 FLAC-WEB Reclaim-Hold_It_Down-16BIT-WEB-FLAC-2019-VEXED
2023-12-12 04:58:05 XXX-HD PornWorld.23.12.12.Sheila.Ortega.XXX.1080p.MP4-WRB
2023-12-12 04:58:16 FLAC-WEB Reclaim-Live_At_Encore_High_School-16BIT-WEB-FLAC-2021-VEXED
2023-12-12 04:58:49 FLAC-WEB Reclaim-Reclaim-16BIT-WEB-FLAC-2018-VEXED
2023-12-12 04:59:20 FLAC-WEB Reflect-River_City_Hardcore-16BIT-WEB-FLAC-2020-VEXED
2023-12-12 04:59:51 FLAC-WEB Reliever-2020_Vision-16BIT-WEB-FLAC-2019-VEXED
2023-12-12 05:00:22 FLAC-WEB Reliever-Something_Wrong-16BIT-WEB-FLAC-2018-VEXED
2023-12-12 05:00:54 FLAC-WEB Rhythm_Of_Fear-Ritual_Dementia-16BIT-WEB-FLAC-2019-VEXED
2023-12-12 05:01:26 FLAC-WEB Riksrevisionen-Stampla_Ut-SE-16BIT-WEB-FLAC-2023-VEXED
2023-12-12 05:01:58 FLAC-WEB Risk-Demo_19-16BIT-WEB-FLAC-2019-VEXED
2023-12-12 05:02:30 FLAC-WEB Risk-From_The_Depths-16BIT-WEB-FLAC-2014-VEXED
2023-12-12 05:03:02 FLAC-WEB Ritual_Blade-Hate_Overflows-16BIT-WEB-FLAC-2021-VEXED
2023-12-12 05:03:35 FLAC-WEB Ritual_Blade-Hidden_Pain-16BIT-WEB-FLAC-2017-VEXED
2023-12-12 05:04:07 FLAC-WEB Ritual_Blade-Hollow_Gods-16BIT-WEB-FLAC-2017-VEXED
2023-12-12 05:04:38 FLAC-WEB Ritual_Blade-Ritual_Blade-16BIT-WEB-FLAC-2017-VEXED
2023-12-12 05:04:52 XXX-HD PornWorld.23.12.12.Sheila.Ortega.XXX.2160p.MP4-WRB
2023-12-12 05:05:10 FLAC-WEB Ritual_Of_Decay-Can_They_Suffer...-16BIT-WEB-FLAC-2019-VEXED
2023-12-12 05:05:42 FLAC-WEB Ritual_Of_Decay-Tremble_Before_Violence-16BIT-WEB-FLAC-2020-VEXED
2023-12-12 05:06:14 FLAC-WEB Ritual_Of_Decay__Carnivore_Crusher-Ritual_Of_Decay__Carnivore_Crusher-Split-16BIT-WEB-FLAC-2020-VEXED
2023-12-12 05:06:48 FLAC-WEB Root_Of_All_Evil-In_Homine_Malum-16BIT-WEB-FLAC-2022-VEXED
2023-12-12 05:07:18 FLAC-WEB Root_Of_All_Evil-Unleashed-16BIT-WEB-FLAC-2020-VEXED
2023-12-12 05:07:50 FLAC-WEB Rotting_In_Dirt-I_Am_Eating_My_Shame-16BIT-WEB-FLAC-2022-VEXED
2023-12-12 05:08:21 FLAC-WEB Royalist-Forever_Yours_In_Battle-16BIT-WEB-FLAC-2021-VEXED
2023-12-12 05:08:53 FLAC-WEB Rugged-Driven_By_Instinct-16BIT-WEB-FLAC-2021-VEXED
2023-12-12 05:09:25 FLAC-WEB Rugged-Godless_Days-16BIT-WEB-FLAC-2022-VEXED
2023-12-12 05:09:57 FLAC-WEB Rust-World_Upside_Down-16BIT-WEB-FLAC-2022-VEXED
2023-12-12 05:10:28 FLAC-WEB Sanity_Slip-Submerged_In_Pain-16BIT-WEB-FLAC-2020-VEXED
2023-12-12 05:11:00 FLAC-WEB Saving_Ruth-Battleground-16BIT-WEB-FLAC-2023-VEXED
2023-12-12 05:11:31 FLAC-WEB Scathe-Demo_2023-16BIT-WEB-FLAC-2023-VEXED
2023-12-12 05:12:03 FLAC-WEB Scrutiny-Scrutiny-16BIT-WEB-FLAC-2022-VEXED
2023-12-12 05:12:35 FLAC-WEB Scumbag_Skippy-Al_Thawr-16BIT-WEB-FLAC-2023-VEXED
2023-12-12 05:13:05 FLAC-WEB Scumbag_Skippy-Varmits_And_Crown_Of_Meat-16BIT-WEB-FLAC-2022-VEXED
2023-12-12 05:13:38 FLAC-WEB Self_Sabotage-My_Mind_Is_A_Ghetto-16BIT-WEB-FLAC-2021-VEXED
2023-12-12 05:14:09 FLAC-WEB Self_Sabotage-Self_Sabotage-16BIT-WEB-FLAC-2022-VEXED
2023-12-12 05:14:41 FLAC-WEB Sentinel-Age_Of_Decay-16BIT-WEB-FLAC-2023-VEXED
2023-12-12 05:15:12 FLAC-WEB Sewn_Shut-Sewn_Shut-16BIT-WEB-FLAC-2023-VEXED
2023-12-12 05:15:43 FLAC-WEB Shout_Out-631_As_Life-16BIT-WEB-FLAC-2023-VEXED
2023-12-12 05:16:15 FLAC-WEB Sinking_In-Sinking_In-16BIT-WEB-FLAC-2023-VEXED
2023-12-12 05:16:46 FLAC-WEB Skinhead-Everything_Was_Beautiful_And_Nothing_Hurt-16BIT-WEB-FLAC-2023-VEXED
2023-12-12 05:17:18 FLAC-WEB Slacker_By_Definition-Seven_Minutes_In_Heaven-16BIT-WEB-FLAC-2022-VEXED
2023-12-12 05:17:49 FLAC-WEB Slept_On-M_M_X_V_I_I-16BIT-WEB-FLAC-2017-VEXED
2023-12-12 05:18:21 FLAC-WEB Slept_On-The_Hand_Your_Dealt-16BIT-WEB-FLAC-2022-VEXED
2023-12-12 05:18:53 FLAC-WEB Slice-God_Complex-16BIT-WEB-FLAC-2023-VEXED
2023-12-12 05:19:24 FLAC-WEB Slug-Continuing_Growth-16BIT-WEB-FLAC-2022-VEXED
2023-12-12 05:19:56 FLAC-WEB Slug-Demo-16BIT-WEB-FLAC-2021-VEXED
2023-12-12 05:20:08 TV-WEB-HD-X264 90.Day.Pillow.Talk.The.Other.Way.S05E23.1080p.WEB.h264-FREQUENCY
2023-12-12 05:20:09 TV-WEB-HD-X264 The.Big.Bake.S04E13.1080p.WEB.h264-FREQUENCY
2023-12-12 05:20:28 FLAC-WEB Slug-Summer_Songs_2021-16BIT-WEB-FLAC-2021-VEXED
2023-12-12 05:20:59 FLAC-WEB Socialstyrelsen-I_Krossade_Speglars_Skarvor-SE-16BIT-WEB-FLAC-2022-VEXED
2023-12-12 05:21:31 FLAC-WEB Socialstyrelsen-Med_Radsla_For_Livet-SE-16BIT-WEB-FLAC-2020-VEXED
2023-12-12 05:22:02 FLAC-WEB Socialstyrelsen__Brute_Force_Trauma-Socialstyrelsen__Brute_Force_Trauma-SE-Split-16BIT-WEB-FLAC-2023-VEXED
2023-12-12 05:22:33 FLAC-WEB Soul_Void__Brainwave-Horrifying_New_Form-Split-16BIT-WEB-FLAC-2022-VEXED
2023-12-12 05:23:05 FLAC-WEB Soulprison-Lucid_Nightmare-16BIT-WEB-FLAC-2023-VEXED
2023-12-12 05:23:36 FLAC-WEB Splitknuckle-Breathing_Through_The_Wound-16BIT-WEB-FLAC-2023-VEXED
2023-12-12 05:24:07 FLAC-WEB Step_Up-S.B.H.C.-16BIT-WEB-FLAC-2023-VEXED
2023-12-12 05:24:40 FLAC-WEB Stress_Positions-Harsh_Reality-16BIT-WEB-FLAC-2023-VEXED
2023-12-12 05:25:11 FLAC-WEB Subversion-Nothing_Left_To_Give-16BIT-WEB-FLAC-2022-VEXED
2023-12-12 05:25:43 FLAC-WEB Suntouch_House-Demonstration-16BIT-WEB-FLAC-2022-VEXED
2023-12-12 05:26:14 FLAC-WEB Surf_Rock_Is_Dead-Drama__But_Chill-16BIT-WEB-FLAC-2022-VEXED
2023-12-12 05:26:46 FLAC-WEB Surf_Rock_Is_Dead-Existential_Playboy-16BIT-WEB-FLAC-2020-VEXED
2023-12-12 05:27:17 FLAC-WEB Surf_Rock_Is_Dead-SRiD-16BIT-WEB-FLAC-2015-VEXED
2023-12-12 05:27:48 FLAC-WEB Surf_Rock_Is_Dead-We_Have_No_Friends-16BIT-WEB-FLAC-2017-VEXED
2023-12-12 05:28:20 FLAC-WEB Take_It_In_Blood-Demo_2022-16BIT-WEB-FLAC-2022-VEXED
2023-12-12 05:28:52 FLAC-WEB Tchert-Inti-16BIT-WEB-FLAC-2023-VEXED
2023-12-12 05:29:23 FLAC-WEB Temple_Guard-Spear_Of_The_Revenant-16BIT-WEB-FLAC-2022-VEXED
2023-12-12 05:29:55 FLAC-WEB Test_Of_Patience-Test_Of_Patience-16BIT-WEB-FLAC-2023-VEXED
2023-12-12 05:30:26 FLAC-WEB The_Complicators__Empire_Down-The_Complicators__Empire_Down-Split-16BIT-WEB-FLAC-2018-VEXED
2023-12-12 05:30:40 ANiME Dragonball.Super.Super.Hero.2022.ANiME.DUAL.COMPLETE.UHD.BLURAY-iFPD
2023-12-12 05:30:58 FLAC-WEB The_Final_Agony-The_Final_Agony-16BIT-WEB-FLAC-2022-VEXED
2023-12-12 05:31:29 FLAC-WEB The_Halfpipes-The_Halfpipes-16BIT-WEB-FLAC-2022-VEXED
2023-12-12 05:32:01 FLAC-WEB The_Hope_Conspiracy-Confusion__Chaos__Misery-16BIT-WEB-FLAC-2023-VEXED
2023-12-12 05:32:32 FLAC-WEB The_Mainliners-Lifes_Alright-16BIT-WEB-FLAC-2023-VEXED
2023-12-12 05:33:03 FLAC-WEB To_Fight_For-Glorify-16BIT-WEB-FLAC-2022-VEXED
2023-12-12 05:33:35 FLAC-WEB Torture_Culture-Burn-16BIT-WEB-FLAC-2022-VEXED
2023-12-12 05:34:07 FLAC-WEB Tough_Love-There_Are_Some_Thing_Worse_Than_Dying-16BIT-WEB-FLAC-2023-VEXED
2023-12-12 05:34:38 FLAC-WEB Toxic_Shock-Reborn-16BIT-WEB-FLAC-2023-VEXED
2023-12-12 05:35:10 FLAC-WEB Toxic_Spit-W.Y.S.D-16BIT-WEB-FLAC-2022-VEXED
2023-12-12 05:35:42 FLAC-WEB Tozcos-Infernal-ES-16BIT-WEB-FLAC-2023-VEXED
2023-12-12 05:36:13 FLAC-WEB Unabomb-Cabin_Fever-16BIT-WEB-FLAC-2023-VEXED
2023-12-12 05:36:44 FLAC-WEB Under_Negative_Intent-Under_Negative_Intent-Demo-16BIT-WEB-FLAC-2023-VEXED
2023-12-12 05:37:16 FLAC-WEB VA-Out_For_Blood_Vol._3-16BIT-WEB-FLAC-2023-VEXED
2023-12-12 05:37:48 FLAC-WEB VA-The_Spirit_Remains-16BIT-WEB-FLAC-2023-VEXED
2023-12-12 05:38:19 FLAC-WEB Vial_Of_Tearz-Serrated_Vision-16BIT-WEB-FLAC-2022-VEXED
2023-12-12 05:38:19 XXX-HD ATKGalleria.23.12.12.Sophia.Sterling.XXX.1080p.MP4-WRB
2023-12-12 05:38:50 FLAC-WEB Video_Prick-Video_Prick-Demo-16BIT-WEB-FLAC-2020-VEXED
2023-12-12 05:39:23 FLAC-WEB Video_Prick__Raw_Breed-Video_Prick__Raw_Breed-Split-16BIT-WEB-FLAC-2022-VEXED
2023-12-12 05:39:54 FLAC-WEB Virtue-Tales_From_The_512-16BIT-WEB-FLAC-2022-VEXED
2023-12-12 05:39:55 ANiME Dragonball.Super.Super.Hero.2022.ANiME.GERMAN.DL.2160p.UHD.BluRay.HEVC-iFPD
2023-12-12 05:39:57 XXX-HD ATKGirlfriends.23.12.12.Compilation.XXX.1080p.MP4-WRB
2023-12-12 05:40:25 FLAC-WEB Warcrimes-The_Death_Of_All_Prominent_Figures...-16BIT-WEB-FLAC-2023-VEXED
2023-12-12 05:40:57 FLAC-WEB Western_Pleasure-Western_Pleasure-16BIT-WEB-FLAC-2022-VEXED
2023-12-12 05:41:28 FLAC-WEB Whispered_Truth-Completely_Broken-16BIT-WEB-FLAC-2023-VEXED
2023-12-12 05:41:58 XXX-HD ATKGirlfriends.23.12.12.Compilation.XXX.2160p.MP4-WRB
2023-12-12 05:42:00 FLAC-WEB Whispered_Truth-Whispered_Truth-16BIT-WEB-FLAC-2022-VEXED
2023-12-12 05:42:32 FLAC-WEB Who_Decides-Winter_Promo_23-16BIT-WEB-FLAC-2023-VEXED
2023-12-12 05:43:03 FLAC-WEB Wimp-Where_The_Flowers_Bloom-16BIT-WEB-FLAC-2023-VEXED
2023-12-12 05:43:20 XXX-HD SexMex.23.12.12.Maryam.Hot.Step-Moms.New.Drills.Part.2.XXX.1080p.MP4-WRB
2023-12-12 05:43:35 FLAC-WEB Wither-Plagued_By_Pessimism-16BIT-WEB-FLAC-2023-VEXED
2023-12-12 05:44:06 FLAC-WEB Words_Of_Intent-WOI_Demo_2023-16BIT-WEB-FLAC-2023-VEXED
2023-12-12 05:44:37 FLAC-WEB Worst_Self-2020_Demo-16BIT-WEB-FLAC-2020-VEXED
2023-12-12 05:45:09 FLAC-WEB Worst_Self-Everyone_Is_Replaceable-16BIT-WEB-FLAC-2019-VEXED
2023-12-12 05:45:36 XXX-HD SexMex.23.12.12.Maryam.Hot.Step-Moms.New.Drills.Part.2.XXX.2160p.MP4-WRB
2023-12-12 05:45:40 FLAC-WEB Worst_Self-III-16BIT-WEB-FLAC-2022-VEXED
2023-12-12 05:46:11 FLAC-WEB Worst_Self-Liars-16BIT-WEB-FLAC-2017-VEXED
2023-12-12 05:46:43 FLAC-WEB Worst_Self-Servant_Of_Death-Single-16BIT-WEB-FLAC-2021-VEXED
2023-12-12 05:47:14 FLAC-WEB Xibalba-Aztlan-16BIT-WEB-FLAC-2023-VEXED
2023-12-12 05:52:42 TV-HD-X264 Tatort.E0164.German.FS.1080p.BluRay.x264-PL3X
2023-12-12 05:54:46 TV-HD-X264 Tatort.E0164.German.FS.720p.BluRay.x264-PL3X
2023-12-12 05:55:58 TV-X264 Tatort.E0164.German.FS.REMASTERED.BDRiP.x264-PL3X
2023-12-12 05:58:24 TV-HD-X264 Tatort.E0167.German.FS.1080p.BluRay.x264-PL3X
2023-12-12 06:01:17 TV-WEB-HD-X264 A.Murder.at.the.End.of.the.World.S01E06.1080p.WEB.H264-SuccessfulCrab
2023-12-12 06:01:44 TV-WEB-HD-X265 A.Murder.at.the.End.of.the.World.S01E06.2160p.WEB.H265-SuccessfulCrab
2023-12-12 06:07:09 XXX-HD PureTaboo.23.12.12.Demi.Hawks.XXX.1080p.MP4-WRB
2023-12-12 06:10:02 XXX-HD PureTaboo.23.12.12.Demi.Hawks.XXX.2160p.MP4-WRB
2023-12-12 06:15:46 XXX-HD SpankMonster.23.12.06.Athena.Heart.XXX.1080p.MP4-NBQ
2023-12-12 06:17:50 XXX-HD SpankMonster.23.12.06.Athena.Heart.XXX.2160p.MP4-NBQ
2023-12-12 06:19:52 XXX-HD Blacked.23.12.09.Queenie.Sateen.XXX.1080p.MP4-NBQ
2023-12-12 06:21:55 XXX-HD DirtyAuditions.23.12.10.Skyler.Storm.XXX.1080p.MP4-NBQ
2023-12-12 06:23:41 MP3-WEB Heller_-_AMA-WEB-IT-2023-UOVA
2023-12-12 06:23:57 XXX-HD CuckHunter.23.12.11.Roxie.Sinner.XXX.1080p.MP4-NBQ
2023-12-12 06:25:54 MP3-WEB Little_Boys_-_Ricordati_Che_Devi_Morire-WEB-IT-2023-UOVA
2023-12-12 06:26:00 XXX-HD CuckHunter.23.12.11.Roxie.Sinner.XXX.2160p.MP4-NBQ
2023-12-12 06:28:04 XXX-HD InTheCrack.E1873.Baby.Nicols.Tuscany.XXX.1080p.MP4-NBQ
2023-12-12 06:28:29 MP3-WEB Monica_Sarnelli_-_E_Nata_Manera-WEB-IT-2023-UOVA
2023-12-12 06:30:07 XXX-HD InTheCrack.E1873.Baby.Nicols.Tuscany.XXX.2160p.MP4-NBQ
2023-12-12 06:30:33 MP3-WEB Postino_-_L_Ordine_Delle_Cose_Da_Dire-WEB-IT-2023-UOVA
2023-12-12 06:32:09 XXX-HD CathysCraving.22.04.25.Scene.814.New.Toys.XXX.1080p.MP4-NBQ
2023-12-12 06:32:16 TV-X264 800.Words.S02E10.iNTERNAL.BDRip.x264-PEGASUS
2023-12-12 06:32:25 TV-HD-X264 800.Words.S02E10.720p.BluRay.x264-PEGASUS
2023-12-12 06:34:03 TV-HD-X264 800.Words.S02E10.1080p.BluRay.x264-PEGASUS
2023-12-12 06:34:12 XXX-HD CathysCraving.22.04.25.Scene.814.New.Toys.XXX.2160p.MP4-NBQ
2023-12-12 06:38:47 TV-WEB-HD-X264 Jeopardy.Julspecial.2023.S01E02.SWEDiSH.720p.WEB.h264-OLLONBORRE
2023-12-12 06:39:04 TV-WEB-HD-X264 Jeopardy.Julspecial.2023.S01E02.SWEDiSH.1080p.WEB.h264-OLLONBORRE
2023-12-12 06:44:00 XXX-HD BangPOV.23.12.12.Laya.Rae.XXX.1080p.MP4-WRB
2023-12-12 06:47:06 XXX-HD BangPOV.23.12.12.Laya.Rae.XXX.2160p.MP4-WRB
2023-12-12 06:51:02 XXX-HD TeenFidelity.E601.Vera.Jarw.XXX.1080p.MP4-WRB
2023-12-12 06:54:41 XXX-HD LoneMilf.23.12.12.Pristine.Edge.Birthday.Dildo.XXX.1080p.MP4-WRB
2023-12-12 06:55:07 TV-HD-X264 Pamela.Rose.La.Serie.S01E07.FRENCH.1080p.UHDTV.x264-S4LVE
2023-12-12 06:55:32 TV-HD-X264 Pamela.Rose.La.Serie.S01E08.FRENCH.1080p.UHDTV.x264-S4LVE
2023-12-12 06:55:46 XXX-HD Stunning18.23.11.03.Shanty.A.And.Angel.Rai.Lesbian.Games.XXX.1080p.MP4-WRB
2023-12-12 06:56:56 XXX-HD Stunning18.23.11.07.Lana.Rose.Large.White.Bedroom.XXX.1080p.MP4-WRB
2023-12-12 06:58:42 XXX-HD Stunning18.23.11.07.Lana.Rose.Large.White.Bedroom.XXX.2160p.MP4-WRB
2023-12-12 06:59:20 EBOOK Aaralynn.Karman.-.Meeting.Twilight.The.Great.Diviner.1.2023.RETAIL.EPUB.eBook-CTO
2023-12-12 06:59:42 EBOOK Abraham.Verghese.-.The.Tennis.Partner.A.Doctors.Story.Of.Friendship.And.Loss.2023.RETAIL.EPUB.eBook-CTO
2023-12-12 06:59:48 XXX-HD Stunning18.23.11.08.Sirena.Milano.Outcrop.In.The.Forest.XXX.1080p.MP4-WRB
2023-12-12 07:00:02 EBOOK Alan.Dershowitz.-.War.Against.The.Jews.How.To.End.Hamas.Barbarism.2023.RETAIL.EPUB.eBook-CTO
2023-12-12 07:00:24 EBOOK Annelise.Ryan.-.Death.In.The.Dark.Woods.A.Monster.Hunter.Mystery.2.2023.RETAIL.EPUB.eBook-CTO
2023-12-12 07:00:44 EBOOK Ariana.Godoy.-.Through.The.Rain.The.Hidalgo.Brothers.3.2023.RETAIL.EPUB.eBook-CTO
2023-12-12 07:01:06 EBOOK Brian.Wasson.-.Seven.Minutes.In.Candyland.2023.RETAIL.EPUB.eBook-CTO
2023-12-12 07:01:18 TV-WEB-X265 Chair.De.Poule.S01E01.FRENCH.WEB.H265-a123
2023-12-12 07:01:28 EBOOK Cara.Hunter.-.No.Way.Out.A.Novel.2023.RETAIL.EPUB.eBook-CTO
2023-12-12 07:01:39 TV-WEB-X265 Chair.De.Poule.S01E02.FRENCH.WEB.H265-a123
2023-12-12 07:01:43 TV-WEB-X265 Chair.De.Poule.S01E03.FRENCH.WEB.H265-a123
2023-12-12 07:01:44 XXX-HD Stunning18.23.11.08.Sirena.Milano.Outcrop.In.The.Forest.XXX.2160p.MP4-WRB
2023-12-12 07:01:49 EBOOK E.B.Vickers.-.Where.Theres.Smoke.2023.RETAIL.EPUB.eBook-CTO
2023-12-12 07:01:51 TV-WEB-X265 Chair.De.Poule.S01E04.FRENCH.WEB.H265-a123
2023-12-12 07:01:57 TV-WEB-X265 Chair.De.Poule.S01E05.FRENCH.WEB.H265-a123
2023-12-12 07:02:11 EBOOK Eli.Rallo.-.I.Didnt.Know.I.Needed.This.The.New.Rules.For.Flirting.Feeling.And.Finding.Yourself.2023.RETAIL.EPUB.eBook-CTO
2023-12-12 07:02:32 EBOOK Julie.Abe.-.Our.Cursed.Love.2023.RETAIL.EPUB.eBook-CTO
2023-12-12 07:02:53 EBOOK Keigo.Higashino.-.The.Final.Curtain.A.Mystery.2023.RETAIL.EPUB.eBook-CTO
2023-12-12 07:03:14 EBOOK Melinda.Salisbury.-.Her.Dark.Wings.2023.RETAIL.EPUB.eBook-CTO
2023-12-12 07:03:28 TV-WEB-X265 Chair.De.Poule.S01E06.FRENCH.WEB.H265-a123
2023-12-12 07:03:32 TV-WEB-X265 Chair.De.Poule.S01E07.FRENCH.WEB.H265-a123
2023-12-12 07:03:36 EBOOK Siamak.Herawi.-.Tali.Girls.A.Novel.Of.Afghanistan.2023.RETAIL.EPUB.eBook-CTO
2023-12-12 07:03:38 TV-WEB-X265 Chair.De.Poule.S01E08.FRENCH.WEB.H265-a123
2023-12-12 07:03:38 SPORTS NHL.2023.12.11.Arizona.Coyotes.Vs.Buffalo.Sabres.720p.WEB.H264-GAMETiME
2023-12-12 07:03:43 TV-WEB-X265 Chair.De.Poule.S01E09.FRENCH.WEB.H265-a123
2023-12-12 07:03:58 EBOOK T.R.Napper.-.Aliens.Bishop.2023.RETAIL.EPUB.eBook-CTO
2023-12-12 07:04:13 GAMES HunterX.code.name.T-TENOKE
2023-12-12 07:04:33 XXX-HD NebraskaCoeds.23.12.12.Ellah.XXX.1080p.MP4-WRB
2023-12-12 07:06:12 TV-WEB-X265 Chair.De.Poule.S01E10.FiNAL.FRENCH.WEB.H265-a123
2023-12-12 07:07:39 TV-WEB-HD-X264 Deadloch.S01E08.iTALiAN.720p.WEB.H264-NTROPiC
2023-12-12 07:08:51 SPORTS NHL.2023.12.11.Calgary.Flames.Vs.Colorado.Avalanche.720p.WEB.H264-GAMETiME
2023-12-12 07:09:28 XXX-HD DadCrush.23.12.12.Sunny.Soleil.Unwrap.Me.For.Christmas.XXX.1080p.MP4-WRB
2023-12-12 07:10:39 XXX-HD SugarDaddyPORN.23.11.11.Chloe.Temple.XXX.1080p.MP4-WRB
2023-12-12 07:11:51 EBOOK Il.Corriere.Della.Sera.12.12.2023.iTALiAN.RETAiL.eBook-DiVER
2023-12-12 07:12:44 XXX-HD TeenyTaboo.23.11.12.Amber.Angel.XXX.1080p.MP4-WRB
2023-12-12 07:12:54 TV-WEB-HD-X264 Deadloch.S01E03.iTALiAN.720p.WEB.H264-NTROPiC
2023-12-12 07:14:03 SPORTS NHL.2023.12.11.Detroit.Red.Wings.Vs.Dallas.Stars.720p.WEB.H264-GAMETiME
2023-12-12 07:15:17 XXX-HD TeenyTaboo.23.11.22.Reyna.Belle.XXX.1080p.MP4-WRB
2023-12-12 07:17:28 XXX-HD TeenyTaboo.23.12.02.Kitty.Deville.XXX.1080p.MP4-WRB
2023-12-12 07:17:56 TV-WEB-HD-X264 24-Stjerners.Julekalender.S02E12.NORWEGiAN.1080p.WEB.h264-BAKFYLLA
2023-12-12 07:18:12 TV-WEB-HD-X264 Deadloch.S01E01.iTALiAN.720p.WEB.H264-NTROPiC
2023-12-12 07:18:33 TV-WEB-HD-X264 24-Stjerners.Julekalender.S02E12.NORWEGiAN.720p.WEB.h264-BAKFYLLA
2023-12-12 07:19:15 SPORTS NHL.2023.12.11.Toronto.Maple.Leafs.Vs.New.York.Islanders.720p.WEB.H264-GAMETiME
2023-12-12 07:19:16 XXX-HD ThaiGirlsWild.23.11.27.Atipon.XXX.1080p.MP4-WRB
2023-12-12 07:20:50 XXX-HD TheLoft.23.12.12.Zazie.Skymm.And.Candee.Licious.Messy.Yet.Classy.XXX.1080p.MP4-WRB
2023-12-12 07:22:17 XXX-HD WetAndPissy.23.12.12.Miss.Olivia.XXX.1080p.MP4-WRB
2023-12-12 07:23:30 TV-WEB-HD-X264 Deadloch.S01E04.iTALiAN.720p.WEB.H264-NTROPiC
2023-12-12 07:24:58 XXX-HD WetAndPissy.23.12.12.Miss.Olivia.XXX.2160p.MP4-WRB
2023-12-12 07:25:27 TV-WEB-HD-X264 Deadloch.S01E07.iTALiAN.720p.WEB.H264-NTROPiC
2023-12-12 07:26:55 XXX-HD VIPissy.23.12.12.Sweet.Angelina.XXX.1080p.MP4-WRB
2023-12-12 07:27:10 TV-WEB-HD-X264 Deadloch.S01E06.iTALiAN.720p.WEB.H264-NTROPiC
2023-12-12 07:28:34 TV-WEB-HD-X264 Kongen.Befaler.Julespesial.S02E01.NORWEGiAN.1080p.WEB.h264-BAKFYLLA
2023-12-12 07:29:26 TV-WEB-HD-X264 Kongen.Befaler.Julespesial.S02E01.NORWEGiAN.720p.WEB.h264-BAKFYLLA
2023-12-12 07:30:51 XXX-HD VIPissy.23.12.12.Sweet.Angelina.XXX.2160p.MP4-WRB
2023-12-12 07:32:31 TV-WEB-HD-X264 Deadloch.S01E05.iTALiAN.720p.WEB.H264-NTROPiC
2023-12-12 07:32:32 TV-WEB-HD-X264 Kiekko.Espoo.Taivas.Ja.Helvetti.S01E04.FiNNiSH.1080p.WEB.H264-TOOSA
2023-12-12 07:34:18 TV-WEB-HD-X264 Deadloch.S01E02.iTALiAN.720p.WEB.H264-NTROPiC
2023-12-12 07:38:10 XXX-HD SheSeducedMe.23.11.06.Jill.Kassidy.And.Kenna.James.XXX.1080p.MP4-WRB
2023-12-12 07:39:03 TV-WEB-HD-X264 Los.Farad.S01E01.GERMAN.DL.1080P.WEB.H264-WAYNE
2023-12-12 07:39:08 TV-WEB-HD-X264 Los.Farad.S01E01.GERMAN.DL.720P.WEB.H264-WAYNE
2023-12-12 07:39:12 TV-WEB-HD-X265 Los.Farad.S01E01.GERMAN.DL.2160P.WEB.H265-RiLE
2023-12-12 07:39:21 TV-WEB-HD-X265 Los.Farad.S01E01.GERMAN.DL.HDR.2160P.WEB.H265-RiLE
2023-12-12 07:40:21 XXX-HD SheSeducedMe.23.11.13.Alex.Coal.And.Kenna.James.XXX.1080p.MP4-WRB
2023-12-12 07:42:42 XXX-HD SheSeducedMe.23.11.20.Aidra.Fox.And.Cherie.Deville.XXX.1080p.MP4-WRB
2023-12-12 07:44:08 TV-WEB-HD-X264 Deadloch.S01E03.iTALiAN.1080p.WEB.H264-NTROPiC
2023-12-12 07:44:53 XXX-HD SheSeducedMe.23.11.27.Brenna.Mckenna.Jennie.Rose.Leah.Gotti.And.London.Laurant.XXX.1080p.MP4-WRB
2023-12-12 07:46:55 EBOOK La.Gazzetta.Dello.Sport.12.12.2023.iTALiAN.RETAiL.eBook-DiVER
2023-12-12 07:49:26 TV-WEB-HD-X264 Deadloch.S01E05.iTALiAN.1080p.WEB.H264-NTROPiC
2023-12-12 07:51:23 TV-WEB-HD-X264 Los.Farad.S01E02.GERMAN.DL.1080P.WEB.H264-WAYNE
2023-12-12 07:51:58 TV-WEB-HD-X264 Deadloch.S01E01.iTALiAN.1080p.WEB.H264-NTROPiC
2023-12-12 07:52:06 TV-WEB-HD-X264 Los.Farad.S01E02.GERMAN.DL.720P.WEB.H264-WAYNE
2023-12-12 07:52:50 TV-WEB-HD-X264 Los.Farad.S01E03.GERMAN.DL.1080P.WEB.H264-WAYNE
2023-12-12 07:53:12 EBOOK Future.Music.No.404.2024.HYBRID.MAGAZINE.eBook-21A1
2023-12-12 07:53:34 EBOOK Guitar.Player.No.01.2024.HYBRID.MAGAZINE.eBook-21A1
2023-12-12 07:53:35 TV-WEB-HD-X264 Los.Farad.S01E03.GERMAN.DL.720P.WEB.H264-WAYNE
2023-12-12 07:53:56 EBOOK Knives.Illustrated.January-February.2024.HYBRID.MAGAZINE.eBook-21A1
2023-12-12 07:54:18 EBOOK Linux.Format.No.310.2024.HYBRID.MAGAZINE.eBook-21A1
2023-12-12 07:54:19 TV-WEB-HD-X264 Los.Farad.S01E04.GERMAN.DL.1080P.WEB.H264-WAYNE
2023-12-12 07:54:41 EBOOK MOJO.No.363.2024.HYBRID.MAGAZINE.eBook-21A1
2023-12-12 07:55:02 EBOOK PLAY.Magazine.UK.No.35.2024.HYBRID.MAGAZINE.eBook-21A1
2023-12-12 07:55:03 TV-WEB-HD-X264 Los.Farad.S01E04.GERMAN.DL.720P.WEB.H264-WAYNE
2023-12-12 07:55:28 EBOOK REVOLVER.No.166.2023.HYBRID.MAGAZINE.eBook-21A1
2023-12-12 07:55:47 TV-WEB-HD-X264 Los.Farad.S01E05.GERMAN.DL.1080P.WEB.H264-WAYNE
2023-12-12 07:55:51 EBOOK Radio.Control.Car.Action.No.01.2024.HYBRID.MAGAZINE.eBook-21A1
2023-12-12 07:55:55 XXX-HD POVPerv.23.10.12.Victoria.Nyx.XXX.1080p.MP4-WRB
2023-12-12 07:56:33 TV-WEB-HD-X264 Los.Farad.S01E05.GERMAN.DL.720P.WEB.H264-WAYNE
2023-12-12 07:57:02 X264 The.Killer.1989.REMASTERED.REPACK.BDRIP.X264-WATCHABLE
2023-12-12 07:57:15 TV-WEB-HD-X264 Los.Farad.S01E06.GERMAN.DL.1080P.WEB.H264-WAYNE
2023-12-12 07:57:20 TV-WEB-HD-X264 Deadloch.S01E07.iTALiAN.1080p.WEB.H264-NTROPiC
2023-12-12 07:57:23 XXX-HD POVPerv.23.10.26.Talia.Palmer.XXX.1080p.MP4-WRB
2023-12-12 07:58:00 TV-WEB-HD-X264 Los.Farad.S01E06.GERMAN.DL.720P.WEB.H264-WAYNE
2023-12-12 07:58:43 TV-WEB-HD-X264 Los.Farad.S01E07.GERMAN.DL.1080P.WEB.H264-WAYNE
2023-12-12 07:59:01 XXX-HD ProducersFun.23.11.06.Siri.Dahl.A.Fucking.Conversation.XXX.1080p.MP4-WRB
2023-12-12 07:59:27 TV-WEB-HD-X264 Los.Farad.S01E07.GERMAN.DL.720P.WEB.H264-WAYNE
2023-12-12 08:00:14 TV-WEB-HD-X264 Los.Farad.S01E08.GERMAN.DL.1080P.WEB.H264-WAYNE
2023-12-12 08:00:39 XXX-HD POVPerv.23.11.09.Betzz.XXX.1080p.MP4-WRB
2023-12-12 08:00:58 TV-WEB-HD-X264 Los.Farad.S01E08.GERMAN.DL.720P.WEB.H264-WAYNE
2023-12-12 08:02:20 XXX-HD ProducersFun.23.11.10.Bella.Blu.XXX.1080p.MP4-WRB
2023-12-12 08:02:23 X264 The.Killer.1989.ALTERNATIVE.CUT.SUBBED.DIRFIX.BDRIP.X264-WATCHABLE
2023-12-12 08:02:38 TV-WEB-HD-X264 Deadloch.S01E02.iTALiAN.1080p.WEB.H264-NTROPiC
2023-12-12 08:02:52 X264-HD The.Killer.1989.ALTERNATIVE.CUT.SUBBED.DIRFIX.720P.BLURAY.X264-WATCHABLE
2023-12-12 08:03:03 X264-HD The.Killer.1989.ALTERNATIVE.CUT.SUBBED.DIRFIX.1080P.BLURAY.X264-WATCHABLE
2023-12-12 08:05:02 TV-WEB-HD-X264 Deadloch.S01E04.iTALiAN.1080p.WEB.H264-NTROPiC
2023-12-12 08:05:43 XXX-HD PurgatoryX.23.11.10.Jill.Kassidy.XXX.1080p.MP4-WRB
2023-12-12 08:07:15 XXX-HD RealGirlsGoneBad.23.11.11.Pool.Party.7.XXX.1080p.MP4-WRB
2023-12-12 08:07:30 TV-WEB-HD-X264 Deadloch.S01E06.iTALiAN.1080p.WEB.H264-NTROPiC
2023-12-12 08:10:10 TV-WEB-HD-X264 Deadloch.S01E08.iTALiAN.1080p.WEB.H264-NTROPiC
2023-12-12 08:11:16 TV-WEB-HD-X265 Los.Farad.S01E02.GERMAN.DL.2160P.WEB.H265-RiLE
2023-12-12 08:11:59 TV-WEB-HD-X265 Los.Farad.S01E02.GERMAN.DL.HDR.2160P.WEB.H265-RiLE
2023-12-12 08:12:44 TV-WEB-HD-X265 Los.Farad.S01E03.GERMAN.DL.2160P.WEB.H265-RiLE
2023-12-12 08:13:28 TV-WEB-HD-X265 Los.Farad.S01E03.GERMAN.DL.HDR.2160P.WEB.H265-RiLE
2023-12-12 08:14:12 TV-WEB-HD-X265 Los.Farad.S01E04.GERMAN.DL.2160P.WEB.H265-RiLE
2023-12-12 08:14:45 XXX-HD CzechStreets.E149.Mammoths.Are.Not.Extinct.Yet.XXX.1080p.MP4-WRB
2023-12-12 08:14:56 TV-WEB-HD-X265 Los.Farad.S01E04.GERMAN.DL.HDR.2160P.WEB.H265-RiLE
2023-12-12 08:15:40 TV-WEB-HD-X265 Los.Farad.S01E05.GERMAN.DL.2160P.WEB.H265-RiLE
2023-12-12 08:16:24 TV-WEB-HD-X265 Los.Farad.S01E05.GERMAN.DL.HDR.2160P.WEB.H265-RiLE
2023-12-12 08:16:51 XXX-HD CzechStreets.E149.Mammoths.Are.Not.Extinct.Yet.XXX.2160p.MP4-WRB
2023-12-12 08:17:09 TV-WEB-HD-X265 Los.Farad.S01E06.GERMAN.DL.2160P.WEB.H265-RiLE
2023-12-12 08:17:55 TV-WEB-HD-X265 Los.Farad.S01E06.GERMAN.DL.HDR.2160P.WEB.H265-RiLE
2023-12-12 08:18:17 TV-WEB-HD-X264 Over.Atlanten.Guldkorn.E04.SWEDiSH.1080p.WEB.h264-NORUSH
2023-12-12 08:18:23 TV-WEB-HD-X264 Over.Atlanten.Guldkorn.E04.SWEDiSH.720p.WEB.h264-NORUSH
2023-12-12 08:18:37 TV-WEB-HD-X265 Los.Farad.S01E07.GERMAN.DL.2160P.WEB.H265-RiLE
2023-12-12 08:18:49 TV-WEB-HD-X264 Alla.Mot.Alla.Med.Filip.Och.Fredrik.S10E57.SWEDiSH.1080p.WEB.h264-NORUSH
2023-12-12 08:18:55 TV-WEB-HD-X264 Alla.Mot.Alla.Med.Filip.Och.Fredrik.S10E58.SWEDiSH.1080p.WEB.h264-NORUSH
2023-12-12 08:19:03 TV-WEB-HD-X264 Alla.Mot.Alla.Med.Filip.Och.Fredrik.S10E58.SWEDiSH.720p.WEB.h264-NORUSH
2023-12-12 08:19:09 TV-WEB-HD-X264 Alla.Mot.Alla.Med.Filip.Och.Fredrik.S10E57.SWEDiSH.720p.WEB.h264-NORUSH
2023-12-12 08:19:14 XXX-HD FamilySwap.23.12.12.Anya.Olsen.And.Xxlayna.Marie.Youll.Shoot.Your.Eye.Out.XXX.1080p.MP4-WRB
2023-12-12 08:19:21 TV-WEB-HD-X265 Los.Farad.S01E07.GERMAN.DL.HDR.2160P.WEB.H265-RiLE
2023-12-12 08:20:05 TV-WEB-HD-X265 Los.Farad.S01E08.GERMAN.DL.2160P.WEB.H265-RiLE
2023-12-12 08:20:51 TV-WEB-HD-X265 Los.Farad.S01E08.GERMAN.DL.HDR.2160P.WEB.H265-RiLE
2023-12-12 08:23:12 XXX-HD FamilySwap.23.12.12.Anya.Olsen.And.Xxlayna.Marie.Youll.Shoot.Your.Eye.Out.XXX.2160p.MP4-WRB
2023-12-12 08:23:31 BLURAY The.Prophecy.II.1998.The.Prophecy.3.The.Ascent.2000.COMPLETE.UHD.BLURAY-FULLBRUTALiTY
2023-12-12 08:24:23 TV-WEB-HD-X265 Deadloch.S01E01.iTALiAN.HDR.2160p.WEB.H265-NTROPiC
2023-12-12 08:25:36 XXX-HD NFBusty.23.12.12.Hailey.Rose.And.Octavia.Red.Christmas.Party.Passion.XXX.1080p.MP4-WRB
2023-12-12 08:28:46 XXX-HD NFBusty.23.12.12.Hailey.Rose.And.Octavia.Red.Christmas.Party.Passion.XXX.2160p.MP4-WRB
2023-12-12 08:30:27 X264-HD El.Exorcista.Creyentes.2023.LATiN.SPANiSH.MULTi.1080p.BluRay.x264-CEBRAY
2023-12-12 08:32:25 XXX-HD Nubiles.23.12.12.Kallie.Taylor.Blonde.Beauty.XXX.1080p.MP4-WRB
2023-12-12 08:32:41 TV-WEB-HD-X264 Korkeasaari.S02E06.FiNNiSH.1080p.WEB.H264-NETTiTV
2023-12-12 08:33:33 XXX-HD Nubiles.23.12.12.Kallie.Taylor.Blonde.Beauty.XXX.2160p.MP4-WRB
2023-12-12 08:34:37 XXX-HD Nubiles.23.12.12.Jade.Maris.My.Gift.To.You.XXX.1080p.MP4-WRB
2023-12-12 08:34:54 TV-WEB-HD-X264 Korkeasaari.S02E06.FiNNiSH.720p.WEB.H264-NETTiTV
2023-12-12 08:35:10 X264-HD El.Exorcista.Creyentes.2023.LATiN.SPANiSH.720p.BluRay.x264-CEBRAY
2023-12-12 08:36:25 XXX-HD Nubiles.23.12.12.Jade.Maris.My.Gift.To.You.XXX.2160p.MP4-WRB
2023-12-12 08:37:35 XXX-HD Anilos.23.12.12.Sasha.Sky.What.A.View.XXX.1080p.MP4-WRB
2023-12-12 08:38:40 TV-WEB-HD-X265 Deadloch.S01E04.iTALiAN.HDR.2160p.WEB.H265-NTROPiC
2023-12-12 08:39:04 X264 El.Exorcista.Creyentes.2023.LATiN.SPANiSH.BDRip.x264-CEBRAY
2023-12-12 08:39:21 XXX-HD Anilos.23.12.12.Sasha.Sky.What.A.View.XXX.2160p.MP4-WRB
2023-12-12 08:40:59 XXX-HD Nubiles.23.12.12.Eva.Verde.Pretty.Pussy.XXX.1080p.MP4-WRB
2023-12-12 08:44:03 XXX-HD Nubiles.23.12.12.Eva.Verde.Pretty.Pussy.XXX.2160p.MP4-WRB
2023-12-12 08:46:10 TV-WEB-HD-X265 Deadloch.S01E03.iTALiAN.HDR.2160p.WEB.H265-NTROPiC
2023-12-12 08:46:13 MP3-WEB Abject_Mentor-Abominaciones-WEB-ES-2023-ENTiTLED
2023-12-12 08:46:46 MP3-WEB Frenemy_Society-Ars_Vivendi-EP-WEB-2023-ENTiTLED
2023-12-12 08:47:07 MP3-WEB Truth_Grip-Reality_Curse-EP-WEB-2023-ENRiCH
2023-12-12 08:47:18 MP3-WEB Manilla_Road-Spiral_Castle_(Ultimate_Edition)-WEB-2023-ENTiTLED
2023-12-12 08:50:44 XXX-HD ArchAngel.23.11.10.Gal.Ritchie.XXX.1080p.MP4-WRB
2023-12-12 08:51:26 TV-WEB-HD-X265 Deadloch.S01E08.iTALiAN.HDR.2160p.WEB.H265-NTROPiC
2023-12-12 08:52:55 MP3-WEB Imparity-Tales_of_Rust_and_Bones-WEB-2023-ENTiTLED
2023-12-12 08:53:29 MP3-WEB Skull_Servant-Traditional_Black_Magicks-WEB-2022-ENTiTLED
2023-12-12 08:53:37 XXX-HD ArchAngel.23.11.10.Gal.Ritchie.XXX.2160p.MP4-WRB
2023-12-12 08:54:05 MP3-WEB Skull_Servant-Traditional_Black_Magicks_II-WEB-2023-ENTiTLED
2023-12-12 08:55:26 XXX-HD ArchAngel.23.11.24.Chloe.Rose.XXX.1080p.MP4-WRB
2023-12-12 08:55:50 TV-WEB-HD-X265 Deadloch.S01E07.iTALiAN.HDR.2160p.WEB.H265-NTROPiC
2023-12-12 08:58:38 XXX-HD ArchAngel.23.11.24.Chloe.Rose.XXX.2160p.MP4-WRB
2023-12-12 09:00:16 TV-WEB-X265 Los.Farad.S01E01.FRENCH.WEB.H265-b67
2023-12-12 09:00:47 TV-WEB-X265 Los.Farad.S01E02.FRENCH.WEB.H265-b67
2023-12-12 09:00:51 TV-WEB-X265 Los.Farad.S01E03.FRENCH.WEB.H265-b67
2023-12-12 09:00:53 X264-HD Kevin.Hart.and.Chris.Rock.Headliners.Only.2023.1080p.WEB.h264-EDITH
2023-12-12 09:00:54 DOCU Unter.Druck.Das.US-Team.fuer.die.Fussball-WM.der.Frauen.S01E01.GERMAN.DL.DOKU.1080p.WEB.h264-HAXE
2023-12-12 09:00:56 DOCU Unter.Druck.Das.US-Team.fuer.die.Fussball-WM.der.Frauen.S01E01.GERMAN.DL.DOKU.720p.WEB.h264-HAXE
2023-12-12 09:01:00 TV-WEB-X265 Los.Farad.S01E04.FRENCH.WEB.H265-b67
2023-12-12 09:01:07 TV-WEB-X265 Los.Farad.S01E05.FRENCH.WEB.H265-b67
2023-12-12 09:01:10 TV-WEB-HD-X265 Deadloch.S01E06.iTALiAN.HDR.2160p.WEB.H265-NTROPiC
2023-12-12 09:01:13 TV-WEB-HD-X264 Under.Pressure.The.U.S.Womens.World.Cup.Team.S01E01.1080p.WEB.h264-EDITH
2023-12-12 09:01:14 TV-WEB-X265 Los.Farad.S01E06.FRENCH.WEB.H265-b67
2023-12-12 09:01:20 TV-WEB-X265 Los.Farad.S01E07.FRENCH.WEB.H265-b67
2023-12-12 09:01:32 TV-WEB-X265 Los.Farad.S01E08.FiNAL.FRENCH.WEB.H265-b67
2023-12-12 09:01:51 TV-WEB-HD-X264 Under.Pressure.The.U.S.Womens.World.Cup.Team.S01E02.1080p.WEB.h264-EDITH
2023-12-12 09:02:31 TV-WEB-HD-X264 Under.Pressure.The.U.S.Womens.World.Cup.Team.S01E03.1080p.WEB.h264-EDITH
2023-12-12 09:03:11 TV-WEB-HD-X264 Under.Pressure.The.U.S.Womens.World.Cup.Team.S01E04.1080p.WEB.h264-EDITH
2023-12-12 09:04:04 TV-WEB-HD-X264 30.Coins.S02E08.1080p.WEB.h264-EDITH
2023-12-12 09:04:06 TV-WEB-HD-X264 30.Coins.S02E08.720p.WEB.h264-EDITH
2023-12-12 09:04:44 TV-WEB-HD-X264 Singles.Inferno.S03E01.1080p.WEB.h264-EDITH
2023-12-12 09:05:07 TV-WEB-HD-X264 Singles.Inferno.S03E02.1080p.WEB.h264-EDITH
2023-12-12 09:05:08 TV-WEB-HD-X264 Julens.Alla.Bak.S03E01.SWEDiSH.1080p.WEB.h264-NORUSH
2023-12-12 09:05:15 TV-WEB-HD-X264 Julens.Alla.Bak.S03E01.SWEDiSH.720p.WEB.h264-NORUSH
2023-12-12 09:05:41 TV-WEB-HD-X264 A.Murder.at.the.End.of.the.World.S01E06.FRENCH.720p.WEB.H264-HiggsBoson
2023-12-12 09:05:51 XXX-HD DirtyWivesClub.23.12.12.Venus.Valencia.XXX.1080p.MP4-WRB
2023-12-12 09:06:04 TV-WEB-HD-X264 The.Boulet.Brothers.Dragula.S05E07.720p.WEB.h264-EDITH
2023-12-12 09:06:05 TV-WEB-HD-X264 The.Boulet.Brothers.Dragula.S05E07.1080p.WEB.h264-EDITH
2023-12-12 09:06:19 TV-WEB-HD-X264 Singles.Inferno.S03E03.1080p.WEB.h264-EDITH
2023-12-12 09:07:15 MP3-WEB SickMinded_Criminals-The_New_Breed-WEB-2018-RAGEMP3
2023-12-12 09:07:27 MP3-WEB SickMinded_Criminals-The_World_Is_A_Ghetto-WEB-2019-RAGEMP3
2023-12-12 09:08:15 MP3-WEB Smiley_And_SickMinded_Criminals-Smiley_Presents_Rise_Of_The_Valley_Vol._2-WEB-2019-RAGEMP3
2023-12-12 09:08:42 MP3-WEB SickMinded_Criminals-SickMinded_Muzik-WEB-2019-RAGEMP3
2023-12-12 09:09:13 TV-WEB-X264 A.Murder.at.the.End.of.the.World.S01E06.FRENCH.WEB.H264-HiggsBoson
2023-12-12 09:09:27 MP3-WEB SickMinded_Criminals-We_Aint_Going_Nowhere-WEB-2020-RAGEMP3
2023-12-12 09:09:53 MP3-WEB The_Hood_Affiliates-ChowTown_Ghettos-WEB-2020-RAGEMP3
2023-12-12 09:09:56 TV-WEB-HD-X265 Deadloch.S01E02.iTALiAN.HDR.2160p.WEB.H265-NTROPiC
2023-12-12 09:09:59 XXX-HD DirtyWivesClub.23.12.12.Venus.Valencia.XXX.2160p.MP4-WRB
2023-12-12 09:10:21 TV-WEB-HD-X264 A.Murder.at.the.End.of.the.World.S01E06.720p.WEB.h264-EDITH
2023-12-12 09:10:25 TV-WEB-HD-X265 Los.Farad.S01E01.FRENCH.720p.WEB.H265-p98
2023-12-12 09:10:28 TV-WEB-HD-X265 Los.Farad.S01E02.FRENCH.720p.WEB.H265-p98
2023-12-12 09:10:51 MP3-WEB DohBoi_of_SickMinded_Criminals-La_Vina_Child-WEB-2021-RAGEMP3
2023-12-12 09:11:03 MP3-WEB East_Made_Goons-East_Made_Goons-WEB-2021-RAGEMP3
2023-12-12 09:11:19 TV-WEB-HD-X265 Deadloch.S01E05.iTALiAN.HDR.2160p.WEB.H265-NTROPiC
2023-12-12 09:11:19 MP3-WEB SickMinded_Criminals-Hood_Music-WEB-2021-RAGEMP3
2023-12-12 09:12:11 MP3-WEB SickMinded_Criminals-The_Rise_Of_The_Valley_Vol._3-WEB-2022-RAGEMP3
2023-12-12 09:12:11 TV-WEB-HD-X265 Los.Farad.S01E03.FRENCH.720p.WEB.H265-p98
2023-12-12 09:12:21 TV-WEB-HD-X265 Los.Farad.S01E04.FRENCH.720p.WEB.H265-p98
2023-12-12 09:13:01 MP3-WEB J3_Da_Shoota_And_SickMinded_Criminals-Oklas_Finest-WEB-2022-RAGEMP3
2023-12-12 09:13:21 MP3-WEB SickMinded_Criminals-Neva_Left-WEB-2022-RAGEMP3
2023-12-12 09:13:30 TV-WEB-HD-X265 Los.Farad.S01E05.FRENCH.720p.WEB.H265-p98
2023-12-12 09:14:19 MP3-WEB Michael_Regner-Neue_Geschichten_vom_Pumuckl-OST-WEB-2023-ENRiCH
2023-12-12 09:14:21 MP3-WEB Daffy_Loko_And_DohBoi_of_SickMinded_Criminals-Bald_Heads_And_Blue_Rags-EP-WEB-2022-RAGEMP3
2023-12-12 09:14:48 MP3-WEB DohBoi_of_SickMinded_Criminals-SickMinded-WEB-2022-RAGEMP3
2023-12-12 09:15:02 MP3-WEB SickMinded_Criminals-The_Last_Ride._19.13.3_(S.M.C)-WEB-2023-RAGEMP3
2023-12-12 09:15:17 MP3-WEB DohBoi_of_SickMinded_Criminals-SickMinded_Part_2-WEB-2023-RAGEMP3
2023-12-12 09:15:24 MP3-WEB Bvdub_And_Inquiri-Destroyesterday.-WEB-2023-AMOK
2023-12-12 09:15:38 TV-WEB-HD-X265 Los.Farad.S01E06.FRENCH.720p.WEB.H265-p98
2023-12-12 09:16:14 MP3-WEB Kangding_Ray-Helios_Rave_Draft-WEB-2023-AMOK
2023-12-12 10:50:59 TV-WEB-HD-X264 Merlina.S01E12.FLEMISH.1080p.WEB.H264-MERCATOR
2023-12-12 10:51:58 TV-WEB-HD-X264 Merlina.S01E13.FLEMISH.1080p.WEB.H264-MERCATOR
2023-12-12 10:52:30 TV-WEB-HD-X264 Merlina.S01E14.FLEMISH.1080p.WEB.H264-MERCATOR
2023-12-12 10:54:47 XXX-iMAGESET MPLStudios.com_23.12.12.Aristeia.Solo.XXX.IMAGESET-FuGLi
2023-12-12 10:55:54 TV-WEB-HD-X264 Eureka.2022.S01E20.POLISH.720p.WEB.H264-A4O
2023-12-12 11:05:58 TV-WEB-HD-X264 Eureka.2022.S01E21.POLISH.720p.WEB.H264-A4O
2023-12-12 11:08:31 TV-WEB-HD-X264 Under.Pressure.La.Nazionale.Di.Calcio.Femminile.USA.S01E01.iTALiAN.720p.WEB.H264-NTROPiC
2023-12-12 11:08:56 TV-WEB-HD-X264 MasterChef.Junior.Home.for.the.Holidays.S01E03.1080p.WEB.h264-EDITH
2023-12-12 11:08:57 TV-WEB-HD-X264 MasterChef.Junior.Home.for.the.Holidays.S01E03.720p.WEB.h264-EDITH
2023-12-12 11:09:47 TV-WEB-HD-X264 Under.Pressure.La.Nazionale.Di.Calcio.Femminile.USA.S01E03.iTALiAN.720p.WEB.H264-NTROPiC
2023-12-12 11:10:04 TV-WEB-HD-X264 MasterChef.Junior.Home.for.the.Holidays.S01E04.720p.WEB.h264-EDITH
2023-12-12 11:10:08 TV-WEB-HD-X264 MasterChef.Junior.Home.for.the.Holidays.S01E04.1080p.WEB.h264-EDITH
2023-12-12 11:10:56 TV-WEB-HD-X264 Under.Pressure.La.Nazionale.Di.Calcio.Femminile.USA.S01E02.iTALiAN.720p.WEB.H264-NTROPiC
2023-12-12 11:11:15 TV-WEB-HD-X264 Snapped.S33E07.720p.WEB.h264-EDITH
2023-12-12 11:11:15 TV-WEB-HD-X264 Snapped.S33E07.1080p.WEB.h264-EDITH
2023-12-12 11:11:16 TV-WEB-HD-X264 Watch.What.Happens.Live.2023.12.11.1080p.WEB.h264-EDITH
2023-12-12 11:11:18 TV-WEB-HD-X264 Below.Deck.Mediterranean.S08E12.720p.WEB.h264-EDITH
2023-12-12 11:11:19 TV-WEB-HD-X264 Below.Deck.Mediterranean.S08E12.1080p.WEB.h264-EDITH
2023-12-12 11:11:21 TV-WEB-HD-X264 Watch.What.Happens.Live.2023.12.11.720p.WEB.h264-EDITH
2023-12-12 11:12:39 TV-WEB-HD-X264 Under.Pressure.La.Nazionale.Di.Calcio.Femminile.USA.S01E04.iTALiAN.720p.WEB.H264-NTROPiC
2023-12-12 11:15:11 TV-WEB-HD-X264 Under.Pressure.La.Nazionale.Di.Calcio.Femminile.USA.S01E03.iTALiAN.1080p.WEB.H264-NTROPiC
2023-12-12 11:15:20 X264-HD MOSCONI.CUP.2023.Day.4.720p.WEB.H264-ASOOT
2023-12-12 11:16:03 TV-WEB-HD-X264 Eureka.2022.S01E22.POLISH.720p.WEB.H264-A4O
2023-12-12 11:17:18 TV-WEB-HD-X264 Under.Pressure.La.Nazionale.Di.Calcio.Femminile.USA.S01E02.iTALiAN.1080p.WEB.H264-NTROPiC
2023-12-12 11:18:07 TV-WEB-HD-X264 A.Murder.at.the.End.of.the.World.S01E06.GERMAN.DL.1080P.WEB.H264-WAYNE
2023-12-12 11:19:21 TV-WEB-HD-X264 Under.Pressure.La.Nazionale.Di.Calcio.Femminile.USA.S01E04.iTALiAN.1080p.WEB.H264-NTROPiC
2023-12-12 11:20:51 TV-WEB-HD-X264 Under.Pressure.La.Nazionale.Di.Calcio.Femminile.USA.S01E01.iTALiAN.1080p.WEB.H264-NTROPiC
2023-12-12 11:20:54 NSW Lets_Sing_2024_Update_v1.5_NSW-VENOM
2023-12-12 11:21:19 TV-WEB-HD-X264 Love.Like.a.K-Drama.S01E08.720p.WEB.h264-EDITH
2023-12-12 11:21:30 TV-WEB-HD-X264 Love.Like.a.K-Drama.S01E08.1080p.WEB.h264-EDITH
2023-12-12 11:21:48 MP3-WEB Maggie_Lindemann-SUCKERPUNCH_(deluxe_version)-WEB-2023-ENRiCH
2023-12-12 11:21:54 TV-WEB-HD-X264 Love.Like.a.K-Drama.S01E09.1080p.WEB.h264-EDITH
2023-12-12 11:21:55 TV-WEB-HD-X264 Love.Like.a.K-Drama.S01E09.720p.WEB.h264-EDITH
2023-12-12 11:23:16 TV-WEB-HD-X265 Born.in.Synanon.S01E01.2160p.WEB.h265-EDITH
2023-12-12 11:23:49 TV-WEB-HD-X265 Born.in.Synanon.S01E02.2160p.WEB.h265-EDITH
2023-12-12 11:24:18 TV-WEB-HD-X264 Onnela.S05E05.FiNNiSH.1080p.WEB.H264-TOOSA
2023-12-12 11:24:20 TV-WEB-HD-X265 Born.in.Synanon.S01E03.2160p.WEB.h265-EDITH
2023-12-12 11:24:56 TV-WEB-HD-X264 Onnela.S05E06.FiNNiSH.1080p.WEB.H264-TOOSA
2023-12-12 11:25:03 TV-WEB-HD-X265 Born.in.Synanon.S01E04.2160p.WEB.h265-EDITH
2023-12-12 11:26:09 TV-WEB-HD-X264 Eureka.2022.S01E23.POLISH.720p.WEB.H264-A4O
2023-12-12 11:34:18 X264 To.End.All.War.Oppenheimer.And.The.Atomic.Bomb.2023.iTALiAN.BDRip.x264-ROMEO
2023-12-12 11:34:31 FLAC Delaporte-Como_Anoche-(DP-2018)-ES-CD-FLAC-2019-CEBAD
2023-12-12 11:34:36 X264-HD To.End.All.War.Oppenheimer.And.The.Atomic.Bomb.2023.iTALiAN.720p.BLURAY.x264-ROMEO
2023-12-12 11:35:03 X264-HD To.End.All.War.Oppenheimer.And.The.Atomic.Bomb.2023.iTALiAN.MULTi.1080p.BLURAY.x264-ROMEO
2023-12-12 11:36:12 TV-WEB-HD-X264 Eureka.2022.S01E24.POLISH.720p.WEB.H264-A4O
2023-12-12 11:36:17 MP3 Delaporte-Como_Anoche-(DP-2018)-ES-CD-2019-CEB
2023-12-12 11:37:14 MP3-WEB Palaye_Royale-Sextape-EP-WEB-2023-ENViED
2023-12-12 11:38:17 FLAC Eskorzo-Camino_De_Fuego-(MA1501)-ES-CD-FLAC-2014-CEBAD
2023-12-12 11:39:31 MP3 Eskorzo-Camino_De_Fuego-(MA1501)-ES-CD-2014-CEB
2023-12-12 11:42:49 FLAC Jacky_Trap-Jacky_Trap-(SG-143CD)-ES-DELUXE_EDITION-CD-FLAC-2003-CEBAD
2023-12-12 11:43:27 TV-BLURAY Team.Knight.Rider.1997.S01.MULTI.COMPLETE.BLURAY-FULLBRUTALiTY
2023-12-12 11:43:33 DOCU Kevin.Hart.and.Chris.Rock.Headliners.Only.2023.GERMAN.DL.DOKU.HDR.720p.WEB.H265-ETM
2023-12-12 11:44:17 DOCU Kevin.Hart.and.Chris.Rock.Headliners.Only.2023.GERMAN.DL.DOKU.HDR.1080p.WEB.H265-ETM
2023-12-12 11:44:38 FLAC Unami-Semos_Peligrosos-(FAL-188)-ES-CD-FLAC-2006-CEBAD
2023-12-12 11:46:15 TV-WEB-HD-X264 Eureka.2022.S01E25.POLISH.720p.WEB.H264-A4O
2023-12-12 11:48:41 MP3-WEB Level_Beats-Music_Is_Key-(H4D030)-WEB-2023-DJ
2023-12-12 11:49:13 MP3-WEB Louie_Gomez-Separate_Ways-(BTPS104)-WEB-2023-DJ
2023-12-12 11:50:06 MP3-WEB T.na-Vinny-(ITWD002D)-WEB-2023-DJ
2023-12-12 11:51:07 MP3 Unami-Semos_Peligrosos-(FAL-188)-ES-CD-2006-CEB
2023-12-12 11:53:32 TV-WEB-HD-X264 Big.Brother.Reindeer.Games.S01E01.720p.WEB.h264-EDITH
2023-12-12 11:53:44 FLAC La_Quinta_Estacion-Flores_De_Alquiler-(82876621272)-ES-CD-FLAC-2004-CEBAD
2023-12-12 11:53:47 TV-WEB-HD-X264 Big.Brother.Reindeer.Games.S01E01.1080p.WEB.h264-EDITH
2023-12-12 11:56:19 TV-WEB-HD-X264 Eureka.2022.S01E26.POLISH.720p.WEB.H264-A4O
2023-12-12 12:00:48 TV-WEB-HD-X264 The.Daily.Show.2023.12.11.Zoya.Akhtar.1080p.WEB.h264-EDITH
2023-12-12 12:00:49 TV-WEB-HD-X264 The.Daily.Show.2023.12.11.Zoya.Akhtar.720p.WEB.h264-EDITH
2023-12-12 12:01:02 MP3-WEB 1st_Elemental-Sound_of_Duality-(RBL526)-WEB-2023-AFO
2023-12-12 12:01:10 MP3-WEB Artem_Kazantsev_and_Danil_Shevyrev-Recover-(FIGURA410)-SINGLE-WEB-2023-AFO
2023-12-12 12:01:33 MP3-WEB Sound_Quelle-Pianorez-(RWVN006)-WEB-2023-AFO
2023-12-12 12:01:36 MP3-WEB Feature_Complete-Deferred-(KLE015)-WEB-2023-AFO
2023-12-12 12:01:55 MP3-WEB Ivory_Coats-Porcelain-(FA403)-WEB-2023-AFO
2023-12-12 12:02:03 MP3-WEB Alley_SA-Calling_for_You-(MSD259)-SINGLE-WEB-2023-AFO
2023-12-12 12:02:12 MP3-WEB Nerutto-Silent_Summer-(INC253)-SINGLE-WEB-2023-AFO
2023-12-12 12:02:33 MP3-WEB Gultape-Tech_Tek__Glow-(SVR082)-WEB-2023-AFO
2023-12-12 12:02:49 FLAC-WEB VA-Anjunabeats_Worldwide_11_Sampler_pt._2-(ANJ928)-16BIT-WEB-FLAC-2023-AFO
2023-12-12 12:02:55 MP3-WEB SALAZAR_(COL)-Unconsciouness-(D9R299)-WEB-2023-AFO
2023-12-12 12:03:07 MP3-WEB F4T4L3RR0R-Aftershock-(ASR642)-WEB-2023-AFO
2023-12-12 12:03:08 MP3-WEB VA-Colorize_2023_Winter_Sampler-(ENCOLOR473E)-WEB-2023-AFO
2023-12-12 12:03:37 FLAC-WEB Artem_Kazantsev_and_Danil_Shevyrev-Recover-(FIGURA410)-SINGLE-16BIT-WEB-FLAC-2023-AFO
2023-12-12 12:03:41 MP3-WEB VA-Anjunabeats_Worldwide_11_Sampler_pt._2-(ANJ928)-WEB-2023-AFO
2023-12-12 12:04:08 MP3-WEB Cj_Mover-Island_of_Dreams_(Altek_Remix)-(HER134)-WEB-2023-AFO
2023-12-12 12:04:37 FLAC-WEB 1st_Elemental-Sound_of_Duality-(RBL526)-16BIT-WEB-FLAC-2023-AFO
2023-12-12 12:04:38 FLAC-WEB Marsh-Reimagined-(ANJDEE817BD)-16BIT-WEB-FLAC-2023-AFO
2023-12-12 12:05:07 FLAC-WEB Gultape-Tech_Tek__Glow-(SVR082)-16BIT-WEB-FLAC-2023-AFO
2023-12-12 12:05:11 FLAC-WEB Sound_Quelle-Pianorez-(RWVN006)-16BIT-WEB-FLAC-2023-AFO
2023-12-12 12:05:35 FLAC-WEB Feature_Complete-Deferred-(KLE015)-16BIT-WEB-FLAC-2023-AFO
2023-12-12 12:05:36 MP3-WEB Agoria_ft_Noemie_and_Rami_Khalife-Teardrops_(Dont_Stop_The_Music)-(SAPIENS071D)-WEB-2023-AFO
2023-12-12 12:06:05 MP3-WEB Jon_DVoi-Spacesuit-(PLTL266)-WEB-2023-AFO
2023-12-12 12:06:06 MP3-WEB Emi_Brandan-Touched_by_the_Sun-(389SD)-WEB-2023-AFO
2023-12-12 12:06:22 TV-WEB-HD-X264 Eureka.2022.S01E27.POLISH.720p.WEB.H264-A4O
2023-12-12 12:06:26 FLAC-WEB SALAZAR_(COL)-Unconsciouness-(D9R299)-16BIT-WEB-FLAC-2023-AFO
2023-12-12 12:06:43 MP3-WEB Marsh-Reimagined-(ANJDEE817BD)-WEB-2023-AFO
2023-12-12 12:07:16 FLAC-WEB F4T4L3RR0R-Aftershock-(ASR642)-16BIT-WEB-FLAC-2023-AFO
2023-12-12 12:07:41 FLAC-WEB Alley_SA-Calling_for_You-(MSD259)-SINGLE-16BIT-WEB-FLAC-2023-AFO
2023-12-12 12:07:43 FLAC-WEB Agoria_ft_Noemie_and_Rami_Khalife-Teardrops_(Dont_Stop_The_Music)-(SAPIENS071D)-16BIT-WEB-FLAC-2023-AFO
2023-12-12 12:08:16 FLAC-WEB Emi_Brandan-Touched_by_the_Sun-(389SD)-16BIT-WEB-FLAC-2023-AFO
2023-12-12 12:08:18 FLAC-WEB Jon_DVoi-Spacesuit-(PLTL266)-16BIT-WEB-FLAC-2023-AFO
2023-12-12 12:08:42 MP3-WEB Psybash-White_Wind-(UA240)-SINGLE-WEB-2023-AFO
2023-12-12 12:09:03 MP3-WEB x-airlan_and_The_Wavers-ReAlive-(BTS040)-WEB-2023-AFO
2023-12-12 12:09:10 FLAC-WEB Ivory_Coats-Porcelain-(FA403)-16BIT-WEB-FLAC-2023-AFO
2023-12-12 12:14:31 FLAC-WEB VA-Colorize_2023_Winter_Sampler-(ENCOLOR473E)-16BIT-WEB-FLAC-2023-AFO
2023-12-12 12:16:24 TV-WEB-HD-X264 Eureka.2022.S01E28.POLISH.720p.WEB.H264-A4O
2023-12-12 12:25:28 MP3-WEB A.M.R-Familiar_Faces_(Deluxe)-(742779550842)-WEB-2023-AFO
2023-12-12 12:26:06 FLAC-WEB A.M.R-Familiar_Faces_(Deluxe)-(742779550842)-16BIT-WEB-FLAC-2023-AFO
2023-12-12 12:26:28 TV-WEB-HD-X264 Eureka.2022.S01E29.POLISH.720p.WEB.H264-A4O
2023-12-12 12:26:34 MP3-WEB Ross_Quinn_and_Punctual-Omen_(Mees_Salome_Extended_Remix)-(0196762008450)-SINGLE-WEB-2023-AFO_INT
2023-12-12 12:27:22 MP3-WEB Ross_Quinn_and_Punctual-Omen_(Extended_Mix)-(0196762006449)-SINGLE-WEB-2023-AFO_INT
2023-12-12 12:29:42 MP3-WEB Ross_Quinn-Out_Of_Time_(SOMMA_Extended_Remix)-(0196762002847)-SINGLE-WEB-2022-AFO_INT
2023-12-12 12:30:34 MP3-WEB Ross_Quinn-Every_Night-(0196762008634)-SINGLE-WEB-2023-AFO
2023-12-12 12:35:35 TV-WEB-HD-X264 Jimmy.Fallon.2023.12.11.Mark.Wahlberg.720p.WEB.h264-EDITH
2023-12-12 12:35:37 TV-WEB-HD-X264 Jimmy.Fallon.2023.12.11.Mark.Wahlberg.1080p.WEB.h264-EDITH
2023-12-12 12:36:31 TV-WEB-HD-X264 Eureka.2022.S01E30.POLISH.720p.WEB.H264-A4O
2023-12-12 12:46:16 MP3-ViNYL DJ_Monchan-East_Village_Edits_10-(DSR040)-VINYL-2023-BF
2023-12-12 12:47:42 BLURAY Night.Train.To.Terror.1985.MULTI.COMPLETE.BLURAY-FULLBRUTALiTY
2023-12-12 12:48:08 MP3-ViNYL Fabio_Santanna-Chega_Mais-(ONDA02)-VINYL-2023-BF
2023-12-12 12:48:59 MP3 Blue_House_Boyz-This_Is_How_We_Chill-Reissue_EP-2023-NOiR
2023-12-12 12:49:48 FLAC-WEB Marc_Romboy_x_Marlene_Schuen_x_Dimitri_Andreas-Metamorfosa-(HYPE0006)-16BIT-WEB-FLAC-2023-BABAS
2023-12-12 12:50:11 FLAC-WEB Marc_Romboy-Voyage_De_La_Planete-(HYPE0002)-16BIT-WEB-FLAC-2017-BABAS
2023-12-12 12:50:31 FLAC-WEB Marc_Romboy-Contrast-(SYST0007)-24BIT-WEB-FLAC-2008-BABAS
2023-12-12 12:52:31 MP3-WEB MONKYMAN--Echoes_Of_Peace-WEB-2023-SHELTER
2023-12-12 12:55:15 FLAC-WEB MONKYMAN-Echoes_Of_Peace-16BIT-WEB-FLAC-2023-SHELTER
2023-12-12 12:56:01 FLAC Blue_House_Boyz-This_Is_How_We_Chill-REISSUE-CDEP-FLAC-2023-AUDiOFiLE
2023-12-12 12:56:21 FLAC-WEB Axel_Bartsch-Experiment_Musik-(SPORTCLUB27)-16BIT-WEB-FLAC-2011-BABAS
2023-12-12 13:00:39 TV-WEB-HD-X264 Marcus.Wareing.at.Christmas.S01E06.1080p.WEB.h264-EDITH
2023-12-12 13:05:30 TV-WEB-HD-X264 The.Good.Doctor.S06E14.Hard.Heart.CZECH.1080p.WEB.H264-SDTV
2023-12-12 13:06:13 BLURAY-AVC Night.Train.To.Terror.1985.GERMAN.DL.1080P.BLURAY.AVC-UNDERTAKERS
2023-12-12 13:10:36 MP3-WEB DJ_Sodeyama_And_Jonas_Kopp-CO.LAB_007_EP-TREMSIX027-WEB-2023-WAV
2023-12-12 13:11:33 FLAC-WEB DJ_Sodeyama_And_Jonas_Kopp-CO.LAB_007_EP-TREMSIX027-24BIT-WEB-FLAC-2023-WAVED
2023-12-12 13:16:58 TV-WEB-HD-X264 The.Voice.S24E23.720p.WEB.h264-EDITH
2023-12-12 13:17:00 TV-WEB-HD-X264 The.Voice.S24E23.1080p.WEB.h264-EDITH
2023-12-12 13:18:03 X264-HD Night.Train.To.Terror.1985.1080P.BLURAY.H264-UNDERTAKERS
2023-12-12 13:22:11 TV-WEB-HD-X264 Los.Farad.S01E04.iTALiAN.720p.WEB.H264-NTROPiC
2023-12-12 13:23:27 TV-WEB-HD-X264 Los.Farad.S01E08.iTALiAN.720p.WEB.H264-NTROPiC
2023-12-12 13:24:40 TV-WEB-HD-X264 Los.Farad.S01E03.iTALiAN.720p.WEB.H264-NTROPiC
2023-12-12 13:29:52 TV-WEB-HD-X264 Los.Farad.S01E06.iTALiAN.720p.WEB.H264-NTROPiC
2023-12-12 14:46:07 MP3-WEB Andres_Gil-Tear_On_Ice_EP-(DVTR024)-WEB-2016-PTC
2023-12-12 14:46:10 TV-WEB-HD-X264 Suomen.Huutokauppakeisari.S16E14.FiNNiSH.720p.WEB.H264-NETTiTV
2023-12-12 14:46:37 MP3-WEB Dave_Sinner-Nasty_Walk_EP-(DVTR025)-WEB-2017-PTC
2023-12-12 14:47:19 MP3-WEB Kostha_and_Elio_Kenza-Keep_In_EP-(DVTR026)-WEB-2017-PTC
2023-12-12 14:48:02 X264-HD Ernest.and.Celestine.A.Trip.to.Gibberitia.2022.NORWEGiAN.1080p.WEB.h264-BARNEFiLM
2023-12-12 14:48:06 MP3-WEB Ebur_and_Avox25-Force_EP-(DVTR028)-WEB-2017-PTC
2023-12-12 14:48:45 MP3-WEB ZakariandBlange-Noise_Impact_EP-(DVTR029)-WEB-2017-PTC
2023-12-12 14:49:17 MP3-WEB Against_The_Time_and_Victor_Enzo-Malta_EP-(DVTR030)-WEB-2017-PTC
2023-12-12 14:49:48 MP3-WEB Lunatique_Sublime-Resonance_EP-(DVTR032)-WEB-2017-PTC
2023-12-12 14:50:07 TV-WEB-HD-X265 Los.Farad.S01E05.iTALiAN.HDR.2160p.WEB.H265-NTROPiC
2023-12-12 14:50:35 MP3-WEB Gaston_Zani-Mortal_EP-(DVTR036)-WEB-2017-PTC
2023-12-12 14:51:15 X264-HD Who.Framed.Roger.Rabbit.1988.iNTERNAL.MULTi.1080p.BluRay.x264-PATHECROUTE
2023-12-12 14:51:28 MP3-WEB Ninna_V-Synchronicity_EP-(DVTR042)-WEB-2018-PTC
2023-12-12 14:52:03 X264-HD Ernest.and.Celestine.A.Trip.to.Gibberitia.2022.NORWEGiAN.720p.WEB.h264-BARNEFiLM
2023-12-12 14:52:05 MP3-WEB Elias_the_Prophet-Antagonist_EP-(DVTR043)-WEB-2018-PTC
2023-12-12 14:53:03 MP3-WEB Israel_Toledo-Human_Experiments_EP-(DVTR047)-WEB-2018-PTC
2023-12-12 14:53:34 MP3-WEB Ken_Ishii-LC_Circuit-(DVTR048)-WEB-2018-PTC
2023-12-12 14:53:43 TV-WEB-HD-X265 Los.Farad.S01E01.iTALiAN.HDR.2160p.WEB.H265-NTROPiC
2023-12-12 14:54:11 MP3-WEB STUTE-Spaceship_EP-(DVTR050)-WEB-2018-PTC
2023-12-12 14:54:47 MP3-WEB Spiriakos-Who_Knows_EP-(DVTR052)-WEB-2018-PTC
2023-12-12 14:55:20 MP3-WEB Le_Martz-Crystal_Acid_Risen_EP-(DVTR053)-WEB-2018-PTC
2023-12-12 14:55:49 MP3-WEB P.U.L.S.A.R-Covered_Under_Waves_EP-(DVTR055)-WEB-2018-PTC
2023-12-12 14:56:02 X264-HD Enchantimals.Finding.Home.2017.NORWEGiAN.1080p.WEB.h264-BARNEFiLM
2023-12-12 14:56:26 MP3-WEB Asier_Vico-Apatia_EP-(DVTR057)-WEB-2018-PTC
2023-12-12 14:57:05 MP3-WEB Lucas_Freire-Light_It_Up_EP-(DVTR058)-WEB-2018-PTC
2023-12-12 14:57:38 TV-WEB-HD-X265 Los.Farad.S01E07.iTALiAN.HDR.2160p.WEB.H265-NTROPiC
2023-12-12 15:00:02 X264-HD Enchantimals.Finding.Home.2017.NORWEGiAN.720p.WEB.h264-BARNEFiLM
2023-12-12 15:00:52 TV-WEB-HD-X265 Los.Farad.S01E08.iTALiAN.HDR.2160p.WEB.H265-NTROPiC
2023-12-12 15:02:20 X264-HD The.Unlikely.Pilgrimage.of.Harold.Fry.2023.1080p.WEB.H264-DiMEPiECE
2023-12-12 15:03:28 X264-HD The.Unlikely.Pilgrimage.of.Harold.Fry.2023.720p.WEB.H264-DiMEPiECE
2023-12-12 15:03:56 BLURAY-AVC Bruce.Lee.Superstar.1976.GERMAN.1080P.BLURAY.AVC-UNDERTAKERS
2023-12-12 15:04:02 X264-HD Joey.and.Ella.2021.NORWEGiAN.1080p.WEB.h264-BARNEFiLM
2023-12-12 15:05:45 TV-WEB-HD-X265 Los.Farad.S01E04.iTALiAN.HDR.2160p.WEB.H265-NTROPiC
2023-12-12 15:07:25 MP3-WEB Dystopic_L.-The_Psycho_King_EP-(DVTR060)-WEB-2019-PTC
2023-12-12 15:08:02 X264-HD Joey.and.Ella.2021.NORWEGiAN.720p.WEB.h264-BARNEFiLM
2023-12-12 15:08:05 MP3-WEB Juan_Trujillo-Fotogram_EP-(DVTR061)-WEB-2019-PTC
2023-12-12 15:08:37 MP3-WEB Lucas_Freire_and_Vegim_and_Andres_Gil-DVL001-(DVL001)-WEB-2019-PTC
2023-12-12 15:08:41 X264-HD Bruce.Lee.Superstar.1976.DUBBED.1080P.BLURAY.H264-UNDERTAKERS
2023-12-12 15:10:27 TV-WEB-HD-X265 Los.Farad.S01E03.iTALiAN.HDR.2160p.WEB.H265-NTROPiC
2023-12-12 15:11:27 XXX-HD XevUnleashed.22.01.17.The.Witchs.Possession.XXX.1080p.MP4-SNiCKERS
2023-12-12 15:11:57 MP3-WEB Hanubis-Kill_False_EP-(DVTR066)-WEB-2019-PTC
2023-12-12 15:12:02 X264-HD Niko.2.Little.Brother.Big.Trouble.2012.NORWEGiAN.720p.WEB.h264-BARNEFiLM
2023-12-12 15:12:19 XXX-HD XevUnleashed.22.01.17.The.Witchs.Possession.XXX.2160p.MP4-SNiCKERS
2023-12-12 15:12:23 XXX-iMAGESET MetArt.com_23.12.12.Decima.Beachcombing.XXX.IMAGESET-FuGLi
2023-12-12 15:12:57 XXX-iMAGESET MetArt.com_23.12.12.Helina.Dream.Armchair.Reverie.XXX.IMAGESET-FuGLi
2023-12-12 15:16:02 X264-HD Niko.And.The.Way.To.The.Stars.2008.NORWEGiAN.720p.WEB.h264-BARNEFiLM
2023-12-12 15:17:24 TV-WEB-HD-X264 Jimmy.Kimmel.2023.12.11.George.Clooney.720p.WEB.h264-EDITH
2023-12-12 15:20:02 X264-HD Sune.Best.Man.2019.NORWEGiAN.1080p.WEB.h264-BARNEFiLM
2023-12-12 15:21:04 MP3-WEB Juan_Trujillo_and_H._Paul-DVL002-(DVL002)-WEB-2020-PTC
2023-12-12 15:21:32 MP3-WEB T-Dok-Raw_Thoughts_EP-(DVTR081)-WEB-2020-PTC
2023-12-12 15:22:05 MP3-WEB Osclighter-Exper_in_Mental_EP-(DVTR082)-WEB-2020-PTC
2023-12-12 15:24:02 X264-HD Sune.Best.Man.2019.NORWEGiAN.720p.WEB.h264-BARNEFiLM
2023-12-12 15:26:32 MP3-WEB Future_Prophecy-Unique_Voices_Of_Psytrance_Vol_9-(MEMO169)-WEB-2023-BABAS
2023-12-12 15:26:54 MP3-WEB VA-Brain_Food_Records-Oddities_Remixed-(BFR021)-WEB-2023-BABAS
2023-12-12 15:27:16 MP3-WEB Neuromotor-Unique_Voices_Of_Psytrance_Vol_8-WEB-2023-BABAS
2023-12-12 15:27:38 MP3-WEB Broken_Toy-Unique_Voices_Of_Psytrance_Vol_7-(MEMO166)-WEB-2023-BABAS
2023-12-12 15:28:03 X264-HD Sune.vs.Sune.2018.NORWEGiAN.1080p.WEB.h264-BARNEFiLM
2023-12-12 15:28:03 MP3-WEB Crown-Transcend_Consciousness_LP-(DVTR083)-WEB-2021-PTC
2023-12-12 15:28:42 MP3-WEB Kellener-Modulate_Oblivion_EP-(DVTR084)-WEB-2021-PTC
2023-12-12 15:29:19 MP3-WEB PWCCA-Hominization_EP-(DVTR085)-WEB-2021-PTC
2023-12-12 15:30:38 MP3-WEB VA-Hybrid_Synthesis-(TRA10)-WEB-2023-BABAS
2023-12-12 15:32:02 X264-HD Sune.vs.Sune.2018.NORWEGiAN.720p.WEB.h264-BARNEFiLM
2023-12-12 15:36:02 X264-HD Tall.Tales.from.the.Magical.Garden.of.Antoon.Krings.2017.NORWEGiAN.1080p.WEB.h264-BARNEFiLM
2023-12-12 15:36:04 MP3-WEB Anders_(BR)-Desconcertante_EP-(DVTR086)-WEB-2021-PTC
2023-12-12 15:36:19 MP3-WEB VA-Anniversary_VA-Awesome_Mix_Vol_4-(PSD022VOLUME4)-WEB-2023-BABAS
2023-12-12 15:36:34 MP3-WEB Eternal_Chase-Square_EP-(DVTR087)-WEB-2021-PTC
2023-12-12 15:36:42 MP3-WEB VA-Anniversary_VA-Awesome_Mix_Vol_2-(PSD022VOLUME2)-WEB-2023-BABAS
2023-12-12 15:37:04 MP3-WEB VA-Anniversary_VA-Awesome_Mix_Vol_3-(PSD022VOLUME3)-WEB-2023-BABAS
2023-12-12 15:37:09 MP3-WEB BRALLE-Misericordia_EP-(DVTR088)-WEB-2021-PTC
2023-12-12 15:37:25 MP3-WEB VA-Anniversary_VA-Awesome_Mix_Vol_1-(PSD022VOLUME1)-WEB-2023-BABAS
2023-12-12 15:39:15 MP3-WEB Nervous_Operator-Psychic_Diffraction-(SE18)-WEB-2023-BABAS
2023-12-12 15:40:02 X264-HD Tall.Tales.from.the.Magical.Garden.of.Antoon.Krings.2017.NORWEGiAN.720p.WEB.h264-BARNEFiLM
2023-12-12 15:40:14 GAMES-DOX Contraband.Police.v10.2.3-TENOKE
2023-12-12 15:40:37 GAMES Soul.Device-TENOKE
2023-12-12 15:40:59 GAMES-DOX theHunter.Call.of.the.Wild.v2649775-TENOKE
2023-12-12 15:44:03 X264-HD The.Naughty.List.2013.NORWEGiAN.1080p.WEB.h264-BARNEFiLM
2023-12-12 15:46:07 MP3-WEB Douglas_Calii-Metamorphosis_Remixed-(LXV028)-WEB-2023-BABAS
2023-12-12 15:46:28 MP3-WEB Douglas_Calii-Metamorphosis-(LXV027)-WEB-2023-BABAS
2023-12-12 15:46:52 MP3-WEB XVIII-Sojourn-(LXV026)-WEB-2023-BABAS
2023-12-12 15:47:11 MP3-WEB VA-Medusozoa_Vol_III-(TARTALB021D)-WEB-2023-BABAS
2023-12-12 15:47:51 MP3-WEB Andy_Bsk-Radio-Active-(TRA142)-WEB-2023-PTC
2023-12-12 15:48:03 X264-HD The.Naughty.List.2013.NORWEGiAN.720p.WEB.h264-BARNEFiLM
2023-12-12 15:48:27 MP3-WEB Carlito-Fiesta_En_La_Playa__Wide_World-(LV119DD)-WEB-2023-PTC
2023-12-12 15:50:41 MP3-WEB Elipsa-Overrated-(UKF157)-SINGLE-WEB-2023-PTC
2023-12-12 15:50:54 TV-WEB-HD-X264 A.Murder.at.the.End.of.the.World.S01E06.MULTI.1080p.WEB.H264-HiggsBoson
2023-12-12 15:52:01 X264-HD Trolls.Holiday.in.Harmony.2021.NORWEGiAN.1080p.WEB.h264-BARNEFiLM
2023-12-12 15:55:47 EBOOK Yen.Press.-.Little.Witch.Academia.Vol.02.Manga.2018.Retail.Comic.eBook-BitBook
2023-12-12 15:56:02 X264-HD Trolls.Holiday.in.Harmony.2021.NORWEGiAN.720p.WEB.h264-BARNEFiLM
2023-12-12 15:56:46 EBOOK Yen.Press.-.Little.Witch.Academia.Vol.03.Manga.2019.Retail.Comic.eBook-BitBook
2023-12-12 15:57:44 EBOOK Yen.Press.-.Lust.Geass.Vol.01.2020.Retail.Comic.eBook-BitBook
2023-12-12 15:58:41 EBOOK Yen.Press.-.Lust.Geass.Vol.02.2020.Retail.Comic.eBook-BitBook
2023-12-12 15:59:34 MP3-WEB Astropilot-Elysium-(AS074)-WEB-2023-BABAS
2023-12-12 15:59:38 EBOOK Yen.Press.-.Lust.Geass.Vol.03.2021.Retail.Comic.eBook-BitBook
2023-12-12 15:59:55 MP3-WEB Monowoman-Resolver-(NEONRR136)-WEB-2023-BABAS
2023-12-12 16:00:17 MP3-WEB Retland-Gaia-(ETV0138)-WEB-2023-BABAS
2023-12-12 16:00:36 EBOOK Yen.Press.-.Lust.Geass.Vol.04.2021.Retail.Comic.eBook-BitBook
2023-12-12 16:00:39 MP3-WEB Free_Floating_Rotation-Mysterious_Planet-(AS089)-WEB-2023-BABAS
2023-12-12 16:01:00 MP3-WEB Balsam-Medicine_Keeper-(AR018)-WEB-2023-BABAS
2023-12-12 16:01:19 TV-WEB-HD-X264 Alps.no.Shoujo.Heidi.E43.FRENCH.1080p.WEB.H264-AMB3R
2023-12-12 16:01:23 MP3-WEB Biostatic-This_Jazz_Not_Is-(SI055)-WEB-2019-BABAS
2023-12-12 16:01:25 TV-WEB-HD-X264 Alps.no.Shoujo.Heidi.E44.FRENCH.1080p.WEB.H264-AMB3R
2023-12-12 16:01:33 EBOOK Yen.Press.-.Lust.Geass.Vol.05.2022.Retail.Comic.eBook-BitBook
2023-12-12 16:01:49 TV-WEB-HD-X264 Dead.Mount.Death.Play.E19.MULTi.1080p.WEB.x264-AMB3R
2023-12-12 16:02:30 EBOOK Yen.Press.-.Lust.Geass.Vol.06.2022.Retail.Comic.eBook-BitBook
2023-12-12 16:03:28 EBOOK Yen.Press.-.Monthly.In.The.Garden.With.My.Landlord.Vol.01.2023.Retail.Comic.eBook-BitBook
2023-12-12 16:04:25 EBOOK Yen.Press.-.My.Mate.Is.A.Feline.Gentleman.2023.Retail.Comic.eBook-BitBook
2023-12-12 16:05:23 EBOOK Yen.Press.-.My.Mate.Is.A.Feline.Gentleman.UK.Arc.Over.2023.Retail.Comic.eBook-BitBook
2023-12-12 16:06:19 EBOOK Yen.Press.-.Scribbles.Vol.02.2023.Retail.Comic.eBook-BitBook
2023-12-12 16:07:17 EBOOK Yen.Press.-.Shy.Vol.02.2023.Retail.Comic.eBook-BitBook
2023-12-12 16:07:43 NSW Sen_no_Hato_Tsukisome_no_Koki_JPN_NSW-HR
2023-12-12 16:08:15 EBOOK Yen.Press.-.SOTUS.Vol.03.2023.Retail.Comic.eBook-BitBook
2023-12-12 16:09:12 EBOOK Yen.Press.-.Star.Wars.Leia.Princess.Of.Alderaan.Vol.01.Manga.2020.Retail.Comic.eBook-BitBook
2023-12-12 16:10:09 EBOOK Yen.Press.-.Star.Wars.Lost.Stars.Vol.01.Manga.2018.Retail.Comic.eBook-BitBook
2023-12-12 16:11:07 EBOOK Yen.Press.-.Star.Wars.Lost.Stars.Vol.02.Manga.2019.Retail.Comic.eBook-BitBook
2023-12-12 16:12:04 EBOOK Yen.Press.-.Star.Wars.Lost.Stars.Vol.03.Manga.2019.Retail.Comic.eBook-BitBook
2023-12-12 16:13:01 EBOOK Yen.Press.-.Star.Wars.Rebels.Vol.01.2020.Retail.Comic.eBook-BitBook
2023-12-12 16:13:58 EBOOK Yen.Press.-.Star.Wars.Rebels.Vol.02.2021.Retail.Comic.eBook-BitBook
2023-12-12 16:14:55 EBOOK Yen.Press.-.Star.Wars.Rebels.Vol.03.2022.Retail.Comic.eBook-BitBook
2023-12-12 16:18:07 EBOOK Yen.Press.-.Tales.Of.The.Kingdom.Vol.03.2023.Retail.Comic.eBook-BitBook
2023-12-12 16:21:12 MP3-WEB Cyborg_Rhetoric-Tales_From_The_Encrypt-(CHP040)-WEB-2023-BABAS
2023-12-12 16:23:17 EBOOK Yen.Press.-.The.Betrayal.Knows.My.Name.Vol.01.2011.Retail.Comic.eBook-BitBook
2023-12-12 16:28:13 EBOOK Yen.Press.-.The.Betrayal.Knows.My.Name.Vol.02.2011.Retail.Comic.eBook-BitBook
2023-12-12 16:33:08 EBOOK Yen.Press.-.The.Betrayal.Knows.My.Name.Vol.04.2012.Retail.Comic.eBook-BitBook
2023-12-12 16:35:35 FLAC Silent_Drive-Love_Is_Worth_It-CD-FLAC-2004-FAiNT
2023-12-12 16:37:58 EBOOK Yen.Press.-.The.Betrayal.Knows.My.Name.Vol.05.2013.Retail.Comic.eBook-BitBook
2023-12-12 16:41:51 EBOOK Yen.Press.-.The.Demon.Sword.Master.Of.Excalibur.Academy.Vol.04.Manga.2023.Retail.Comic.eBook-BitBook
2023-12-12 16:45:17 EBOOK Yen.Press.-.The.Disappearance.Of.Nagato.Yuki.Chan.Vol.02.2012.Retail.Comic.eBook-BitBook
2023-12-12 16:48:42 EBOOK Yen.Press.-.The.Disappearance.Of.Nagato.Yuki.Chan.Vol.03.2013.Retail.Comic.eBook-BitBook
2023-12-12 16:51:38 EBOOK Yen.Press.-.The.Disappearance.Of.Nagato.Yuki.Chan.Vol.04.2013.Retail.Comic.eBook-BitBook
2023-12-12 16:54:54 EBOOK Yen.Press.-.The.Disappearance.Of.Nagato.Yuki.Chan.Vol.05.2014.Retail.Comic.eBook-BitBook
2023-12-12 16:55:14 TV-BLURAY The.Mandalorian.S01.NORDiC.SUBPACK.BluRay-REQ
2023-12-12 16:55:29 TV-BLURAY The.Mandalorian.S02.NORDiC.SUBPACK.BluRay-REQ
2023-12-12 16:55:43 MBLURAY Momoiro.Clover.Z.White.Hot.Blizzard.Momoiro.Christmas.Disk.1.2013.COMPLETE.MBLURAY-DARKFLiX
2023-12-12 16:55:43 MBLURAY Momoiro.Clover.Z.Momiro.Christmas.2012.at.Saitama.Super.Arena.Disk.1.2012.COMPLETE.MBLURAY-DARKFLiX
2023-12-12 16:55:43 MBLURAY Momoiro.Clover.Z.Momiro.Christmas.2012.at.Saitama.Super.Arena.Disk.4.2012.COMPLETE.MBLURAY-DARKFLiX
2023-12-12 16:55:43 MBLURAY Momoiro.Clover.Z.Momiro.Christmas.2012.at.Saitama.Super.Arena.Disk.3.2012.COMPLETE.MBLURAY-DARKFLiX
2023-12-12 16:55:43 MBLURAY Momoiro.Clover.Z.Momiro.Christmas.2012.at.Saitama.Super.Arena.Disk.2.2012.COMPLETE.MBLURAY-DARKFLiX
2023-12-12 16:55:44 MBLURAY Momoiro.Clover.Z.White.Hot.Blizzard.Momoiro.Christmas.Disk.2.2013.COMPLETE.MBLURAY-DARKFLiX
2023-12-12 16:56:33 X265-HD 12.Monkeys.GERMAN.DTSD.DL.2160p.UHD.BluRay.x265.INTERNAL-COOLHD
2023-12-12 17:01:04 EBOOK Yen.Press.-.The.Disappearance.Of.Nagato.Yuki.Chan.Vol.06.2014.Retail.Comic.eBook-BitBook
2023-12-12 17:01:37 MP3-WEB Cybotron-Enter_(40th_Anniversary_Deluxe_Edition)-(CR07441)-WEB-2023-BABAS
2023-12-12 17:01:49 FLAC-WEB Cybotron-Enter-(CR07441)-40TH_ANNIVERSARY_DELUXE_EDITION-16BIT-WEB-FLAC-2023-BABAS
2023-12-12 17:04:02 TV-WEB-HD-X264 Julens.Alla.Bak.S03E02.SWEDiSH.720p.WEB.h264-OLLONBORRE
2023-12-12 17:04:07 TV-WEB-HD-X264 Julens.Alla.Bak.S03E02.SWEDiSH.1080p.WEB.h264-OLLONBORRE
2023-12-12 17:04:24 EBOOK Yen.Press.-.The.Disappearance.Of.Nagato.Yuki.Chan.Vol.07.2015.Retail.Comic.eBook-BitBook
2023-12-12 17:07:29 EBOOK Yen.Press.-.The.Disappearance.Of.Nagato.Yuki.Chan.Vol.09.2016.Retail.Comic.eBook-BitBook
2023-12-12 17:10:37 EBOOK Yen.Press.-.The.Disappearance.Of.Nagato.Yuki.Chan.Vol.10.2017.Retail.Comic.eBook-BitBook
2023-12-12 17:13:07 EBOOK Yen.Press.-.The.Elder.Sister.Like.One.Vol.04.2020.Retail.Comic.eBook-BitBook
2023-12-12 17:15:39 EBOOK Yen.Press.-.The.Elder.Sister.Like.One.Vol.06.2023.Retail.Comic.eBook-BitBook
2023-12-12 17:19:06 EBOOK Yen.Press.-.The.Essence.Of.Being.A.Muse.Vol.02.2023.Retail.Comic.eBook-BitBook
2023-12-12 17:22:04 EBOOK Yen.Press.-.The.Geek.Ex.Hitman.Vol.03.2023.Retail.Comic.eBook-BitBook
2023-12-12 17:23:06 MP3 3Sunz_X_Confidence_X_J_Ferra-The_Ride-2023-NOiR
2023-12-12 17:24:11 MP3-WEB MISIGII-Hypno_Contra-(NG0424)-WEB-2023-BABAS
2023-12-12 17:27:27 MP3-WEB AJ_Christou-Babaloop-(HOTC223)-WEB-2023-BABAS
2023-12-12 17:29:30 BLURAY D.A.R.Y.L.1985.COMPLETE.UHD.BLURAY-B0MBARDiERS
2023-12-12 17:30:27 GAMES-DOX Call.of.the.Wild.The.Angler.Spain.Reserve.Update.v1.5.1.incl.DLC-RUNE
2023-12-12 17:32:33 TV-HD-X264 Montreux.Comedy.Festival.Jason.De.Brokerss.Et.Le.Comedy.Francaise.2022.FRENCH.1080p.HDTV.H264-SATiRiC
2023-12-12 17:35:21 BLURAY The.Prophecy.1995.REMASTERED.COMPLETE.BLURAY-FULLBRUTALiTY
2023-12-12 17:35:32 GAMES-DOX Police.Simulator.Patrol.Officers.Update.v12.2.2.incl.DLC-RUNE
2023-12-12 17:37:10 EBOOK Yen.Press.-.To.Save.The.World.Can.You.Wake.Up.The.Morning.After.With.A.Demi.Human.Vol.01.2020.Retail.Comic.eBook-BitBook
2023-12-12 17:38:48 BLURAY The.Prophecy.II.1998.The.Prophecy.3.The.Ascent.2000.REMASTERED.COMPLETE.BLURAY-FULLBRUTALiTY
2023-12-12 17:40:31 EBOOK Yen.Press.-.To.Save.The.World.Can.You.Wake.Up.The.Morning.After.With.A.Demi.Human.Vol.02.2020.Retail.Comic.eBook-BitBook
2023-12-12 17:43:42 EBOOK Yen.Press.-.To.Save.The.World.Can.You.Wake.Up.The.Morning.After.With.A.Demi.Human.Vol.03.2021.Retail.Comic.eBook-BitBook
2023-12-12 17:46:39 EBOOK Yen.Press.-.To.Save.The.World.Can.You.Wake.Up.The.Morning.After.With.A.Demi.Human.Vol.04.2022.Retail.Comic.eBook-BitBook
2023-12-12 17:48:48 TV-WEB-HD-X264 The.Price.is.Right.at.Night.2023.12.11.720p.WEB.h264-DiRT
2023-12-12 17:49:38 EBOOK Yen.Press.-.To.Save.The.World.Can.You.Wake.Up.The.Morning.After.With.A.Demi.Human.Vol.05.2022.Retail.Comic.eBook-BitBook
2023-12-12 17:49:41 TV-WEB-HD-X264 The.Price.is.Right.at.Night.2023.12.11.1080p.WEB.h264-DiRT
2023-12-12 17:51:38 X264 Bruce.Lee.Superstar.1976.DUBBED.BDRIP.X264-WATCHABLE
2023-12-12 17:52:22 MP3-WEB Maggio_x_Vitess-Discoline-(CPSL0005)-WEB-2023-BABAS
2023-12-12 17:52:44 MP3-WEB VA-The_Sound_of_Garden_Selection_Vol.01_Part.01-(CPSLS001PART1)-WEB-2023-BABAS
2023-12-12 17:52:46 EBOOK Yen.Press.-.To.Save.The.World.Can.You.Wake.Up.The.Morning.After.With.A.Demi.Human.Vol.06.2023.Retail.Comic.eBook-BitBook
2023-12-12 17:52:55 X264-HD Bruce.Lee.Superstar.1976.DUBBED.720P.BLURAY.X264-WATCHABLE
2023-12-12 17:53:07 MP3-WEB ADMNTi-Soulmate-(CAPO001)-WEB-2023-BABAS
2023-12-12 17:53:28 MP3-WEB VA-The_Sound_of_Garden_Selection_Vol.01_Part.02-(CPSLS001PART2)-WEB-2023-BABAS
2023-12-12 17:55:01 X264-HD Bruce.Lee.Superstar.1976.DUBBED.1080P.BLURAY.X264-WATCHABLE
2023-12-12 17:57:51 EBOOK Yen.Press.-.Trinity.Seven.Vol.27.The.Seven.Magicians.2023.Retail.Comic.eBook-BitBook
2023-12-12 18:00:18 MP3-WEB Ulwhednar-Area_08-(NE96)-WEB-2023-BABAS
2023-12-12 18:00:41 TV-WEB-HD-X264 Seijo.no.Maryoku.wa.Bannou.desu.S02E11.SUBFRENCH.1080p.WEB.x264-AMB3R
2023-12-12 18:00:41 MP3-WEB VA-MIDI_E1NS-(UVMIDI01)-WEB-2023-BABAS
2023-12-12 18:01:03 MP3-WEB VA-SUBSEQUENCE_07-(SUBDGTL007)-WEB-2023-BABAS
2023-12-12 18:01:27 EBOOK Yen.Press.-.Trinity.Seven.Vol.28.The.Seven.Magicians.2023.Retail.Comic.eBook-BitBook
2023-12-12 18:02:41 MP3-WEB Tenzia-Cold_To_The_Touch-(IO028)-WEB-2023-BABAS
2023-12-12 18:07:23 FLAC-WEB Tenzia-Cold_to_the_Touch-(IO028)-16BIT-WEB-FLAC-2023-PTC
2023-12-12 18:07:57 NSW Hammerwatch_2_NSW-VENOM
2023-12-12 18:11:19 EBOOK Ablaze.-.Saint.Seiya.Knights.Of.The.Zodiac.Time.Odyssey.No.03.2023.Hybrid.Comic.eBook-BitBook
2023-12-12 18:13:03 EBOOK Yen.Press.-.Sugar.Apple.Fairy.Tale.Chapter.21.Manga.Serial.2023.Hybrid.Comic.eBook-BitBook
2023-12-12 18:13:20 DOCU Unter.Druck.Das.US.Team.fuer.die.Fussball.WM.der.Frauen.S01E01.GERMAN.DL.DOKU.DV.HDR.1080p.WEB.H265-DMPD
2023-12-12 18:14:05 DOCU Unter.Druck.Das.US.Team.fuer.die.Fussball.WM.der.Frauen.S01E02.GERMAN.DL.DOKU.DV.HDR.1080p.WEB.H265-DMPD
2023-12-12 18:14:44 MP3-WEB Tammo_Hesselink-Work_Work_Work-(MDG023)-WEB-2023-BABAS
2023-12-12 18:14:50 DOCU Unter.Druck.Das.US.Team.fuer.die.Fussball.WM.der.Frauen.S01E03.GERMAN.DL.DOKU.DV.HDR.1080p.WEB.H265-DMPD
2023-12-12 18:15:36 DOCU Unter.Druck.Das.US.Team.fuer.die.Fussball.WM.der.Frauen.S01E04.GERMAN.DL.DOKU.DV.HDR.1080p.WEB.H265-DMPD
2023-12-12 18:16:16 TV-WEB-HD-X264 De.Buurtpolitie.De.Klok.Tikt.S01E37.FLEMISH.1080p.WEB.h264-TRIPEL
2023-12-12 18:16:17 TV-WEB-HD-X264 American.Dad.S19E21.1080p.WEBRip.x264-BAE
2023-12-12 18:16:18 TV-WEB-HD-X264 American.Dad.S19E21.720p.WEBRip.x264-BAE
2023-12-12 18:17:07 MP3-WEB Herr_Nilsson-Shiva_Approaching_Africa-(CDALAB1133)-WEB-2023-PTC
2023-12-12 18:17:31 MP3-WEB Mbivclub-Andra_Tutto_Bene-(CDALAB1064)-WEB-2023-PTC
2023-12-12 18:17:32 MP3-WEB Raybone_Jones-The_Transition_Of_Self-(MG067)-WEB-2023-BABAS
2023-12-12 18:17:40 DOCU Unter.Druck.Das.US.Team.fuer.die.Fussball.WM.der.Frauen.S01E01.GERMAN.DL.DOKU.DV.HDR.720p.WEB.H265-ETM
2023-12-12 18:17:52 EBOOK Yen.Press.-.Unnamed.Memory.Vol.02.Manga.2023.Retail.Comic.eBook-BitBook
2023-12-12 18:17:53 MP3-WEB Agonis-Gamma_Ray-(MDG022)-WEB-2023-BABAS
2023-12-12 18:18:18 MP3-WEB sEEn_Vybe-Bejo-(CDALAB1136)-WEB-2023-PTC
2023-12-12 18:18:25 DOCU Unter.Druck.Das.US.Team.fuer.die.Fussball.WM.der.Frauen.S01E02.GERMAN.DL.DOKU.DV.HDR.720p.WEB.H265-ETM
2023-12-12 18:19:10 DOCU Unter.Druck.Das.US.Team.fuer.die.Fussball.WM.der.Frauen.S01E03.GERMAN.DL.DOKU.DV.HDR.720p.WEB.H265-ETM
2023-12-12 18:19:55 DOCU Unter.Druck.Das.US.Team.fuer.die.Fussball.WM.der.Frauen.S01E04.GERMAN.DL.DOKU.DV.HDR.720p.WEB.H265-ETM
2023-12-12 18:21:19 APPS Icecream.PDF.Editor.Pro.v3.16-LAXiTY
2023-12-12 18:22:57 EBOOK Yen.Press.-.Unnamed.Memory.Vol.03.Manga.2023.Retail.Comic.eBook-BitBook
2023-12-12 18:25:09 MP3-WEB Erika-Anevite_Void_Remixed-(IT52)-WEB-2023-BABAS
2023-12-12 18:27:31 DOCU Neymar.Das.vollkommene.Chaos.S01E01.GERMAN.DL.DOKU.DV.HDR.1080p.WEB.H265-DMPD
2023-12-12 18:28:23 DOCU Neymar.Das.vollkommene.Chaos.S01E02.GERMAN.DL.DOKU.DV.HDR.1080p.WEB.H265-DMPD
2023-12-12 18:29:13 DOCU Neymar.Das.vollkommene.Chaos.S01E03.GERMAN.DL.DOKU.DV.HDR.1080p.WEB.H265-DMPD
2023-12-12 18:30:36 DOCU Neymar.Das.vollkommene.Chaos.S01E01.GERMAN.DL.DOKU.DV.HDR.720p.WEB.H265-ETM
2023-12-12 18:31:24 DOCU Neymar.Das.vollkommene.Chaos.S01E02.GERMAN.DL.DOKU.DV.HDR.720p.WEB.H265-ETM
2023-12-12 18:31:49 EBOOK Yen.Press.-.Visions.2021.Illustrators.Book.2022.Retail.eBook-BitBook
2023-12-12 18:32:13 DOCU Neymar.Das.vollkommene.Chaos.S01E03.GERMAN.DL.DOKU.DV.HDR.720p.WEB.H265-ETM
2023-12-12 18:32:25 X264-HD The.Prophecy.1995.REMASTERED.1080P.BLURAY.X264-WATCHABLE
2023-12-12 18:34:08 X264 The.Prophecy.1995.REMASTERED.BDRIP.X264-WATCHABLE
2023-12-12 18:35:50 X264-HD The.Prophecy.1995.REMASTERED.720P.BLURAY.X264-WATCHABLE
2023-12-12 18:36:00 MP3-WEB Abmarkos-Voyeur_Way-(EER340)-WEB-2023-PTC
2023-12-12 18:36:22 MP3-WEB Ai_Ai_Ai-Quit_the_System-(EER339)-WEB-2023-PTC
2023-12-12 18:36:37 MP3-WEB BK_YATRA-Chakra-(EER336)-SINGLE-WEB-2023-PTC
2023-12-12 18:36:57 MP3-WEB Broder-Annorlunda-(EER334)-SINGLE-WEB-2023-PTC
2023-12-12 18:37:19 MP3-WEB Montcher-Foothills-(EER344)-WEB-2023-PTC
2023-12-12 18:37:44 X264-HD Olaf.Jagger.2022.GERMAN.1080p.WEB.H264-MGE
2023-12-12 18:37:48 X264-HD Olaf.Jagger.2022.GERMAN.720p.WEB.H264-MGE
2023-12-12 18:38:02 MP3-WEB Mouta-Bluebird-(EER337)-SINGLE-WEB-2023-PTC
2023-12-12 18:38:15 MP3-WEB Mr._Grosman-Inside-(EER338)-SINGLE-WEB-2023-PTC
2023-12-12 18:38:29 MP3-WEB Rodri_Santos-Escape_From_Reality-(EER341)-SINGLE-WEB-2023-PTC
2023-12-12 18:38:42 MP3 Shans_(ABC)-Cigarette-(EER335)-WEB-2023-PTC
2023-12-12 18:38:43 X265-HD The.Prophecy.1995.2160P.UHD.BLURAY.X265-WATCHABLE
2023-12-12 18:39:17 EBOOK Yen.Press.-.W.I.T.C.H.The.Graphic.Novel.Part.I.The.Twelve.Portals.Vol.01.2017.Retail.Comic.eBook-BitBook
2023-12-12 18:43:12 EBOOK Yen.Press.-.W.I.T.C.H.The.Graphic.Novel.Part.I.The.Twelve.Portals.Vol.02.2017.Retail.Comic.eBook-BitBook
2023-12-12 18:43:44 MP3-WEB Mathew_Anderson-Quinault_EP-(HG012)-WEB-2023-PTC
2023-12-12 18:48:28 EBOOK Yen.Press.-.W.I.T.C.H.The.Graphic.Novel.Part.I.The.Twelve.Portals.Vol.03.2017.Retail.Comic.eBook-BitBook
2023-12-12 18:48:31 MP3-WEB Hector_Calypzo-Funk_E_Lectric_EP-(ATR087)-WEB-2023-PTC
2023-12-12 18:49:13 TV-WEB-HD-X264 B-Project.3.Netsuretsu.Love.Call.E11.SUBFRENCH.1080p.WEB.x264-AMB3R
2023-12-12 18:49:34 TV-WEB-HD-X264 Dog.Signal.E08.SUBFRENCH.1080p.WEB.x264-AMB3R
2023-12-12 18:49:51 TV-WEB-HD-X264 Helck.E23.SUBFRENCH.1080p.WEB.x264-AMB3R
2023-12-12 18:50:09 TV-WEB-HD-X264 Seiken.Gakuin.no.Maken.Tsukai.E11.SUBFRENCH.1080p.WEB.x264-AMB3R
2023-12-12 18:51:30 MP3-WEB Antiego-The_Great_Journey-(4AR195)-WEB-2023-PTC
2023-12-12 18:52:16 NSW Hammerwatch_2_Anniversary_Pack_DLC_Unlocker_NSW-VENOM
2023-12-12 18:54:23 EBOOK Yen.Press.-.W.I.T.C.H.The.Graphic.Novel.Part.II.Nerissa.s.Revenge.Vol.01.2018.Retail.Comic.eBook-BitBook
2023-12-12 18:54:45 TV-WEB-HD-X264 Banshee.S04E03.The.Book.of.Job.CZECH.DUAL.1080p.WEB.H264-SDTV
2023-12-12 18:58:15 EBOOK Yen.Press.-.W.I.T.C.H.The.Graphic.Novel.Part.II.Nerissa.s.Revenge.Vol.02.2018.Retail.Comic.eBook-BitBook
2023-12-12 18:58:20 TV-WEB-HD-X264 Banshee.S04E04.Innocent.Might.Be.a.Bit.of.a.Stretch.CZECH.DUAL.1080p.WEB.H264-SDTV
2023-12-12 18:59:28 NSW Trombone_Champ_Update_v1.25A_NSW-VENOM
2023-12-12 18:59:47 MP3-WEB Karnal-Function_One_EP-(RDCT016)-WEB-2023-PTC
2023-12-12 19:00:19 MP3-WEB Aksel-Between_2_Minds__Galapagos-(RDCT019)-WEB-2023-PTC
2023-12-12 19:01:03 X264-HD PAW.Patrol.The.Mighty.Movie.2023.1080p.BluRay.x264-CAUSTiC
2023-12-12 19:02:29 EBOOK Yen.Press.-.W.I.T.C.H.The.Graphic.Novel.Part.II.Nerissa.s.Revenge.Vol.03.2018.Retail.Comic.eBook-BitBook
2023-12-12 19:06:11 NSW Hogwarts_Legacy_Update_v1.0.2_NSW-VENOM
2023-12-12 19:06:28 MP3-WEB Big_Dope_P-Pop_My_Shit__Vibe_94-(MTXLT740)-WEB-2023-PTC
2023-12-12 19:06:29 EBOOK Yen.Press.-.W.I.T.C.H.The.Graphic.Novel.Part.III.A.Crisis.On.Both.Worlds.Vol.01.2018.Retail.Comic.eBook-BitBook
2023-12-12 19:08:52 NSW Potion_Craft_Alchemist_Simulator_NSW-VENOM
2023-12-12 19:09:19 MP3-WEB Flex_Blur-2RUE-(MTXLT741A)-SINGLE-WEB-2023-PTC
2023-12-12 19:10:24 TV-HD-X265 All.the.Old.Knives.2022.CZECH.1080p.HDTV.x265-iCZi
2023-12-12 19:10:25 EBOOK Yen.Press.-.W.I.T.C.H.The.Graphic.Novel.Part.III.A.Crisis.On.Both.Worlds.Vol.02.2018.Retail.Comic.eBook-BitBook
2023-12-12 19:14:16 EBOOK Yen.Press.-.W.I.T.C.H.The.Graphic.Novel.Part.III.A.Crisis.On.Both.Worlds.Vol.03.2018.Retail.Comic.eBook-BitBook
2023-12-12 19:14:44 X264-HD PAW.Patrol.The.Mighty.Movie.2023.720p.BluRay.x264-CAUSTiC
2023-12-12 19:17:05 MP3-WEB Joy_Sunder_-_Youre_Mine-(BEM0523)-WEB-2023-ZzZz
2023-12-12 19:18:54 EBOOK Yen.Press.-.W.I.T.C.H.The.Graphic.Novel.Part.IV.Trial.Of.The.Oracle.Vol.01.2018.Retail.Comic.eBook-BitBook
2023-12-12 19:22:29 X264 PAW.Patrol.The.Mighty.Movie.2023.BDRip.x264-CAUSTiC
2023-12-12 19:25:33 EBOOK Yen.Press.-.W.I.T.C.H.The.Graphic.Novel.Part.IV.Trial.Of.The.Oracle.Vol.02.2018.Retail.Comic.eBook-BitBook
2023-12-12 19:29:21 EBOOK Yen.Press.-.W.I.T.C.H.The.Graphic.Novel.Part.IV.Trial.Of.The.Oracle.Vol.03.2018.Retail.Comic.eBook-BitBook
2023-12-12 19:32:59 EBOOK Yen.Press.-.W.I.T.C.H.The.Graphic.Novel.Part.IX.100.W.I.T.C.H.Vol.01.2021.Retail.Comic.eBook-BitBook
2023-12-12 19:33:49 MP3-WEB AKSAR-Palm_Trees-SINGLE-WEB-FR-2023-OND
2023-12-12 19:35:51 MP3-WEB Insa-Les_Murs_Le_Ciel-SINGLE-WEB-FR-2023-OND
2023-12-12 19:36:21 EBOOK Yen.Press.-.W.I.T.C.H.The.Graphic.Novel.Part.IX.100.W.I.T.C.H.Vol.02.2022.Retail.Comic.eBook-BitBook
2023-12-12 19:37:50 MP3-WEB Le_Reglement-Reglement_Freestyle_Saison_5-(Reedition)-WEB-FR-2023-OND
2023-12-12 19:39:43 EBOOK Yen.Press.-.W.I.T.C.H.The.Graphic.Novel.Part.IX.100.W.I.T.C.H.Vol.03.2022.Retail.Comic.eBook-BitBook
2023-12-12 19:39:51 MP3-WEB Prince_Waly-Charm_El-Cheikh-SINGLE-WEB-FR-2023-OND
2023-12-12 19:41:52 MP3-WEB T.I.S-MINUIT_PILE-WEB-FR-2023-OND
2023-12-12 19:43:45 EBOOK Yen.Press.-.W.I.T.C.H.The.Graphic.Novel.Part.V.The.Book.Of.Elements.Vol.01.2019.Retail.Comic.eBook-BitBook
2023-12-12 19:43:52 MP3-WEB Tovaritch-Systema-WEB-FR-2023-OND
2023-12-12 19:47:56 EBOOK Yen.Press.-.W.I.T.C.H.The.Graphic.Novel.Part.V.The.Book.Of.Elements.Vol.02.2019.Retail.Comic.eBook-BitBook
2023-12-12 19:51:44 EBOOK Yen.Press.-.W.I.T.C.H.The.Graphic.Novel.Part.V.The.Book.Of.Elements.Vol.03.2019.Retail.Comic.eBook-BitBook
2023-12-12 19:52:23 TV-WEB-HD-X264 Lang.Leve.De.Liefde.S06E77.DUTCH.1080p.WEB.h264-TRIPEL
2023-12-12 19:55:20 EBOOK Yen.Press.-.W.I.T.C.H.The.Graphic.Novel.Part.V.The.Book.Of.Elements.Vol.04.2019.Retail.Comic.eBook-BitBook
2023-12-12 19:58:05 ANiME OVERTAKE.S01E08.720p.WEB.H264-SKYANiME
2023-12-12 19:59:17 EBOOK Yen.Press.-.W.I.T.C.H.The.Graphic.Novel.Part.VI.Ragorlang.Vol.01.2019.Retail.Comic.eBook-BitBook
2023-12-12 20:00:02 BLURAY PAW.Patrol.The.Mighty.Movie.2023.COMPLETE.BLURAY-ALKALiNE
2023-12-12 20:00:22 MP3-WEB Nemini_Parco-Tempus_Fugit-(406724_8313664)-WEB-2023-EBM
2023-12-12 20:00:46 MP3-WEB Turvia-Death_Deluxe-(DMT777)-WEB-2023-EBM
2023-12-12 20:00:47 ANiME Pantheon.S01E04.GERMAN.ANiME.1080p.WEB.H264-MGE
2023-12-12 20:01:37 MP3-WEB VA-Gloom_II-(CKR056)-WEB-2023-EBM
2023-12-12 20:02:18 ANiME Pantheon.S01E04.GERMAN.ANiME.720p.WEB.H264-MGE
2023-12-12 20:03:39 EBOOK Yen.Press.-.W.I.T.C.H.The.Graphic.Novel.Part.VI.Ragorlang.Vol.02.2019.Retail.Comic.eBook-BitBook
2023-12-12 20:04:31 ANiME Pantheon.S01E05.GERMAN.ANiME.1080p.WEB.H264-MGE
2023-12-12 20:05:48 ANiME Pantheon.S01E05.GERMAN.ANiME.720p.WEB.H264-MGE
2023-12-12 20:07:08 EBOOK Yen.Press.-.W.I.T.C.H.The.Graphic.Novel.Part.VI.Ragorlang.Vol.03.2020.Retail.Comic.eBook-BitBook
2023-12-12 20:10:50 EBOOK Yen.Press.-.W.I.T.C.H.The.Graphic.Novel.Part.VII.New.Power.Vol.01.2020.Retail.Comic.eBook-BitBook
2023-12-12 20:12:49 MP3-WEB Stryx_-_Nella_Testa-SINGLE-WEB-IT-2023-UOVA
2023-12-12 20:14:00 X265-HD Allegiant.2016.MULTi.TRUEFRENCH.2160p.UHD.BluRay.x265-SHiNiGAMiUHD
2023-12-12 20:14:34 EBOOK Yen.Press.-.W.I.T.C.H.The.Graphic.Novel.Part.VII.New.Power.Vol.02.2020.Retail.Comic.eBook-BitBook
2023-12-12 20:14:48 MP3-WEB 2ENTY3HREE_-_Voyage_Pt_3-SINGLE-WEB-IT-2023-UOVA
2023-12-12 20:15:00 X264 Korowod.2007.POLISH.WEB.H264-FLAME
2023-12-12 20:15:08 MP3-WEB Elkka--DJ_Friendly_(Chloe_Robinson_and_DJ_ADHD_Remix)-(ZENDNLS657CW)-WEB-2023-OMA
2023-12-12 20:15:14 TV-WEB-HD-X264 Familie.S33E77.FLEMISH.1080p.WEB.h264-TRIPEL
2023-12-12 20:15:52 X264-HD Korowod.2007.POLISH.720p.WEB.H264-FLAME
2023-12-12 20:16:17 MP3-WEB Alba_Modugno_-_Slancio-SINGLE-WEB-IT-2023-UOVA
2023-12-12 20:16:19 X264-HD Korowod.2007.POLISH.1080p.WEB.H264-FLAME
2023-12-12 20:17:19 X264 Suplement.2002.POLISH.WEB.H264-FLAME
2023-12-12 20:17:26 MP3-WEB Alessio_Marucci_-_Il_Mio_Sempre-SINGLE-WEB-IT-2023-UOVA
2023-12-12 20:17:42 X264-HD Suplement.2002.POLISH.720p.WEB.H264-FLAME
2023-12-12 20:18:22 X264-HD Suplement.2002.POLISH.1080p.WEB.H264-FLAME
2023-12-12 20:18:33 BLURAY Big.Trip.2.Special.Delivery.2022.MULTi.COMPLETE.BLURAY-SharpHD
2023-12-12 20:18:42 EBOOK Yen.Press.-.W.I.T.C.H.The.Graphic.Novel.Part.VII.New.Power.Vol.03.2021.Retail.Comic.eBook-BitBook
2023-12-12 20:19:16 X264 Rewizyta.2009.POLISH.WEB.H264-FLAME
2023-12-12 20:19:44 X264-HD Rewizyta.2009.POLISH.720p.WEB.H264-FLAME
2023-12-12 20:19:46 XXX-iMAGESET ATKPremium.com_23.12.12.Sandy.XXX.IMAGESET-FuGLi
2023-12-12 20:19:57 X264-HD Mission.Babybaer.Eine.tierische.Tour.2022.German.720p.BluRay.x264-PL3X
2023-12-12 20:20:22 X264-HD Rewizyta.2009.POLISH.1080p.WEB.H264-FLAME
2023-12-12 20:20:38 MP3-WEB Noel_Gallaghers_High_Flying_Birds--Abbey_Road_Sessions-WEB-2023-OMA
2023-12-12 20:22:10 X264 Pregi.2004.POLISH.WEB.H264-FLAME
2023-12-12 20:22:32 EBOOK Yen.Press.-.W.I.T.C.H.The.Graphic.Novel.Part.VIII.Teach.2B.W.I.T.C.H.Vol.01.2021.Retail.Comic.eBook-BitBook
2023-12-12 20:22:33 X264-HD Pregi.2004.POLISH.720p.WEB.H264-FLAME
2023-12-12 20:22:57 X264-HD Day.Zero.2022.German.1080p.BluRay.x264.RERiP-PL3X
2023-12-12 20:22:57 X264-HD Pregi.2004.POLISH.1080p.WEB.H264-FLAME
2023-12-12 20:23:40 X264 Zblizenia.2014.POLISH.WEB.H264-FLAME
2023-12-12 20:24:09 X264-HD Zblizenia.2014.POLISH.720p.WEB.H264-FLAME
2023-12-12 20:24:33 X264-HD Zblizenia.2014.POLISH.1080p.WEB.H264-FLAME
2023-12-12 20:25:05 X264-HD Day.Zero.2022.German.720p.BluRay.x264.RERiP-PL3X
2023-12-12 20:25:34 X264 Close-ups.2014.WEB.H264-FLAME
2023-12-12 20:25:35 TV-WEB-HD-X264 Celebrity.Squares.US.S01E13.1080p.WEB.h264-BAE
2023-12-12 20:25:37 TV-WEB-HD-X264 Celebrity.Squares.US.S01E13.720p.WEB.h264-BAE
2023-12-12 20:25:38 TV-WEB-HD-X264 Family.Feud.Canada.S05E50.1080p.WEB.h264-BAE
2023-12-12 20:25:40 TV-WEB-HD-X264 Listing.Large.S01E09.1080p.WEB.h264-BAE
2023-12-12 20:25:41 TV-WEB-HD-X264 Family.Feud.Canada.S05E50.720p.WEB.h264-BAE
2023-12-12 20:25:42 TV-WEB-HD-X264 Listing.Large.S01E09.720p.WEB.h264-BAE
2023-12-12 20:25:43 TV-WEB-HD-X264 The.Good.Stuff.with.Mary.Berg.2023.12.11.1080p.WEB.h264-BAE
2023-12-12 20:25:45 TV-WEB-HD-X264 The.Good.Stuff.with.Mary.Berg.2023.12.11.720p.WEB.h264-BAE
2023-12-12 20:26:11 X264-HD Close-ups.2014.720p.WEB.H264-FLAME
2023-12-12 20:26:20 X264-HD PAW.Patrol.The.Mighty.Movie.2023.DANiSH.720p.BluRay.x264-RCDiVX
2023-12-12 20:26:22 X264 Day.Zero.German.2022.AC3.BDRiP.x264.RERiP-PL3X
2023-12-12 20:26:31 X264-HD Close-ups.2014.1080p.WEB.H264-FLAME
2023-12-12 20:26:32 EBOOK Yen.Press.-.W.I.T.C.H.The.Graphic.Novel.Part.VIII.Teach.2B.W.I.T.C.H.Vol.02.2021.Retail.Comic.eBook-BitBook
2023-12-12 20:27:58 X264 PAW.Patrol.The.Mighty.Movie.2023.DANiSH.BDRip.x264-RCDiVX
2023-12-12 20:29:08 X264-HD PAW.Patrol.The.Mighty.Movie.2023.DANiSH.1080p.BluRay.x264-RCDiVX
2023-12-12 20:29:44 TV-HD-X264 Tatort.E0167.German.FS.720p.BluRay.x264-PL3X
2023-12-12 20:30:24 TV-WEB-HD-X264 Huis.Gemaakt.S03E12.FLEMISH.1080p.WEB.h264-TRIPEL
2023-12-12 20:30:40 TV-WEB-HD-X264 Bauer.sucht.Frau.S19E09.GERMAN.720p.WEB.h264-HAXE
2023-12-12 20:30:46 TV-WEB-HD-X264 Bauer.sucht.Frau.S19E09.GERMAN.1080p.WEB.h264-HAXE
2023-12-12 20:30:49 TV-X264 Tatort.E0167.German.FS.REMASTERED.BDRiP.x264-PL3X
2023-12-12 20:31:14 EBOOK Yen.Press.-.W.I.T.C.H.The.Graphic.Novel.Part.VIII.Teach.2B.W.I.T.C.H.Vol.03.2021.Retail.Comic.eBook-BitBook
2023-12-12 20:31:15 X264-HD PAW.Patrol.The.Mighty.Movie.2023.SWEDiSH.720p.BluRay.x264-RCDiVX
2023-12-12 20:32:30 X264 PAW.Patrol.The.Mighty.Movie.2023.SWEDiSH.BDRip.x264-RCDiVX
2023-12-12 20:33:27 TV-HD-X264 Tatort.E0171.German.FS.1080p.BluRay.x264-PL3X
2023-12-12 20:33:54 X264-HD PAW.Patrol.The.Mighty.Movie.2023.SWEDiSH.1080p.BluRay.x264-RCDiVX
2023-12-12 20:34:26 EBOOK Yen.Press.-.W.I.T.C.H.The.Graphic.Novel.Part.X.Ladies.Vs.W.I.T.C.H.Vol.02.2023.Retail.Comic.eBook-BitBook
2023-12-12 20:35:38 TV-HD-X264 Tatort.E0171.German.FS.720p.BluRay.x264-PL3X
2023-12-12 20:36:23 X264-HD PAW.Patrol.The.Mighty.Movie.2023.NORWEGiAN.720p.BluRay.x264-RCDiVX
2023-12-12 20:36:42 TV-X264 Tatort.E0171.German.FS.REMASTERED.BDRiP.x264-PL3X
2023-12-12 20:37:48 X264 PAW.Patrol.The.Mighty.Movie.2023.NORWEGiAN.BDRip.x264-RCDiVX
2023-12-12 20:38:34 FLAC-WEB B.B._King-A_Christmas_Celebration_Of_Hope-16BIT-WEB-FLAC-2001-OBZEN
2023-12-12 20:39:07 EBOOK Yen.Press.-.Wizards.Of.Mickey.Vol.01.Origins.2020.Retail.Comic.eBook-BitBook
2023-12-12 20:39:10 X264-HD PAW.Patrol.The.Mighty.Movie.2023.NORWEGiAN.1080p.BluRay.x264-RCDiVX
2023-12-12 20:39:37 FLAC-WEB B.B._King-B.B._King_Sings_Spirituals-REMASTERED-16BIT-WEB-FLAC-2009-OBZEN
2023-12-12 20:39:43 TV-HD-X264 Tatort.E0180.German.FS.1080p.BluRay.x264-PL3X
2023-12-12 20:40:40 FLAC-WEB B.B._King-B.B._King_Wails-REMASTERED-16BIT-WEB-FLAC-2012-OBZEN
2023-12-12 20:41:14 X264-HD PAW.Patrol.The.Mighty.Movie.2023.FiNNiSH.720p.BluRay.x264-RCDiVX
2023-12-12 20:41:43 FLAC-WEB B.B._King-B.B._King_and_Friends_80-16BIT-WEB-FLAC-2005-OBZEN
2023-12-12 20:41:51 TV-HD-X264 Tatort.E0180.German.FS.720p.BluRay.x264-PL3X
2023-12-12 20:42:31 X264 PAW.Patrol.The.Mighty.Movie.2023.FiNNiSH.BDRip.x264-RCDiVX
2023-12-12 20:42:46 FLAC-WEB B.B._King-Blues_In_My_Heart-REMASTERED-16BIT-WEB-FLAC-2009-OBZEN
2023-12-12 20:42:52 TV-X264 Tatort.E0180.German.FS.REMASTERED.BDRiP.x264-PL3X
2023-12-12 20:43:48 FLAC-WEB B.B._King-Blues_N_Jazz-REISSUE-16BIT-WEB-FLAC-2012-OBZEN
2023-12-12 20:43:53 X264-HD PAW.Patrol.The.Mighty.Movie.2023.FiNNiSH.1080p.BluRay.x264-RCDiVX
2023-12-12 20:43:54 EBOOK Yen.Press.-.Wizards.Of.Mickey.Vol.02.The.Dark.Age.2021.Retail.Comic.eBook-BitBook
2023-12-12 20:44:50 FLAC-WEB B.B._King-Blues_On_The_Bayou-16BIT-WEB-FLAC-1998-OBZEN
2023-12-12 20:45:27 TV-HD-X264 Tatort.E0184.German.FS.1080p.BluRay.x264-PL3X
2023-12-12 20:45:53 FLAC-WEB B.B._King-Blues_Summit-16BIT-WEB-FLAC-1993-OBZEN
2023-12-12 20:46:56 FLAC-WEB B.B._King-Confessin_The_Blues-REISSUE-16BIT-WEB-FLAC-2004-OBZEN
2023-12-12 20:47:12 TV-HD-X264 Tatort.E0184.German.FS.720p.BluRay.x264-PL3X
2023-12-12 20:47:22 TV-WEB-HD-X264 De.Bondgenoten.S01E37.DUTCH.1080p.WEB.h264-TRIPEL
2023-12-12 20:47:58 FLAC-WEB B.B._King-Deuces_Wild-16BIT-WEB-FLAC-1997-OBZEN
2023-12-12 20:48:12 TV-X264 Tatort.E0184.German.FS.REMASTERED.BDRiP.x264-PL3X
2023-12-12 20:48:59 TV-WEB-HD-X264 Born.in.Synanon.S01E02.1080p.WEB.h264-EDITH
2023-12-12 20:49:00 EBOOK Yen.Press.-.Wizards.Of.Mickey.Vol.03.2021.Retail.Comic.eBook-BitBook
2023-12-12 20:49:01 FLAC-WEB B.B._King-Easy_Listening_Blues-REMASTERED-16BIT-WEB-FLAC-2012-OBZEN
2023-12-12 20:49:30 TV-WEB-HD-X264 Born.in.Synanon.S01E02.720p.WEB.h264-EDITH
2023-12-12 20:50:03 FLAC-WEB B.B._King-Guess_Who-REISSUE-16BIT-WEB-FLAC-2015-OBZEN
2023-12-12 20:50:07 TV-WEB-HD-X264 Born.in.Synanon.S01E04.1080p.WEB.h264-EDITH
2023-12-12 20:50:40 TV-WEB-HD-X264 Born.in.Synanon.S01E04.720p.WEB.h264-EDITH
2023-12-12 20:50:41 TV-HD-X264 Tatort.E0188.German.FS.1080p.BluRay.x264-PL3X
2023-12-12 20:51:06 FLAC-WEB B.B._King-King_Of_The_Blues-REMASTERED-16BIT-WEB-FLAC-2012-OBZEN
2023-12-12 20:52:09 FLAC-WEB B.B._King-Let_The_Good_Times_Roll_The_Music_Of_Louis_Jordan-16BIT-WEB-FLAC-1999-OBZEN
2023-12-12 20:52:17 TV-HD-X264 Hilfe.ich.habe.Weihnachten.geerbt.2015.GERMAN.DL.1080p.HDTV.x264-Pumuck
2023-12-12 20:52:19 TV-HD-X264 Tatort.E0188.German.FS.720p.BluRay.x264-PL3X
2023-12-12 20:53:21 TV-X264 Tatort.E0188.German.FS.REMASTERED.BDRiP.x264-PL3X
2023-12-12 20:53:34 EBOOK Yen.Press.-.Wizards.Of.Mickey.Vol.04.2021.Retail.Comic.eBook-BitBook
2023-12-12 20:54:08 TV-HD-X264 Hilfe.ich.habe.Weihnachten.geerbt.2015.GERMAN.DL.720p.HDTV.x264-Pumuck
2023-12-12 20:55:45 TV-HD-X264 Valdes.Jul.S01E12.DANiSH.720p.HDTV.x264-RCDiVX
2023-12-12 20:56:04 TV-HD-X264 Tatort.E0194.German.FS.1080p.BluRay.x264-PL3X
2023-12-12 20:56:12 TV-X264 Hilfe.ich.habe.Weihnachten.geerbt.GERMAN.2015.WS.HDTVRip.x264-Pumuck
2023-12-12 20:56:37 TV-X264 Valdes.Jul.S01E12.DANiSH.HDTV.x264-RCDiVX
2023-12-12 20:57:27 FLAC-WEB B.B._King-Live-16BIT-WEB-FLAC-1991-OBZEN
2023-12-12 20:57:50 TV-HD-X264 Tatort.E0194.German.FS.720p.BluRay.x264-PL3X
2023-12-12 20:58:08 GAMES All_I_want_for_Christmas_are_Subgames_Collectors_Edition-RAZOR
2023-12-12 20:58:55 TV-X264 Tatort.E0194.German.FS.REMASTERED.BDRiP.x264-PL3X
2023-12-12 21:00:06 FLAC-WEB B.B._King-Live_At_San_Quentin-REISSUE-16BIT-WEB-FLAC-2001-OBZEN
2023-12-12 21:01:09 FLAC-WEB B.B._King-Live_At_The_Apollo-REISSUE-16BIT-WEB-FLAC-2008-OBZEN
2023-12-12 21:02:12 FLAC-WEB B.B._King-Live_Now_Appearing_At_Ole_Miss-REMASTERED-16BIT-WEB-FLAC-2007-OBZEN
2023-12-12 21:03:15 FLAC-WEB B.B._King-Love_Me_Tender-REISSUE-16BIT-WEB-FLAC-1991-OBZEN
2023-12-12 21:03:47 MP3-WEB ScholarMan-Crisis_Mode-EP-WEB-2023-UVU
2023-12-12 21:04:18 FLAC-WEB B.B._King-Makin_Love_Is_Good_For_You-EXPANDED_EDITION-16BIT-WEB-FLAC-2000-OBZEN
2023-12-12 21:05:20 FLAC-WEB B.B._King-More_B.B._King-REMASTERED-16BIT-WEB-FLAC-2009-OBZEN
2023-12-12 21:06:26 FLAC-WEB B.B._King-Mr._Blues-REMASTERED-16BIT-WEB-FLAC-2022-OBZEN
2023-12-12 21:07:29 FLAC-WEB B.B._King-My_Kind_Of_Blues-REMASTERED-16BIT-WEB-FLAC-2016-OBZEN
2023-12-12 21:08:32 FLAC-WEB B.B._King-Singin_The_Blues-REMASTERED-16BIT-WEB-FLAC-2015-OBZEN
2023-12-12 21:09:35 FLAC-WEB B.B._King-Six_Silver_Strings-REISSUE-16BIT-WEB-FLAC-2007-OBZEN
2023-12-12 21:10:38 FLAC-WEB B.B._King-Take_It_Home-REMASTERED-24BIT-96KHZ-WEB-FLAC-2021-OBZEN
2023-12-12 21:11:41 FLAC-WEB B.B._King-The_Blues-REMASTERED-16BIT-WEB-FLAC-2009-OBZEN
2023-12-12 21:12:37 MP3-WEB Club_Cab_x_Generator-Overdrive-(PHLTRX058)-WEB-2023-BABAS
2023-12-12 21:12:44 FLAC-WEB B.B._King-The_Soul_Of_B.B._King-REMASTERED-16BIT-WEB-FLAC-2022-OBZEN
2023-12-12 21:13:47 FLAC-WEB B.B._King-There_Is_Always_One_More_Time-REISSUE-16BIT-WEB-FLAC-2000-OBZEN
2023-12-12 21:14:50 FLAC-WEB B.B._King-There_Must_Be_A_Better_World_Somewhere-REISSUE-16BIT-WEB-FLAC-1991-OBZEN
2023-12-12 21:15:53 FLAC-WEB Bobby_Blue_Bland_and_B.B._King-I_Like_To_Live_The_Love-16BIT-WEB-FLAC-1993-OBZEN
2023-12-12 21:16:56 FLAC-WEB Bobby_Blue_Bland_and_B.B._King-Together_Again._Live-REISSUE-16BIT-WEB-FLAC-2015-OBZEN
2023-12-12 21:17:58 FLAC-WEB Edgar_Winter-Entrance_(Expanded_Edition)-REMASTERED-16BIT-WEB-FLAC-2012-OBZEN
2023-12-12 21:19:01 FLAC-WEB Joe_Bonamassa-Merry_Christmas_Baby-16BIT-WEB-FLAC-2023-OBZEN
2023-12-12 21:20:05 FLAC-WEB Joe_Bonamassa-Merry_Christmas_Blues-16BIT-WEB-FLAC-2016-OBZEN
2023-12-12 21:21:07 FLAC-WEB Johnny_Winter-3rd_Degree-REMASTERED-16BIT-WEB-FLAC-2011-OBZEN
2023-12-12 21:22:09 FLAC-WEB Johnny_Winter-About_Blues-REMASTERED-16BIT-WEB-FLAC-2015-OBZEN
2023-12-12 21:22:15 TV-HD-X264 Weihnachten.wie.im.Bilderbuch.2019.GERMAN.DL.1080p.HDTV.x264-Pumuck
2023-12-12 21:24:05 TV-HD-X264 Weihnachten.wie.im.Bilderbuch.2019.GERMAN.DL.720p.HDTV.x264-Pumuck
2023-12-12 21:24:46 FLAC-WEB Johnny_Winter-Before_The_Storm-REMASTERED-16BIT-WEB-FLAC-2014-OBZEN
2023-12-12 21:25:48 FLAC-WEB Johnny_Winter-Captured_Live_(Live_In_California_September_1975)-REISSUE-16BIT-WEB-FLAC-2011-OBZEN
2023-12-12 21:26:04 TV-X264 Weihnachten.wie.im.Bilderbuch.GERMAN.2019.WS.HDTVRip.x264-Pumuck
2023-12-12 21:26:52 FLAC-WEB Johnny_Winter-Early_Times-REMASTERED-16BIT-WEB-FLAC-2015-OBZEN
2023-12-12 21:27:55 FLAC-WEB Johnny_Winter-First_Winter-REMASTERED-16BIT-WEB-FLAC-2016-OBZEN
2023-12-12 21:28:57 FLAC-WEB Johnny_Winter-Guitar_Slinger-REMASTERED-16BIT-WEB-FLAC-2021-OBZEN
2023-12-12 21:30:00 FLAC-WEB Johnny_Winter-Hey_Wheres_Your_Brother-16BIT-WEB-FLAC-1992-OBZEN
2023-12-12 21:30:13 X265-HD D.A.R.Y.L.1985.2160p.UHD.BluRay.x265-B0MBARDiERS
2023-12-12 21:30:19 TV-WEB-HD-X264 De.Slimste.Mens.Ter.Wereld.S21E34.FLEMISH.1080p.WEB.h264-TRIPEL
2023-12-12 21:31:04 FLAC-WEB Johnny_Winter-I_Got_To_Run_(Live_New_York_80)-16BIT-WEB-FLAC-2023-OBZEN
2023-12-12 21:31:27 EBOOK Herge.Tintin.et.les.americains.2020.FRENCH.HYBRiD.COMiC.CBZ.eBook-TONER
2023-12-12 21:31:48 EBOOK Herge.Tintin.et.les.avions.2018.FRENCH.HYBRiD.COMiC.CBZ.eBook-TONER
2023-12-12 21:32:06 FLAC-WEB Johnny_Winter-John_Dawson_Winter_III-REMASTERED-16BIT-WEB-FLAC-2011-OBZEN
2023-12-12 21:32:08 EBOOK Les.Aventures.de.Jo.Zette.et.Jocko.T01.Le.testament.de.M.Pump.FRENCH.HYBRiD.COMiC.CBZ.eBook-TONER
2023-12-12 21:32:27 EBOOK Les.Aventures.de.Jo.Zette.et.Jocko.T02.Destination.New-York.FRENCH.HYBRiD.COMiC.CBZ.eBook-TONER
2023-12-12 21:32:47 MP3-WEB Countree_Hype-Cosa_Nostra_EP-WEB-2023-PaB
2023-12-12 21:32:49 EBOOK Les.Aventures.de.Jo.Zette.et.Jocko.T03.Le.Rayon.du.Mystere.1er.episode.Le.Manitoba.ne.repond.plus.FRENCH.HYBRiD.COMiC.CBZ.eBook-TONER
2023-12-12 21:33:07 EBOOK Les.Aventures.de.Jo.Zette.et.Jocko.T04.Le.Rayon.du.Mystere.2e.episode.L.eruption.du.Karamako.FRENCH.HYBRiD.COMiC.CBZ.eBook-TONER
2023-12-12 21:33:09 FLAC-WEB Johnny_Winter-Johnny_Winter_And-REMASTERED-16BIT-WEB-FLAC-2000-OBZEN
2023-12-12 21:33:28 EBOOK Les.Aventures.de.Jo.Zette.et.Jocko.T05.La.vallee.des.cobras.FRENCH.HYBRiD.COMiC.CBZ.eBook-TONER
2023-12-12 21:33:48 EBOOK Popol.et.Virginie.chez.les.Lapinos.FRENCH.HYBRiD.COMiC.CBZ.eBook-TONER
2023-12-12 21:34:07 EBOOK Tintin.Haddock.et.les.bateaux.FRENCH.HYBRiD.COMiC.CBZ.eBook-TONER
2023-12-12 21:34:11 FLAC-WEB Johnny_Winter-Johnny_Winter_And__Live_(Live_At_The_Fillmore_East_NYC_NY_1970)-REMASTERED-16BIT-WEB-FLAC-2011-OBZEN
2023-12-12 21:35:16 FLAC-WEB Johnny_Winter-Johnny_Winter_The_Woodstock_Experience-LIMITED_EDITION-16BIT-WEB-FLAC-2009-OBZEN
2023-12-12 21:35:50 MP3-WEB Cutty_Ranks-Hundred_Duppy-Single-WEB-2023-PaB
2023-12-12 21:36:19 FLAC-WEB Johnny_Winter-Liberty_Hall_Sessions_Featuring_Jimmy_Reed-16BIT-WEB-FLAC-2001-OBZEN
2023-12-12 21:37:21 FLAC-WEB Johnny_Winter-Live_At_Park_West_In_Chicago_August_24th_1978_(Live)-EP-16BIT-WEB-FLAC-2017-OBZEN
2023-12-12 21:38:25 FLAC-WEB Johnny_Winter-Live_At_The_Texas_Opry_House-16BIT-WEB-FLAC-2007-OBZEN
2023-12-12 21:38:50 MP3-WEB Dub_Judah_And_Kibir_La_Amlak-Best_Foot_Forward-EP-WEB-2023-PaB
2023-12-12 21:39:28 FLAC-WEB Johnny_Winter-Live_From_Japan-16BIT-WEB-FLAC-2015-OBZEN
2023-12-12 21:40:16 TV-WEB-HD-X264 Boerderij.Van.Dorst.S03E06.DUTCH.1080p.WEB.h264-TRIPEL
2023-12-12 21:40:31 FLAC-WEB Johnny_Winter-Live_In_Houston_Busted_In_Austin-REISSUE-16BIT-WEB-FLAC-2007-OBZEN
2023-12-12 21:41:33 FLAC-WEB Johnny_Winter-Lone_Star_Shootout-16BIT-WEB-FLAC-2006-OBZEN
2023-12-12 21:41:42 TV-WEB-HD-X264 Zeeman.Confronteert.S04E04.DUTCH.1080p.WEB.h264-TRIPEL
2023-12-12 21:41:52 MP3-WEB Mr_Vegas_And_Panta_Son-Loyalty-Single-WEB-2023-PaB
2023-12-12 21:42:36 FLAC-WEB Johnny_Winter-Nothin_But_The_Blues-REMASTERED-16BIT-WEB-FLAC-2011-OBZEN
2023-12-12 21:43:39 FLAC-WEB Johnny_Winter-Packed_Up_My_Suitcase_(Live_1970)-EP-16BIT-WEB-FLAC-2021-OBZEN
2023-12-12 21:44:26 TV-WEB-HD-X264 Familie.Gillis.Massa.Is.Kassa.S11E07.DUTCH.1080p.WEB.h264-TRIPEL
2023-12-12 21:44:41 FLAC-WEB Johnny_Winter-Please_Come_Home_For_Christmas-REMASTERED_DIGITAL_45-16BIT-WEB-FLAC-2021-OBZEN
2023-12-12 21:44:57 MP3-WEB Sizzla-Fire_Bun-Single-WEB-2023-PaB
2023-12-12 21:45:52 FLAC-WEB Johnny_Winter-Raisin_Cain-REISSUE-16BIT-WEB-FLAC-2007-OBZEN
2023-12-12 21:46:07 FLAC-WEB Johnny_Winter-Roots-16BIT-WEB-FLAC-2011-OBZEN
2023-12-12 21:46:25 MBLURAY Blue.Oyster.Cult.50th.Anniversary.Live.In.NYC.First.Night.2022.1080p.MBluRay.x264-403
2023-12-12 21:46:33 MP3-WEB Argonnight_And_Enarxis-Sensual_Transit-(TAD014)-WEB-2014-FALCON
2023-12-12 21:46:46 MP3-WEB Merlin-Wrong_Alchemy-(MAY0062023)-WEB-2023-FALCON
2023-12-12 21:46:59 MP3-WEB Dompe-Groove_It_Up-(JACKFRUIT055)-WEB-2023-FALCON
2023-12-12 21:47:14 MP3-WEB Sans_Souci-Cabrillo-SINGLE-WEB-2023-FALCON
2023-12-12 21:47:28 MP3-WEB Potmouz-The_Vision_Of_A_Wizard-(TRA07)-WEB-2023-FALCON
2023-12-12 21:47:41 MP3-WEB VA-Emergency_Landing-(TRA02)-WEB-2022-FALCON
2023-12-12 21:47:55 MP3-WEB Ninxz-The_Unknown-(TRA08)-WEB-2023-FALCON
2023-12-12 21:48:11 MP3-WEB Lymphocyte-Morning_Explorer-(NTM23006)-SINGLE-WEB-2023-FALCON
2023-12-12 21:48:24 MP3-WEB Talamasca_And_Stryker_Feat._Lucid-Boom_Fucking_Boom-(DCREP053)-SINGLE-WEB-2016-FALCON
2023-12-12 21:48:31 FLAC-WEB Johnny_Winter-Second_Winter_(Legacy_Edition)-16BIT-WEB-FLAC-2004-OBZEN
2023-12-12 21:48:38 MP3-WEB Unlimited_Psytrance-Interstellar-(HGREP020)-WEB-2021-FALCON
2023-12-12 21:48:52 MP3-WEB Gordian_Rate-Goatic_Injection-(5060376220520)-WEB-2014-FALCON
2023-12-12 21:49:06 MP3-WEB Astrix_And_Quantum-Yes_To_All-(BSHAMAN033)-SINGLE-WEB-2002-FALCON
2023-12-12 21:49:12 TV-WEB-HD-X264 Kriminalka.Andel.S05E16.Morituri.te.salutant.CZECH.1080p.WEB.H264-SDTV
2023-12-12 21:49:19 MP3-WEB Sans_Souci-Condor-WEB-2021-FALCON
2023-12-12 21:49:33 FLAC-WEB Johnny_Winter-Serious_Business-REISSUE-16BIT-WEB-FLAC-2011-OBZEN
2023-12-12 21:49:35 MP3-WEB Creative_Mind-DMO-(3F078)-SINGLE-WEB-2023-FALCON
2023-12-12 21:50:35 FLAC-WEB Johnny_Winter-Still_Alive_And_Well-REMASTERED-16BIT-WEB-FLAC-1994-OBZEN
2023-12-12 21:51:38 FLAC-WEB Johnny_Winter-The_Progressive_Blues_Experiment_(Live)-REISSUE-16BIT-WEB-FLAC-2005-OBZEN
2023-12-12 21:51:57 MBLURAY Blue.Oyster.Cult.50th.Anniversary.Live.In.NYC.First.Night.2022.720p.MBluRay.x264-403
2023-12-12 21:52:40 FLAC-WEB Johnny_Winter-White_Hot_and_Blue-REMASTERED-16BIT-WEB-FLAC-2011-OBZEN
2023-12-12 21:53:43 FLAC-WEB Johnny_Winter_With_Dr._John-Live_In_Sweden_1987-16BIT-WEB-FLAC-2016-OBZEN
2023-12-12 21:54:46 FLAC-WEB The_Edgar_Winter_Group-Shock_Treatment-REMASTERED-16BIT-WEB-FLAC-2011-OBZEN
2023-12-12 21:54:59 MBLURAY Blue.Oyster.Cult.50th.Anniversary.Live.In.NYC.First.Night.2022.COMPLETE.MBLURAY-403
2023-12-12 21:55:48 FLAC-WEB The_Edgar_Winter_Group-The_Edgar_Winter_Group_With_Rick_Derringer-REMASTERED-16BIT-WEB-FLAC-2012-OBZEN
2023-12-12 21:56:51 FLAC-WEB The_Edgar_Winter_Group-They_Only_Come_Out_At_Night-REISSUE-16BIT-WEB-FLAC-2020-OBZEN
2023-12-12 21:57:18 TV-WEB-HD-X264 Jacques.En.Urbain.Op.Wereldtournee.S01E06.FLEMISH.1080p.WEB.h264-TRIPEL
2023-12-12 21:57:54 FLAC-WEB The_Edgar_Winter_Group_and_Rick_Derringer-Live_In_Japan-REISSUE-16BIT-WEB-FLAC-2011-OBZEN
2023-12-12 21:58:57 FLAC-WEB Uncle_Joe_Turner_and_Johnny_Winter-Uncle_Joe_Turner_and_Johnny_Winter-16BIT-WEB-FLAC-1989-OBZEN
2023-12-12 21:59:55 BLURAY-AVC Mission.Babybaer.Eine.tierische.Tour.2022.German.DL.1080p.BluRay.AVC-PL3X
2023-12-12 22:00:26 TV-WEB-HD-X264 Hudson.und.Rex.S05E11.GERMAN.720p.WEB.h264-SAUERKRAUT
2023-12-12 22:00:27 X264-HD Paw.Patrol.Der.Mighty.Kinofilm.2023.German.DL.1080p.BluRay.x264-DETAiLS
2023-12-12 22:00:35 TV-WEB-HD-X264 Hudson.und.Rex.S05E11.GERMAN.1080p.WEB.h264-SAUERKRAUT
2023-12-12 22:00:37 X264-HD Paw.Patrol.Der.Mighty.Kinofilm.2023.German.720p.BluRay.x264-DETAiLS
2023-12-12 22:00:39 X264 Paw.Patrol.Der.Mighty.Kinofilm.2023.German.BDRip.x264-DETAiLS
2023-12-12 22:00:55 X264-HD Mission.Babybaer.Eine.tierische.Tour.2022.German.DL.1080p.BluRay.x264-PL3X
2023-12-12 22:01:09 BLURAY Mojave.Diamonds.2023.MULTi.COMPLETE.BLURAY-SharpHD
2023-12-12 22:01:17 FLAC Immanu_El-Hibernation-(GRCD_890)-CD-FLAC-2016-SHGZ
2023-12-12 22:01:33 TV-WEB-HD-X264 Hudson.und.Rex.S05E12.GERMAN.720p.WEB.h264-SAUERKRAUT
2023-12-12 22:01:44 TV-WEB-HD-X264 Hudson.und.Rex.S05E12.GERMAN.1080p.WEB.h264-SAUERKRAUT
2023-12-12 22:02:04 X264 Mission.Babybaer.Eine.tierische.Tour.German.2022.AC3.BDRiP.x264-PL3X
2023-12-12 22:02:45 TV-WEB-HD-X264 FBI.Most.Wanted.S04E13.FRENCH.720p.WEB.x264-AMB3R
2023-12-12 22:03:21 TV-WEB-X264 FBI.Most.Wanted.S04E13.FRENCH.WEB.x264-AMB3R
2023-12-12 22:05:06 TV-WEB-HD-X264 A.Returner.S.Magic.Should.Be.Special.E09.SUBFRENCH.1080p.WEB.x264-SLEEPINGFOREST
2023-12-12 22:07:14 X264-HD PAW.Patrol.The.Mighty.Movie.2023.1080p.BluRay.h264-BASES
2023-12-12 22:09:29 TV-HD-X264 Secrets.Of.The.Aquarium.S01E05.1080p.HDTV.H264-FTP
2023-12-12 22:09:38 BLURAY-AVC Paw.Patrol.Der.Mighty.Kinofilm.2023.German.DL.1080p.BluRay.AVC-UNTAVC
2023-12-12 22:10:04 TV-WEB-HD-X264 Buta.No.Liver.Wa.Kanetsu.Shiro.E08.SUBFRENCH.1080p.WEB.x264-SLEEPINGFOREST
2023-12-12 22:10:53 TV-WEB-HD-X264 Lipowo.Zmowa.Milczenia.S01E01.POLISH.720p.WEB.H264-FLAME
2023-12-12 22:11:09 TV-WEB-HD-X264 Lipowo.Zmowa.Milczenia.S01E02.POLISH.720p.WEB.H264-FLAME
2023-12-12 22:11:24 TV-WEB-HD-X264 Lipowo.Zmowa.Milczenia.S01E03.POLISH.720p.WEB.H264-FLAME
2023-12-12 22:11:42 TV-WEB-HD-X264 Lipowo.Zmowa.Milczenia.S01E04.POLISH.720p.WEB.H264-FLAME
2023-12-12 22:12:07 TV-WEB-HD-X264 Lipowo.Zmowa.Milczenia.S01E05.POLISH.720p.WEB.H264-FLAME
2023-12-12 22:12:24 TV-WEB-HD-X264 Lipowo.Zmowa.Milczenia.S01E06.POLISH.720p.WEB.H264-FLAME
2023-12-12 22:12:39 TV-WEB-HD-X264 Lipowo.Zmowa.Milczenia.S01E07.POLISH.720p.WEB.H264-FLAME
2023-12-12 22:12:56 TV-WEB-HD-X264 Lipowo.Zmowa.Milczenia.S01E08.POLISH.720p.WEB.H264-FLAME
2023-12-12 22:14:28 GAMES Tin.Hearts.Play.Hard-RUNE
2023-12-12 22:15:04 TV-WEB-HD-X264 Dead.Mount.Death.Play.E22.SUBFRENCH.1080p.WEB.x264-SLEEPINGFOREST
2023-12-12 22:15:21 FLAC Musee_Mecanique-From_Shores_Of_Sleep-(GRCD_822)-CD-FLAC-2014-SHGZ
2023-12-12 22:16:23 X264-HD HASHTAG.GESEGNET.-.Jessis.Weihnachtswunder.2022.GERMAN.DL.1080p.WEB.H264-MGE
2023-12-12 22:18:29 X264-HD HASHTAG.GESEGNET.-.Jessis.Weihnachtswunder.2022.GERMAN.DL.720p.WEB.H264-MGE
2023-12-12 22:20:03 TV-WEB-HD-X264 Hoshikuzu.Telepath.E10.SUBFRENCH.1080p.WEB.x264-SLEEPINGFOREST
2023-12-12 22:20:58 TV-WEB-HD-X264 Lipowo.Zmowa.Milczenia.S01E03.POLISH.1080p.WEB.H264-FLAME
2023-12-12 22:21:19 TV-WEB-HD-X264 Lipowo.Zmowa.Milczenia.S01E04.POLISH.1080p.WEB.H264-FLAME
2023-12-12 22:21:35 TV-WEB-HD-X264 Lipowo.Zmowa.Milczenia.S01E05.POLISH.1080p.WEB.H264-FLAME
2023-12-12 22:21:52 TV-WEB-HD-X264 Lipowo.Zmowa.Milczenia.S01E06.POLISH.1080p.WEB.H264-FLAME
2023-12-12 22:22:06 FLAC Pascal_Deweze-Cult_Of_Yes-(SMR104)-CD-FLAC-2017-SHGZ
2023-12-12 22:22:10 TV-WEB-HD-X264 Lipowo.Zmowa.Milczenia.S01E07.POLISH.1080p.WEB.H264-FLAME
2023-12-12 22:22:26 TV-WEB-HD-X264 Lipowo.Zmowa.Milczenia.S01E08.POLISH.1080p.WEB.H264-FLAME
2023-12-12 22:24:14 TV-WEB-HD-X264 Lipowo.Zmowa.Milczenia.S01E03.POLISH.2160p.WEB.H264-FLAME
2023-12-12 22:24:40 TV-WEB-HD-X264 Lipowo.Zmowa.Milczenia.S01E04.POLISH.2160p.WEB.H264-FLAME
2023-12-12 22:24:56 TV-WEB-HD-X264 Lipowo.Zmowa.Milczenia.S01E05.POLISH.2160p.WEB.H264-FLAME
2023-12-12 22:25:03 TV-WEB-HD-X264 Kamonohashi.Ron.No.Kindan.Suiri.E11.SUBFRENCH.1080p.WEB.x264-SLEEPINGFOREST
2023-12-12 22:25:14 TV-WEB-HD-X264 Lipowo.Zmowa.Milczenia.S01E06.POLISH.2160p.WEB.H264-FLAME
2023-12-12 22:25:31 TV-WEB-HD-X264 Lipowo.Zmowa.Milczenia.S01E07.POLISH.2160p.WEB.H264-FLAME
2023-12-12 22:25:47 TV-WEB-HD-X264 Lipowo.Zmowa.Milczenia.S01E08.POLISH.2160p.WEB.H264-FLAME
2023-12-12 22:29:54 TV-WEB-HD-X264 NCIS.Los.Angeles.S14E17.GERMAN.DL.1080p.WEB.h264-SAUERKRAUT
2023-12-12 22:30:04 TV-WEB-HD-X264 Kawagoe.Boys.Sing.E10.SUBFRENCH.1080p.WEB.x264-SLEEPINGFOREST
2023-12-12 22:30:27 TV-WEB-HD-X264 NCIS.Los.Angeles.S14E17.GERMAN.DL.720p.WEB.h264.REPACK-SAUERKRAUT
2023-12-12 22:31:03 TV-WEB-HD-X264 NCIS.Los.Angeles.S14E18.GERMAN.DL.1080p.WEB.h264-SAUERKRAUT
2023-12-12 22:31:35 TV-WEB-HD-X264 NCIS.Los.Angeles.S14E18.GERMAN.DL.720p.WEB.h264.REPACK-SAUERKRAUT
2023-12-12 22:32:06 TV-WEB-HD-X264 NCIS.Los.Angeles.S14E19.GERMAN.DL.1080p.WEB.h264-SAUERKRAUT
2023-12-12 22:32:35 EBOOK Disney.Once.Upon.a.Mouse.in.the.Future.No.06.2023.HYBRiD.COMiC.eBook-LiBRiCiDE
2023-12-12 22:32:40 TV-WEB-HD-X264 NCIS.Los.Angeles.S14E19.GERMAN.DL.720p.WEB.h264.REPACK-SAUERKRAUT
2023-12-12 22:32:57 EBOOK Bergsteiger.No.01.2024.GERMAN.HYBRID.MAGAZINE.eBook-LORENZ
2023-12-12 22:33:17 EBOOK Blinker.No.01.2024.GERMAN.HYBRID.MAGAZINE.eBook-LORENZ
2023-12-12 22:33:35 EBOOK Der.Ueberlaeufer.No.01.2024.GERMAN.HYBRID.MAGAZINE.eBook-LORENZ
2023-12-12 22:33:51 EBOOK Die.aktuelle.Krimi.Wahre.Verbrechen.No.30.2024.GERMAN.HYBRID.MAGAZINE.eBook-LORENZ
2023-12-12 22:34:08 EBOOK Forte.No.09.2023.GERMAN.HYBRID.MAGAZINE.eBook-LORENZ
2023-12-12 22:34:27 EBOOK Forte.No.10.2023.GERMAN.HYBRID.MAGAZINE.eBook-LORENZ
2023-12-12 22:34:31 MP3-WEB Harold_Matthews_Jr--Peripheral_Vision_(Streaming_Version)-(GVM035)-WEB-2022-OMA
2023-12-12 22:34:42 EBOOK Forte.No.11.2023.GERMAN.HYBRID.MAGAZINE.eBook-LORENZ
2023-12-12 22:35:01 EBOOK Forte.No.12.2023.GERMAN.HYBRID.MAGAZINE.eBook-LORENZ
2023-12-12 22:35:03 TV-WEB-HD-X264 Migi.To.Dali.E11.SUBFRENCH.1080p.WEB.x264-SLEEPINGFOREST
2023-12-12 22:35:17 EBOOK Geek.No.70.2024.GERMAN.HYBRID.MAGAZINE.eBook-LORENZ
2023-12-12 22:35:31 EBOOK Disney.Tianas.Adventure.Journal.-.The.Magic.of.Harlem.2023.HYBRiD.COMiC.eBook-LiBRiCiDE
2023-12-12 22:35:37 EBOOK JAGERN.No.04.2023.GERMAN.HYBRID.MAGAZINE.eBook-LORENZ
2023-12-12 22:35:53 EBOOK Laufzeit.No.01.2024.GERMAN.HYBRID.MAGAZINE.eBook-LORENZ
2023-12-12 22:36:09 EBOOK Pictures.Das.Foto-Magazin.No.01-02.2024.GERMAN.HYBRID.MAGAZINE.eBook-LORENZ
2023-12-12 22:36:11 MP3-WEB Harold_Matthews_Jr--Peripheral_Revisions-(GVM044)-WEB-2023-OMA
2023-12-12 22:36:26 EBOOK REISELUST.No.50.2023.GERMAN.HYBRID.MAGAZINE.eBook-LORENZ
2023-12-12 22:36:42 EBOOK SKIPPER.Bootshandel.No.01.2024.GERMAN.HYBRID.MAGAZINE.eBook-LORENZ
2023-12-12 22:37:00 EBOOK SkiMAGAZIN.No.04.2024.GERMAN.HYBRID.MAGAZINE.eBook-LORENZ
2023-12-12 22:37:15 EBOOK Spektrum.Kompakt.No.49.2023.GERMAN.HYBRID.MAGAZINE.eBook-LORENZ
2023-12-12 22:37:33 EBOOK TAUCHEN.No.01.2024.GERMAN.HYBRID.MAGAZINE.eBook-LORENZ
2023-12-12 22:37:48 EBOOK aktien.Magazin.No.22.2023.GERMAN.HYBRID.MAGAZINE.eBook-LORENZ
2023-12-12 22:38:04 EBOOK aktien.Magazin.No.23.2023.GERMAN.HYBRID.MAGAZINE.eBook-LORENZ
2023-12-12 22:38:21 EBOOK aktien.Magazin.No.24.2023.GERMAN.HYBRID.MAGAZINE.eBook-LORENZ
2023-12-12 22:38:37 EBOOK aktien.Magazin.No.25.2023.GERMAN.HYBRID.MAGAZINE.eBook-LORENZ
2023-12-12 22:38:53 EBOOK aktien.Magazin.No.26.2023.GERMAN.HYBRID.MAGAZINE.eBook-LORENZ
2023-12-12 22:39:10 EBOOK aktien.Magazin.No.27.2023.GERMAN.HYBRID.MAGAZINE.eBook-LORENZ
2023-12-12 22:39:27 EBOOK aktien.Magazin.No.28.2023.GERMAN.HYBRID.MAGAZINE.eBook-LORENZ
2023-12-12 22:39:43 EBOOK marina.ch.No.165.2023.GERMAN.HYBRID.MAGAZINE.eBook-LORENZ
2023-12-12 22:40:00 EBOOK marina.ch.No.166.2023.GERMAN.HYBRID.MAGAZINE.eBook-LORENZ
2023-12-12 22:40:03 TV-WEB-HD-X264 Potion-Danomi.De.Ikinobimasu.E08.SUBFRENCH.1080p.WEB.x264-SLEEPINGFOREST
2023-12-12 22:40:17 EBOOK marina.ch.No.167.2023.GERMAN.HYBRID.MAGAZINE.eBook-LORENZ
2023-12-12 22:43:45 FLAC The_White_Birch-The_Weight_Of_Spring-(GRCD_830)-CD-FLAC-2015-SHGZ
2023-12-12 22:45:03 TV-WEB-HD-X264 Potion-Danomi.De.Ikinobimasu.E10.SUBFRENCH.1080p.WEB.x264-SLEEPINGFOREST
2023-12-12 22:46:52 MP3-WEB Harold_Matthews_Jr_feat._Symone--One_Body_(Incl._Sean_McCabe_Remixes)-(GVM018)-WEB-2019-OMA
2023-12-12 22:48:12 TV-WEB-HD-X264 FBI.Most.Wanted.S04E14.FRENCH.720p.WEB.x264-AMB3R
2023-12-12 22:48:20 TV-WEB-X264 FBI.Most.Wanted.S04E14.FRENCH.WEB.x264-AMB3R
2023-12-12 22:48:34 TV-WEB-HD-X264 Acting.Good.S02E09.1080p.WEBRip.x264-BAE
2023-12-12 22:48:35 TV-WEB-HD-X264 Acting.Good.S02E09.720p.WEBRip.x264-BAE
2023-12-12 22:50:03 TV-WEB-HD-X264 Shy.E11.SUBFRENCH.1080p.WEB.x264-SLEEPINGFOREST
2023-12-12 22:50:14 EBOOK Disney.Uncle.Scrooge.No.17.2023.HYBRiD.COMiC.eBook-LiBRiCiDE
2023-12-12 22:50:29 TV-WEB-HD-X264 Snoefall.S02E12.NORWEGiAN.720p.WEB.h264-NORKiDS
2023-12-12 22:50:33 EBOOK Disney.Young.Donald.Duck.No.16.2023.HYBRiD.COMiC.eBook-LiBRiCiDE
2023-12-12 22:50:50 EBOOK FORM.No.06.2023.HYBRiD.MAGAZiNE.eBook-LiBRiCiDE
2023-12-12 22:51:08 EBOOK FORM.No.06.2023.SWEDiSH.HYBRiD.MAGAZiNE.eBook-LiBRiCiDE
2023-12-12 22:51:26 EBOOK Linux.Format.No.310.2024.HYBRiD.MAGAZiNE.eBook-LiBRiCiDE
2023-12-12 22:51:44 EBOOK N.B.-.Noir.et.Blanc.No.44.2023.FRENCH.HYBRiD.MAGAZiNE.eBook-LiBRiCiDE
2023-12-12 22:52:02 EBOOK marina.ch.N166.2023.FRENCH.HYBRiD.MAGAZiNE.eBook-LiBRiCiDE
2023-12-12 22:52:19 EBOOK marina.ch.N167.2023.FRENCH.HYBRiD.MAGAZiNE.eBook-LiBRiCiDE
2023-12-12 22:52:29 TV-WEB-HD-X264 Snoefall.S02E12.NORWEGiAN.1080p.WEB.h264-NORKiDS
2023-12-12 22:54:29 TV-WEB-HD-X264 Snoefall.S01E12.NORWEGiAN.720p.WEB.h264-NORKiDS
2023-12-12 22:55:04 TV-WEB-HD-X264 Toaru.Ossan.No.VRMMO.Katsudouki.E11.SUBFRENCH.1080p.WEB.x264-SLEEPINGFOREST
2023-12-12 22:55:06 MP3-WEB VA-Thee_J_Johanz_presents_Triptech_Journeys_Vol.2_Transcending_Machinery-(BALL114)-WEB-2023-BABAS
2023-12-12 22:55:27 MP3-WEB VA-Thee_J_Johanz_presents_Triptech_Journeys_Vol.1_There_Is_Power_In_Love-(BALL113)-WEB-2023-BABAS
2023-12-12 22:55:49 MP3-WEB Aspai_x_Antun-One-(LTVA01)-WEB-2023-BABAS
2023-12-12 22:56:10 MP3-WEB Thee_J_Johanz_x_MSRG-ADS-7-(BALL112)-WEB-2021-BABAS
2023-12-12 22:56:34 TV-WEB-HD-X264 Snoefall.S01E12.NORWEGiAN.1080p.WEB.h264-NORKiDS
2023-12-12 22:58:29 TV-WEB-HD-X264 Kometenes.Jul.S01E11.NORWEGiAN.720p.WEB.h264-NORKiDS
2023-12-12 22:59:30 MP3 Immanu_El-Hibernation-(GRCD_890)-CD-2016-SHGZ
2023-12-12 23:00:29 TV-WEB-HD-X264 Kometenes.Jul.S01E12.NORWEGiAN.720p.WEB.h264-NORKiDS
2023-12-12 23:02:30 TV-WEB-HD-X264 Gjoer.Det.Sjoel.Julekalender.S01E12.NORWEGiAN.720p.WEB.h264-NORKiDS
2023-12-12 23:04:04 MP3 Musee_Mecanique-From_Shores_Of_Sleep-(GRCD_822)-CD-2014-SHGZ
2023-12-12 23:04:26 TV-HD-X264 Vigil.S02E03.720p.HDTV.x264-ORGANiC
2023-12-12 23:04:30 TV-WEB-HD-X264 Tinka.og.Sjelens.Speil.S01E12.NORWEGiAN.720p.WEB.h264-NORKiDS
2023-12-12 23:04:35 TV-HD-X264 Vigil.S02E03.1080p.HDTV.H264-ORGANiC
2023-12-12 23:06:34 TV-WEB-HD-X264 Tinka.og.Sjelens.Speil.S01E12.NORWEGiAN.1080p.WEB.h264-NORKiDS
2023-12-12 23:06:43 MP3 Pascal_Deweze-Cult_Of_Yes-(SMR104)-CD-2017-SHGZ
2023-12-12 23:07:53 X264-HD Diamond.Heist.Ein.unmoeglicher.Auftrag.2023.German.720p.BluRay.x264-PL3X
2023-12-12 23:08:29 TV-WEB-HD-X264 Barnas.Superjul.S01E12.NORWEGiAN.720p.WEB.h264-NORKiDS
2023-12-12 23:08:52 MP3 The_White_Birch-The_Weight_Of_Spring-(GRCD_830)-CD-2015-SHGZ_INT
2023-12-12 23:08:55 BLURAY-AVC Diamond.Heist.Ein.unmoeglicher.Auftrag.2023.German.DL.1080p.BluRay.AVC-PL3X
2023-12-12 23:09:55 X264-HD Diamond.Heist.Ein.unmoeglicher.Auftrag.2023.German.DL.1080p.BluRay.x264-PL3X
2023-12-12 23:10:29 TV-WEB-HD-X264 Fantorangens.Jul.S01E12.NORWEGiAN.720p.WEB.h264-NORKiDS
2023-12-12 23:10:57 X264 Diamond.Heist.Ein.unmoeglicher.Auftrag.German.2023.AC3.BDRiP.x264-PL3X
2023-12-12 23:12:29 TV-WEB-HD-X264 Jul.Paa.Maanetoppen.S01E12.NORWEGiAN.720p.WEB.h264-NORKiDS
2023-12-12 23:21:23 X264-HD Verhandlungssache.1998.GERMAN.DL.1080p.WEB.H264.iNTERNAL-SunDry
2023-12-12 23:22:16 X264-HD Verhandlungssache.1998.GERMAN.DL.720p.WEB.H264.iNTERNAL-SunDry
2023-12-12 23:22:19 TV-WEB-HD-X264 Los.Jets.S01E01.1080p.WEB.h264-COALESCENCE
2023-12-12 23:23:17 TV-WEB-HD-X264 Los.Jets.S01E02.1080p.WEB.h264-COALESCENCE
2023-12-12 23:23:22 X264-HD Speed.1994.GERMAN.DL.1080p.WEB.H264.iNTERNAL-SunDry
2023-12-12 23:23:41 MP3-WEB Atrice_x_Shalt-Derailed_EP-(UU008)-WEB-2023-BABAS
2023-12-12 23:24:04 MP3-ViNYL VA-Dreaming_Vinyl_Compilation_01-(DVCOMP001)-WEB-2023-BABAS
2023-12-12 23:24:19 TV-WEB-HD-X264 Los.Jets.S01E03.1080p.WEB.h264-COALESCENCE
2023-12-12 23:24:25 MP3-WEB VA-Fill_My_Head_With_Music_1-(3EEP202401)-WEB-2023-BABAS
2023-12-12 23:24:48 MP3-WEB VA-Counteroffensive-(MSTXCO)-WEB-2023-BABAS
2023-12-12 23:25:08 MP3-WEB VA-Unknown_Untitled_Various_Artists_EP-(UU006)-WEB-2023-BABAS
2023-12-12 23:25:19 TV-WEB-HD-X264 Los.Jets.S01E04.1080p.WEB.h264-COALESCENCE
2023-12-12 23:25:21 X264-HD Speed.1994.GERMAN.DL.720p.WEB.H264.iNTERNAL-SunDry
2023-12-12 23:25:30 MP3-WEB uu_rhythm-Zip-(UU007)-SINGLE-WEB-2023-BABAS
2023-12-12 23:25:31 TV-WEB-HD-X264 Tokyo.Revengers.Tenjiku-hen.E11.SUBFRENCH.720p.WEB.H264-AMB3R
2023-12-12 23:25:40 TV-WEB-X264 Tokyo.Revengers.Tenjiku-hen.E11.SUBFRENCH.WEB.H264-AMB3R
2023-12-12 23:25:51 MP3-WEB VA-MEGA_STRESS_Vol.1-(BSP005)-WEB-2023-BABAS
2023-12-12 23:26:14 MP3-WEB Kilig_x_Ciel-Free_EP-(UU003)-WEB-2022-BABAS
2023-12-12 23:26:19 TV-WEB-HD-X264 Los.Jets.S01E05.1080p.WEB.h264-COALESCENCE
2023-12-12 23:27:18 TV-WEB-HD-X264 Los.Jets.S01E06.1080p.WEB.h264-COALESCENCE
2023-12-12 23:28:14 MP3 Grausame_Toechter-BDSM_For_Satisfaction-DE-Limited_Edition-CD-2023-FWYH
2023-12-12 23:28:46 X264-HD High.Crimes.2002.GERMAN.DL.1080p.WEB.H264.iNTERNAL-SunDry
2023-12-12 23:28:48 MP3 Twin_Rattler-Defiance-Limited_Edition-CD-2023-FWYH
2023-12-12 23:31:31 X264-HD High.Crimes.2002.GERMAN.DL.720p.WEB.H264.iNTERNAL-SunDry
2023-12-12 23:32:13 MP3-WEB Danny_Howells-New_Year_Sunrise_(Punta_Del_Este_Argentina)-STREAM-01-01-2023-CiN_INT
2023-12-12 23:33:34 MP3-WEB David_Forbes-Live_At_A_State_Of_Trance_Special_(London)-STREAM-06-09-2023-CiN_INT
2023-12-12 23:34:52 MP3-WEB John_Digweed-Transitions_1006_Incl_Jozef_K_Guestmix-STREAM-12-08-2023-CiN_INT
2023-12-12 23:36:08 MP3-WEB Sasha-Live_At_Panorama_Bar_In_Berlin_(COMPLETE_SET)-STREAM-08-20-2011-CiN_INT
2023-12-12 23:38:05 MDVDR Jacky.Trap.Jacky.Trap.2003.PAL.ES.BONUS.COMPLETE.MDVDR-CEBADVD
2023-12-12 23:39:15 GAMES-DOX Easy.Red.2.Ardennes.1940.And.1944.Update.v1.2.9f1-TENOKE
2023-12-12 23:39:27 GAMES-DOX Northgard.Vordr.Clan.of.the.Owl.Update.v.3.3.5.35749-TENOKE
2023-12-12 23:39:39 GAMES-DOX Tales.of.Arise.Beyond.the.Dawn.Expansion.Update.v20231212-TENOKE
2023-12-12 23:39:51 GAMES-DOX Teardown.Time.Campers.Update.v20231211-TENOKE
2023-12-12 23:40:03 GAMES-DOX Warm.Snow.The.End.Of.Karma.Update.v3.0.0.5-TENOKE
2023-12-12 23:40:14 GAMES-DOX Generation.Zero.Guerrilla.Research.Update.v2654229.incl.DLC-TENOKE
2023-12-12 23:42:27 EBOOK Annelise.Ryan.-.A.Death.In.Door.County.A.Monster.Hunter.Mystery.1.2022.RETAIL.EPUB.eBook-CTO
2023-12-12 23:42:27 MDVDR Mocedades.Eres.Tu.Los.Grandes.Exitos.2006.PAL.ES.BONUS.COMPLETE.MDVDR-CEBADVD
2023-12-12 23:42:50 EBOOK Ariana.Godoy.-.Through.My.Window.The.Hidalgo.Brothers.1.2022.RETAIL.EPUB.eBook-CTO
2023-12-12 23:43:11 EBOOK Ariana.Godoy.-.Through.You.The.Hidalgo.Brothers.2.2023.RETAIL.EPUB.eBook-CTO
2023-12-12 23:43:32 EBOOK Byron.Reese.-.We.Are.Agora.How.Humanity.Functions.As.A.Single.Superorganism.That.Shapes.Our.World.And.Our.Future.2023.RETAIL.EPUB.eBook-CTO
2023-12-12 23:43:55 EBOOK Carrie.Brownstein.-.Hunger.Makes.Me.A.Modern.Girl.A.Memoir.2015.RETAIL.EPUB.eBook-CTO
2023-12-12 23:44:16 EBOOK Colin.Meloy.-.Everyones.Awake.2020.RETAIL.EPUB.eBook-CTO
2023-12-12 23:44:38 EBOOK Colin.Meloy.-.The.Stars.Did.Wander.Darkling.2022.RETAIL.EPUB.eBook-CTO
2023-12-12 23:45:00 EBOOK Colin.Meloy.-.The.Whiz.Mob.And.The.Grenadine.Kid.2017.RETAIL.EPUB.eBook-CTO
2023-12-12 23:45:22 EBOOK Colin.Meloy.-.Under.Wildwood.The.Wildwood.Chronicles.2.2012.RETAIL.EPUB.eBook-CTO
2023-12-12 23:45:43 EBOOK Colin.Meloy.-.Wildwood.Imperium.The.Wildwood.Chronicles.3.2014.RETAIL.EPUB.eBook-CTO
2023-12-12 23:46:04 EBOOK Colin.Meloy.-.Wildwood.The.Wildwood.Chronicles.1.2011.RETAIL.EPUB.eBook-CTO
2023-12-12 23:46:26 EBOOK James.Holland.-.The.Savage.Storm.The.Battle.For.Italy.1943.2023.RETAIL.EPUB.eBook-CTO
2023-12-12 23:46:47 EBOOK John.Keahey.-.Following.Caesar.From.Rome.To.Constantinople.The.Pathways.That.Planted.The.Seeds.Of.Empire.2023.RETAIL.EPUB.eBook-CTO
2023-12-12 23:47:08 EBOOK Josh.Ritter.-.Brights.Passage.A.Novel.2011.RETAIL.EPUB.eBook-CTO
2023-12-12 23:47:30 EBOOK Josh.Ritter.-.The.Great.Glorious.Goddamn.Of.It.All.A.Novel.2021.RETAIL.EPUB.eBook-CTO
2023-12-12 23:47:51 EBOOK Nick.Cave.-.And.The.Ass.Saw.The.Angel.2013.RETAIL.EPUB.eBook-CTO
2023-12-12 23:48:13 EBOOK Nick.Cave.-.The.Complete.Lyrics.1978-2013.2007.RETAIL.EPUB.eBook-CTO
2023-12-12 23:48:34 EBOOK Nick.Cave.-.The.Death.Of.Bunny.Munro.2014.RETAIL.EPUB.eBook-CTO
2023-12-12 23:49:00 EBOOK Nick.Cave.And.Sean.OHagan.-.Faith.Hope.And.Carnage.2022.RETAIL.EPUB.eBook-CTO
2023-12-12 23:49:22 EBOOK Peter.Singer.And.Shih.Chao-Hwei.-.The.Buddhist.And.The.Ethicist.Conversations.On.Effective.Altruism.Engaged.Buddhism.And.How.To.Build.A.Better.World.2023.RETAIL.EPUB.eBook-CTO
2023-12-12 23:49:44 EBOOK Robert.F.Kennedy.Jr.-.The.Wuhan.Cover-Up.And.The.Terrifying.Bioweapons.Arms.Race.2023.RETAIL.EPUB.eBook-CTO
2023-12-12 23:50:05 EBOOK Steve.Martin.-.An.Object.Of.Beauty.A.Novel.2010.RETAIL.EPUB.eBook-CTO
2023-12-12 23:50:26 EBOOK Steve.Martin.-.Born.Standing.Up.A.Comics.Life.2007.RETAIL.EPUB.eBook-CTO
2023-12-12 23:50:47 EBOOK Steve.Martin.-.Shopgirl.A.Novella.2010.RETAIL.EPUB.eBook-CTO
2023-12-12 23:51:17 EBOOK Steve.Martin.-.The.Pleasure.Of.My.Company.A.Novel.2003.RETAIL.EPUB.eBook-CTO
2023-12-12 23:51:39 EBOOK Steve.Martin.-.The.Underpants.A.Play.By.Carl.Sternheim.2015.RETAIL.EPUB.eBook-CTO